<?xml version="1.0" encoding="UTF-8" standalone="no" ?>
<gpx xmlns="http://www.topografix.com/GPX/1/1" xmlns:xsi="http://www.w3.org/2001/XMLSchema-instance" xsi:schemaLocation="http://www.topografix.com/GPX/1/1 http://www.topografix.com/GPX/1/1/gpx.xsd" version="1.1" creator="VisuGPX - https://www.visugpx.com">
  <metadata>
    <name>Canale de Maresille et aqueduc de Roquefavour</name>
    <desc><![CDATA[Avec une bonne visibilité, on y voit de très beaux paysages et de nombreux massifs.
Terrain relativement facile (piste / pas de pierrier), peu de pentes raides (ou alors très courtes).
]]></desc>
  </metadata>
  <trk>
    <name><![CDATA[2020-01-12 15:24:29]]></name>
    <trkseg>
      <trkpt lat="43.53471" lon="5.29887">
        <ele>249.12</ele>
        <time>2020-01-12T09:52:43Z</time>
      </trkpt>
      <trkpt lat="43.53471" lon="5.29888">
        <ele>249.6</ele>
        <time>2020-01-12T09:52:56Z</time>
      </trkpt>
      <trkpt lat="43.5347" lon="5.29891">
        <ele>248.64</ele>
        <time>2020-01-12T09:53:25Z</time>
      </trkpt>
      <trkpt lat="43.53464" lon="5.29897">
        <ele>248.16</ele>
        <time>2020-01-12T09:53:34Z</time>
      </trkpt>
      <trkpt lat="43.53456" lon="5.29904">
        <ele>248.16</ele>
        <time>2020-01-12T09:53:44Z</time>
      </trkpt>
      <trkpt lat="43.53454" lon="5.29905">
        <ele>248.16</ele>
        <time>2020-01-12T09:53:46Z</time>
      </trkpt>
      <trkpt lat="43.53444" lon="5.29919">
        <ele>248.64</ele>
        <time>2020-01-12T09:54:01Z</time>
      </trkpt>
      <trkpt lat="43.53442" lon="5.29921">
        <ele>248.64</ele>
        <time>2020-01-12T09:54:03Z</time>
      </trkpt>
      <trkpt lat="43.53441" lon="5.29924">
        <ele>248.64</ele>
        <time>2020-01-12T09:54:05Z</time>
      </trkpt>
      <trkpt lat="43.53442" lon="5.29926">
        <ele>246.72</ele>
        <time>2020-01-12T09:54:18Z</time>
      </trkpt>
      <trkpt lat="43.53442" lon="5.29927">
        <ele>245.75</ele>
        <time>2020-01-12T09:54:35Z</time>
      </trkpt>
      <trkpt lat="43.53441" lon="5.29928">
        <ele>245.75</ele>
        <time>2020-01-12T09:54:39Z</time>
      </trkpt>
      <trkpt lat="43.5343" lon="5.29928">
        <ele>246.72</ele>
        <time>2020-01-12T09:54:51Z</time>
      </trkpt>
      <trkpt lat="43.5342" lon="5.29933">
        <ele>249.6</ele>
        <time>2020-01-12T09:55:00Z</time>
      </trkpt>
      <trkpt lat="43.53418" lon="5.29934">
        <ele>250.08</ele>
        <time>2020-01-12T09:55:02Z</time>
      </trkpt>
      <trkpt lat="43.53406" lon="5.29945">
        <ele>251.52</ele>
        <time>2020-01-12T09:55:17Z</time>
      </trkpt>
      <trkpt lat="43.53394" lon="5.29954">
        <ele>253.93</ele>
        <time>2020-01-12T09:55:31Z</time>
      </trkpt>
      <trkpt lat="43.53394" lon="5.29955">
        <ele>253.93</ele>
        <time>2020-01-12T09:55:32Z</time>
      </trkpt>
      <trkpt lat="43.53384" lon="5.29964">
        <ele>257.77</ele>
        <time>2020-01-12T09:55:44Z</time>
      </trkpt>
      <trkpt lat="43.53373" lon="5.29972">
        <ele>259.21</ele>
        <time>2020-01-12T09:55:55Z</time>
      </trkpt>
      <trkpt lat="43.53361" lon="5.29985">
        <ele>260.65</ele>
        <time>2020-01-12T09:56:09Z</time>
      </trkpt>
      <trkpt lat="43.53359" lon="5.29998">
        <ele>259.69</ele>
        <time>2020-01-12T09:56:17Z</time>
      </trkpt>
      <trkpt lat="43.53359" lon="5.30003">
        <ele>258.73</ele>
        <time>2020-01-12T09:56:20Z</time>
      </trkpt>
      <trkpt lat="43.53359" lon="5.30023">
        <ele>255.37</ele>
        <time>2020-01-12T09:56:33Z</time>
      </trkpt>
      <trkpt lat="43.53355" lon="5.30036">
        <ele>255.85</ele>
        <time>2020-01-12T09:56:43Z</time>
      </trkpt>
      <trkpt lat="43.53354" lon="5.30051">
        <ele>253.93</ele>
        <time>2020-01-12T09:56:51Z</time>
      </trkpt>
      <trkpt lat="43.53353" lon="5.30059">
        <ele>249.6</ele>
        <time>2020-01-12T09:57:06Z</time>
      </trkpt>
      <trkpt lat="43.53354" lon="5.30064">
        <ele>247.2</ele>
        <time>2020-01-12T09:57:32Z</time>
      </trkpt>
      <trkpt lat="43.53354" lon="5.30069">
        <ele>246.72</ele>
        <time>2020-01-12T09:57:46Z</time>
      </trkpt>
      <trkpt lat="43.53353" lon="5.30068">
        <ele>245.75</ele>
        <time>2020-01-12T09:58:06Z</time>
      </trkpt>
      <trkpt lat="43.53353" lon="5.30071">
        <ele>243.35</ele>
        <time>2020-01-12T09:58:39Z</time>
      </trkpt>
      <trkpt lat="43.53356" lon="5.30072">
        <ele>243.83</ele>
        <time>2020-01-12T09:58:53Z</time>
      </trkpt>
      <trkpt lat="43.53358" lon="5.30072">
        <ele>244.79</ele>
        <time>2020-01-12T09:59:24Z</time>
      </trkpt>
      <trkpt lat="43.53356" lon="5.30077">
        <ele>245.27</ele>
        <time>2020-01-12T09:59:36Z</time>
      </trkpt>
      <trkpt lat="43.53354" lon="5.30093">
        <ele>245.27</ele>
        <time>2020-01-12T09:59:49Z</time>
      </trkpt>
      <trkpt lat="43.53352" lon="5.3011">
        <ele>245.27</ele>
        <time>2020-01-12T10:00:02Z</time>
      </trkpt>
      <trkpt lat="43.5335" lon="5.30117">
        <ele>245.27</ele>
        <time>2020-01-12T10:00:08Z</time>
      </trkpt>
      <trkpt lat="43.5335" lon="5.30127">
        <ele>243.83</ele>
        <time>2020-01-12T10:00:25Z</time>
      </trkpt>
      <trkpt lat="43.5335" lon="5.30127">
        <ele>244.79</ele>
        <time>2020-01-12T10:00:47Z</time>
      </trkpt>
      <trkpt lat="43.53349" lon="5.30127">
        <ele>244.31</ele>
        <time>2020-01-12T10:01:03Z</time>
      </trkpt>
      <trkpt lat="43.5335" lon="5.30127">
        <ele>244.79</ele>
        <time>2020-01-12T10:01:24Z</time>
      </trkpt>
      <trkpt lat="43.53347" lon="5.30142">
        <ele>242.87</ele>
        <time>2020-01-12T10:01:39Z</time>
      </trkpt>
      <trkpt lat="43.53346" lon="5.30159">
        <ele>241.43</ele>
        <time>2020-01-12T10:01:51Z</time>
      </trkpt>
      <trkpt lat="43.53345" lon="5.30162">
        <ele>241.43</ele>
        <time>2020-01-12T10:01:53Z</time>
      </trkpt>
      <trkpt lat="43.53346" lon="5.3017">
        <ele>240.95</ele>
        <time>2020-01-12T10:02:00Z</time>
      </trkpt>
      <trkpt lat="43.53346" lon="5.30178">
        <ele>240.47</ele>
        <time>2020-01-12T10:02:05Z</time>
      </trkpt>
      <trkpt lat="43.53346" lon="5.30181">
        <ele>239.99</ele>
        <time>2020-01-12T10:02:07Z</time>
      </trkpt>
      <trkpt lat="43.53343" lon="5.30204">
        <ele>239.51</ele>
        <time>2020-01-12T10:02:22Z</time>
      </trkpt>
      <trkpt lat="43.53342" lon="5.30224">
        <ele>239.99</ele>
        <time>2020-01-12T10:02:37Z</time>
      </trkpt>
      <trkpt lat="43.53341" lon="5.30229">
        <ele>242.39</ele>
        <time>2020-01-12T10:02:49Z</time>
      </trkpt>
      <trkpt lat="43.53341" lon="5.30241">
        <ele>241.43</ele>
        <time>2020-01-12T10:03:04Z</time>
      </trkpt>
      <trkpt lat="43.5334" lon="5.30261">
        <ele>239.99</ele>
        <time>2020-01-12T10:03:18Z</time>
      </trkpt>
      <trkpt lat="43.5334" lon="5.30281">
        <ele>239.02</ele>
        <time>2020-01-12T10:03:31Z</time>
      </trkpt>
      <trkpt lat="43.5334" lon="5.30287">
        <ele>238.54</ele>
        <time>2020-01-12T10:03:35Z</time>
      </trkpt>
      <trkpt lat="43.53339" lon="5.30292">
        <ele>239.02</ele>
        <time>2020-01-12T10:03:48Z</time>
      </trkpt>
      <trkpt lat="43.53339" lon="5.30294">
        <ele>239.02</ele>
        <time>2020-01-12T10:03:51Z</time>
      </trkpt>
      <trkpt lat="43.53338" lon="5.30304">
        <ele>238.06</ele>
        <time>2020-01-12T10:03:59Z</time>
      </trkpt>
      <trkpt lat="43.53337" lon="5.30316">
        <ele>237.58</ele>
        <time>2020-01-12T10:04:09Z</time>
      </trkpt>
      <trkpt lat="43.53336" lon="5.30319">
        <ele>237.58</ele>
        <time>2020-01-12T10:04:11Z</time>
      </trkpt>
      <trkpt lat="43.53335" lon="5.30335">
        <ele>238.54</ele>
        <time>2020-01-12T10:04:24Z</time>
      </trkpt>
      <trkpt lat="43.53334" lon="5.30342">
        <ele>238.54</ele>
        <time>2020-01-12T10:04:29Z</time>
      </trkpt>
      <trkpt lat="43.53333" lon="5.30358">
        <ele>237.58</ele>
        <time>2020-01-12T10:04:42Z</time>
      </trkpt>
      <trkpt lat="43.53332" lon="5.30367">
        <ele>237.1</ele>
        <time>2020-01-12T10:04:50Z</time>
      </trkpt>
      <trkpt lat="43.5333" lon="5.30385">
        <ele>236.62</ele>
        <time>2020-01-12T10:05:04Z</time>
      </trkpt>
      <trkpt lat="43.53329" lon="5.30396">
        <ele>236.62</ele>
        <time>2020-01-12T10:05:11Z</time>
      </trkpt>
      <trkpt lat="43.53327" lon="5.30409">
        <ele>236.14</ele>
        <time>2020-01-12T10:05:21Z</time>
      </trkpt>
      <trkpt lat="43.53326" lon="5.30412">
        <ele>235.66</ele>
        <time>2020-01-12T10:05:23Z</time>
      </trkpt>
      <trkpt lat="43.53325" lon="5.30423">
        <ele>234.7</ele>
        <time>2020-01-12T10:05:31Z</time>
      </trkpt>
      <trkpt lat="43.53321" lon="5.30444">
        <ele>234.22</ele>
        <time>2020-01-12T10:05:46Z</time>
      </trkpt>
      <trkpt lat="43.5332" lon="5.3045">
        <ele>232.3</ele>
        <time>2020-01-12T10:06:05Z</time>
      </trkpt>
      <trkpt lat="43.53319" lon="5.30451">
        <ele>232.3</ele>
        <time>2020-01-12T10:06:09Z</time>
      </trkpt>
      <trkpt lat="43.53316" lon="5.30459">
        <ele>231.81</ele>
        <time>2020-01-12T10:06:21Z</time>
      </trkpt>
      <trkpt lat="43.53309" lon="5.30464">
        <ele>231.33</ele>
        <time>2020-01-12T10:06:32Z</time>
      </trkpt>
      <trkpt lat="43.53307" lon="5.30465">
        <ele>231.33</ele>
        <time>2020-01-12T10:06:34Z</time>
      </trkpt>
      <trkpt lat="43.53293" lon="5.30473">
        <ele>230.85</ele>
        <time>2020-01-12T10:06:46Z</time>
      </trkpt>
      <trkpt lat="43.53291" lon="5.30474">
        <ele>231.33</ele>
        <time>2020-01-12T10:06:48Z</time>
      </trkpt>
      <trkpt lat="43.53276" lon="5.30479">
        <ele>232.3</ele>
        <time>2020-01-12T10:07:02Z</time>
      </trkpt>
      <trkpt lat="43.53273" lon="5.30482">
        <ele>231.81</ele>
        <time>2020-01-12T10:07:06Z</time>
      </trkpt>
      <trkpt lat="43.53267" lon="5.30486">
        <ele>231.81</ele>
        <time>2020-01-12T10:07:21Z</time>
      </trkpt>
      <trkpt lat="43.53264" lon="5.3049">
        <ele>231.33</ele>
        <time>2020-01-12T10:07:25Z</time>
      </trkpt>
      <trkpt lat="43.5326" lon="5.30495">
        <ele>229.41</ele>
        <time>2020-01-12T10:07:37Z</time>
      </trkpt>
      <trkpt lat="43.5326" lon="5.30499">
        <ele>228.93</ele>
        <time>2020-01-12T10:07:47Z</time>
      </trkpt>
      <trkpt lat="43.53264" lon="5.30526">
        <ele>226.53</ele>
        <time>2020-01-12T10:08:03Z</time>
      </trkpt>
      <trkpt lat="43.53273" lon="5.3054">
        <ele>224.61</ele>
        <time>2020-01-12T10:08:14Z</time>
      </trkpt>
      <trkpt lat="43.53288" lon="5.30545">
        <ele>224.12</ele>
        <time>2020-01-12T10:08:27Z</time>
      </trkpt>
      <trkpt lat="43.53301" lon="5.30545">
        <ele>223.16</ele>
        <time>2020-01-12T10:08:38Z</time>
      </trkpt>
      <trkpt lat="43.53318" lon="5.30547">
        <ele>220.76</ele>
        <time>2020-01-12T10:08:53Z</time>
      </trkpt>
      <trkpt lat="43.5333" lon="5.30546">
        <ele>220.76</ele>
        <time>2020-01-12T10:09:05Z</time>
      </trkpt>
      <trkpt lat="43.53344" lon="5.30546">
        <ele>220.28</ele>
        <time>2020-01-12T10:09:17Z</time>
      </trkpt>
      <trkpt lat="43.53358" lon="5.30546">
        <ele>220.76</ele>
        <time>2020-01-12T10:09:29Z</time>
      </trkpt>
      <trkpt lat="43.53365" lon="5.30547">
        <ele>218.36</ele>
        <time>2020-01-12T10:09:38Z</time>
      </trkpt>
      <trkpt lat="43.53369" lon="5.30551">
        <ele>217.88</ele>
        <time>2020-01-12T10:09:45Z</time>
      </trkpt>
      <trkpt lat="43.53371" lon="5.30561">
        <ele>215.95</ele>
        <time>2020-01-12T10:09:58Z</time>
      </trkpt>
      <trkpt lat="43.5337" lon="5.30564">
        <ele>215.47</ele>
        <time>2020-01-12T10:10:01Z</time>
      </trkpt>
      <trkpt lat="43.53364" lon="5.3058">
        <ele>214.51</ele>
        <time>2020-01-12T10:10:14Z</time>
      </trkpt>
      <trkpt lat="43.53357" lon="5.30596">
        <ele>214.03</ele>
        <time>2020-01-12T10:10:27Z</time>
      </trkpt>
      <trkpt lat="43.53349" lon="5.30614">
        <ele>213.07</ele>
        <time>2020-01-12T10:10:41Z</time>
      </trkpt>
      <trkpt lat="43.53348" lon="5.30615">
        <ele>212.59</ele>
        <time>2020-01-12T10:10:42Z</time>
      </trkpt>
      <trkpt lat="43.53342" lon="5.30628">
        <ele>209.22</ele>
        <time>2020-01-12T10:10:53Z</time>
      </trkpt>
      <trkpt lat="43.5334" lon="5.30629">
        <ele>208.74</ele>
        <time>2020-01-12T10:10:55Z</time>
      </trkpt>
      <trkpt lat="43.53332" lon="5.30645">
        <ele>207.78</ele>
        <time>2020-01-12T10:11:09Z</time>
      </trkpt>
      <trkpt lat="43.53323" lon="5.30652">
        <ele>207.3</ele>
        <time>2020-01-12T10:11:21Z</time>
      </trkpt>
      <trkpt lat="43.53313" lon="5.3066">
        <ele>206.82</ele>
        <time>2020-01-12T10:11:35Z</time>
      </trkpt>
      <trkpt lat="43.53307" lon="5.30663">
        <ele>207.3</ele>
        <time>2020-01-12T10:11:41Z</time>
      </trkpt>
      <trkpt lat="43.53294" lon="5.3067">
        <ele>205.38</ele>
        <time>2020-01-12T10:11:54Z</time>
      </trkpt>
      <trkpt lat="43.53281" lon="5.30677">
        <ele>205.38</ele>
        <time>2020-01-12T10:12:07Z</time>
      </trkpt>
      <trkpt lat="43.5327" lon="5.30679">
        <ele>205.38</ele>
        <time>2020-01-12T10:12:19Z</time>
      </trkpt>
      <trkpt lat="43.53259" lon="5.30686">
        <ele>206.82</ele>
        <time>2020-01-12T10:12:32Z</time>
      </trkpt>
      <trkpt lat="43.53253" lon="5.3069">
        <ele>206.82</ele>
        <time>2020-01-12T10:12:39Z</time>
      </trkpt>
      <trkpt lat="43.53243" lon="5.30694">
        <ele>205.38</ele>
        <time>2020-01-12T10:12:50Z</time>
      </trkpt>
      <trkpt lat="43.5323" lon="5.30696">
        <ele>202.49</ele>
        <time>2020-01-12T10:13:01Z</time>
      </trkpt>
      <trkpt lat="43.53213" lon="5.30699">
        <ele>203.46</ele>
        <time>2020-01-12T10:13:16Z</time>
      </trkpt>
      <trkpt lat="43.53199" lon="5.30699">
        <ele>201.53</ele>
        <time>2020-01-12T10:13:27Z</time>
      </trkpt>
      <trkpt lat="43.5319" lon="5.30703">
        <ele>201.05</ele>
        <time>2020-01-12T10:13:40Z</time>
      </trkpt>
      <trkpt lat="43.53175" lon="5.30705">
        <ele>201.53</ele>
        <time>2020-01-12T10:13:52Z</time>
      </trkpt>
      <trkpt lat="43.53172" lon="5.30706">
        <ele>202.01</ele>
        <time>2020-01-12T10:13:54Z</time>
      </trkpt>
      <trkpt lat="43.53164" lon="5.30706">
        <ele>199.61</ele>
        <time>2020-01-12T10:13:59Z</time>
      </trkpt>
      <trkpt lat="43.53157" lon="5.30708">
        <ele>199.61</ele>
        <time>2020-01-12T10:14:06Z</time>
      </trkpt>
      <trkpt lat="43.53142" lon="5.30707">
        <ele>200.57</ele>
        <time>2020-01-12T10:14:18Z</time>
      </trkpt>
      <trkpt lat="43.53128" lon="5.30714">
        <ele>199.13</ele>
        <time>2020-01-12T10:14:30Z</time>
      </trkpt>
      <trkpt lat="43.53108" lon="5.30719">
        <ele>196.25</ele>
        <time>2020-01-12T10:14:47Z</time>
      </trkpt>
      <trkpt lat="43.53094" lon="5.30716">
        <ele>193.84</ele>
        <time>2020-01-12T10:15:01Z</time>
      </trkpt>
      <trkpt lat="43.53079" lon="5.30717">
        <ele>195.28</ele>
        <time>2020-01-12T10:15:13Z</time>
      </trkpt>
      <trkpt lat="43.5307" lon="5.3072">
        <ele>191.44</ele>
        <time>2020-01-12T10:15:27Z</time>
      </trkpt>
      <trkpt lat="43.53069" lon="5.30719">
        <ele>191.44</ele>
        <time>2020-01-12T10:15:33Z</time>
      </trkpt>
      <trkpt lat="43.53052" lon="5.30723">
        <ele>191.44</ele>
        <time>2020-01-12T10:15:48Z</time>
      </trkpt>
      <trkpt lat="43.53038" lon="5.30733">
        <ele>191.92</ele>
        <time>2020-01-12T10:16:01Z</time>
      </trkpt>
      <trkpt lat="43.53032" lon="5.30739">
        <ele>191.44</ele>
        <time>2020-01-12T10:16:15Z</time>
      </trkpt>
      <trkpt lat="43.5303" lon="5.30742">
        <ele>191.92</ele>
        <time>2020-01-12T10:16:37Z</time>
      </trkpt>
      <trkpt lat="43.53026" lon="5.30748">
        <ele>190.96</ele>
        <time>2020-01-12T10:16:51Z</time>
      </trkpt>
      <trkpt lat="43.53017" lon="5.30757">
        <ele>192.88</ele>
        <time>2020-01-12T10:17:01Z</time>
      </trkpt>
      <trkpt lat="43.53012" lon="5.30767">
        <ele>195.28</ele>
        <time>2020-01-12T10:17:09Z</time>
      </trkpt>
      <trkpt lat="43.53007" lon="5.30777">
        <ele>194.8</ele>
        <time>2020-01-12T10:17:17Z</time>
      </trkpt>
      <trkpt lat="43.53002" lon="5.30789">
        <ele>192.88</ele>
        <time>2020-01-12T10:17:25Z</time>
      </trkpt>
      <trkpt lat="43.53015" lon="5.30815">
        <ele>187.59</ele>
        <time>2020-01-12T10:17:39Z</time>
      </trkpt>
      <trkpt lat="43.53028" lon="5.30829">
        <ele>184.23</ele>
        <time>2020-01-12T10:17:52Z</time>
      </trkpt>
      <trkpt lat="43.53037" lon="5.3084">
        <ele>184.71</ele>
        <time>2020-01-12T10:18:05Z</time>
      </trkpt>
      <trkpt lat="43.53041" lon="5.30843">
        <ele>184.23</ele>
        <time>2020-01-12T10:18:09Z</time>
      </trkpt>
      <trkpt lat="43.53048" lon="5.30859">
        <ele>184.71</ele>
        <time>2020-01-12T10:18:23Z</time>
      </trkpt>
      <trkpt lat="43.53051" lon="5.30873">
        <ele>186.63</ele>
        <time>2020-01-12T10:18:34Z</time>
      </trkpt>
      <trkpt lat="43.53053" lon="5.30878">
        <ele>187.11</ele>
        <time>2020-01-12T10:18:38Z</time>
      </trkpt>
      <trkpt lat="43.53049" lon="5.30899">
        <ele>188.08</ele>
        <time>2020-01-12T10:18:52Z</time>
      </trkpt>
      <trkpt lat="43.53049" lon="5.30914">
        <ele>187.59</ele>
        <time>2020-01-12T10:19:04Z</time>
      </trkpt>
      <trkpt lat="43.53041" lon="5.30929">
        <ele>188.56</ele>
        <time>2020-01-12T10:19:16Z</time>
      </trkpt>
      <trkpt lat="43.53035" lon="5.30951">
        <ele>190</ele>
        <time>2020-01-12T10:19:30Z</time>
      </trkpt>
      <trkpt lat="43.53034" lon="5.30969">
        <ele>192.88</ele>
        <time>2020-01-12T10:19:44Z</time>
      </trkpt>
      <trkpt lat="43.5304" lon="5.30981">
        <ele>193.84</ele>
        <time>2020-01-12T10:19:57Z</time>
      </trkpt>
      <trkpt lat="43.5304" lon="5.30981">
        <ele>193.84</ele>
        <time>2020-01-12T10:19:58Z</time>
      </trkpt>
      <trkpt lat="43.53055" lon="5.30975">
        <ele>194.8</ele>
        <time>2020-01-12T10:20:11Z</time>
      </trkpt>
      <trkpt lat="43.53068" lon="5.30961">
        <ele>195.28</ele>
        <time>2020-01-12T10:20:26Z</time>
      </trkpt>
      <trkpt lat="43.53068" lon="5.30958">
        <ele>195.28</ele>
        <time>2020-01-12T10:20:40Z</time>
      </trkpt>
      <trkpt lat="43.5307" lon="5.3096">
        <ele>196.25</ele>
        <time>2020-01-12T10:21:00Z</time>
      </trkpt>
      <trkpt lat="43.53077" lon="5.30969">
        <ele>198.17</ele>
        <time>2020-01-12T10:21:14Z</time>
      </trkpt>
      <trkpt lat="43.53083" lon="5.30982">
        <ele>198.65</ele>
        <time>2020-01-12T10:21:26Z</time>
      </trkpt>
      <trkpt lat="43.53083" lon="5.30985">
        <ele>199.13</ele>
        <time>2020-01-12T10:21:28Z</time>
      </trkpt>
      <trkpt lat="43.53085" lon="5.30988">
        <ele>199.13</ele>
        <time>2020-01-12T10:21:31Z</time>
      </trkpt>
      <trkpt lat="43.53087" lon="5.31007">
        <ele>202.98</ele>
        <time>2020-01-12T10:21:47Z</time>
      </trkpt>
      <trkpt lat="43.53097" lon="5.3102">
        <ele>204.9</ele>
        <time>2020-01-12T10:22:00Z</time>
      </trkpt>
      <trkpt lat="43.53112" lon="5.31028">
        <ele>207.78</ele>
        <time>2020-01-12T10:22:15Z</time>
      </trkpt>
      <trkpt lat="43.53122" lon="5.31039">
        <ele>207.3</ele>
        <time>2020-01-12T10:22:27Z</time>
      </trkpt>
      <trkpt lat="43.53128" lon="5.31045">
        <ele>207.78</ele>
        <time>2020-01-12T10:22:34Z</time>
      </trkpt>
      <trkpt lat="43.53137" lon="5.31049">
        <ele>209.22</ele>
        <time>2020-01-12T10:22:44Z</time>
      </trkpt>
      <trkpt lat="43.53148" lon="5.31052">
        <ele>212.59</ele>
        <time>2020-01-12T10:22:57Z</time>
      </trkpt>
      <trkpt lat="43.53154" lon="5.31054">
        <ele>215.95</ele>
        <time>2020-01-12T10:23:06Z</time>
      </trkpt>
      <trkpt lat="43.53171" lon="5.31064">
        <ele>216.91</ele>
        <time>2020-01-12T10:23:22Z</time>
      </trkpt>
      <trkpt lat="43.53182" lon="5.31069">
        <ele>213.55</ele>
        <time>2020-01-12T10:23:34Z</time>
      </trkpt>
      <trkpt lat="43.53194" lon="5.31078">
        <ele>214.99</ele>
        <time>2020-01-12T10:23:47Z</time>
      </trkpt>
      <trkpt lat="43.53198" lon="5.3108">
        <ele>214.99</ele>
        <time>2020-01-12T10:23:52Z</time>
      </trkpt>
      <trkpt lat="43.53212" lon="5.31086">
        <ele>215.47</ele>
        <time>2020-01-12T10:24:06Z</time>
      </trkpt>
      <trkpt lat="43.5322" lon="5.31097">
        <ele>214.03</ele>
        <time>2020-01-12T10:24:21Z</time>
      </trkpt>
      <trkpt lat="43.53221" lon="5.311">
        <ele>214.03</ele>
        <time>2020-01-12T10:24:24Z</time>
      </trkpt>
      <trkpt lat="43.53229" lon="5.31115">
        <ele>213.07</ele>
        <time>2020-01-12T10:24:38Z</time>
      </trkpt>
      <trkpt lat="43.53233" lon="5.3112">
        <ele>213.07</ele>
        <time>2020-01-12T10:24:43Z</time>
      </trkpt>
      <trkpt lat="43.53241" lon="5.31124">
        <ele>214.51</ele>
        <time>2020-01-12T10:24:50Z</time>
      </trkpt>
      <trkpt lat="43.53252" lon="5.31126">
        <ele>217.4</ele>
        <time>2020-01-12T10:25:03Z</time>
      </trkpt>
      <trkpt lat="43.5326" lon="5.31127">
        <ele>220.28</ele>
        <time>2020-01-12T10:25:14Z</time>
      </trkpt>
      <trkpt lat="43.53267" lon="5.31129">
        <ele>219.8</ele>
        <time>2020-01-12T10:25:23Z</time>
      </trkpt>
      <trkpt lat="43.53273" lon="5.31135">
        <ele>219.8</ele>
        <time>2020-01-12T10:25:30Z</time>
      </trkpt>
      <trkpt lat="43.53285" lon="5.31139">
        <ele>219.8</ele>
        <time>2020-01-12T10:25:40Z</time>
      </trkpt>
      <trkpt lat="43.53299" lon="5.31139">
        <ele>220.76</ele>
        <time>2020-01-12T10:25:53Z</time>
      </trkpt>
      <trkpt lat="43.5331" lon="5.31135">
        <ele>222.2</ele>
        <time>2020-01-12T10:26:06Z</time>
      </trkpt>
      <trkpt lat="43.53322" lon="5.31134">
        <ele>225.57</ele>
        <time>2020-01-12T10:26:17Z</time>
      </trkpt>
      <trkpt lat="43.53335" lon="5.31129">
        <ele>227.01</ele>
        <time>2020-01-12T10:26:30Z</time>
      </trkpt>
      <trkpt lat="43.53346" lon="5.31124">
        <ele>227.97</ele>
        <time>2020-01-12T10:26:42Z</time>
      </trkpt>
      <trkpt lat="43.53359" lon="5.31119">
        <ele>229.41</ele>
        <time>2020-01-12T10:26:54Z</time>
      </trkpt>
      <trkpt lat="43.53373" lon="5.31111">
        <ele>228.93</ele>
        <time>2020-01-12T10:27:07Z</time>
      </trkpt>
      <trkpt lat="43.53388" lon="5.31105">
        <ele>228.45</ele>
        <time>2020-01-12T10:27:21Z</time>
      </trkpt>
      <trkpt lat="43.53401" lon="5.31097">
        <ele>228.93</ele>
        <time>2020-01-12T10:27:34Z</time>
      </trkpt>
      <trkpt lat="43.53412" lon="5.31092">
        <ele>230.37</ele>
        <time>2020-01-12T10:27:46Z</time>
      </trkpt>
      <trkpt lat="43.53425" lon="5.31087">
        <ele>230.85</ele>
        <time>2020-01-12T10:27:59Z</time>
      </trkpt>
      <trkpt lat="43.53427" lon="5.31085">
        <ele>230.85</ele>
        <time>2020-01-12T10:28:01Z</time>
      </trkpt>
      <trkpt lat="43.53439" lon="5.31081">
        <ele>231.33</ele>
        <time>2020-01-12T10:28:13Z</time>
      </trkpt>
      <trkpt lat="43.53456" lon="5.31074">
        <ele>233.26</ele>
        <time>2020-01-12T10:28:29Z</time>
      </trkpt>
      <trkpt lat="43.5347" lon="5.31068">
        <ele>230.85</ele>
        <time>2020-01-12T10:28:42Z</time>
      </trkpt>
      <trkpt lat="43.53479" lon="5.31064">
        <ele>231.33</ele>
        <time>2020-01-12T10:28:50Z</time>
      </trkpt>
      <trkpt lat="43.53481" lon="5.31063">
        <ele>231.81</ele>
        <time>2020-01-12T10:28:52Z</time>
      </trkpt>
      <trkpt lat="43.53486" lon="5.31061">
        <ele>231.33</ele>
        <time>2020-01-12T10:28:57Z</time>
      </trkpt>
      <trkpt lat="43.535" lon="5.31056">
        <ele>231.33</ele>
        <time>2020-01-12T10:29:09Z</time>
      </trkpt>
      <trkpt lat="43.53514" lon="5.31047">
        <ele>229.89</ele>
        <time>2020-01-12T10:29:21Z</time>
      </trkpt>
      <trkpt lat="43.53518" lon="5.31046">
        <ele>229.41</ele>
        <time>2020-01-12T10:29:25Z</time>
      </trkpt>
      <trkpt lat="43.53519" lon="5.31046">
        <ele>229.41</ele>
        <time>2020-01-12T10:29:26Z</time>
      </trkpt>
      <trkpt lat="43.53534" lon="5.31042">
        <ele>229.41</ele>
        <time>2020-01-12T10:29:40Z</time>
      </trkpt>
      <trkpt lat="43.53543" lon="5.3104">
        <ele>228.93</ele>
        <time>2020-01-12T10:29:49Z</time>
      </trkpt>
      <trkpt lat="43.53554" lon="5.31034">
        <ele>228.93</ele>
        <time>2020-01-12T10:30:00Z</time>
      </trkpt>
      <trkpt lat="43.53556" lon="5.31033">
        <ele>228.93</ele>
        <time>2020-01-12T10:30:02Z</time>
      </trkpt>
      <trkpt lat="43.53559" lon="5.31031">
        <ele>228.93</ele>
        <time>2020-01-12T10:30:06Z</time>
      </trkpt>
      <trkpt lat="43.53563" lon="5.3103">
        <ele>228.93</ele>
        <time>2020-01-12T10:30:10Z</time>
      </trkpt>
      <trkpt lat="43.53565" lon="5.31029">
        <ele>228.45</ele>
        <time>2020-01-12T10:30:12Z</time>
      </trkpt>
      <trkpt lat="43.53567" lon="5.31029">
        <ele>228.45</ele>
        <time>2020-01-12T10:30:14Z</time>
      </trkpt>
      <trkpt lat="43.53569" lon="5.31028">
        <ele>228.93</ele>
        <time>2020-01-12T10:30:16Z</time>
      </trkpt>
      <trkpt lat="43.53575" lon="5.31024">
        <ele>228.93</ele>
        <time>2020-01-12T10:30:22Z</time>
      </trkpt>
      <trkpt lat="43.53579" lon="5.31022">
        <ele>229.89</ele>
        <time>2020-01-12T10:30:26Z</time>
      </trkpt>
      <trkpt lat="43.53581" lon="5.31022">
        <ele>230.37</ele>
        <time>2020-01-12T10:30:28Z</time>
      </trkpt>
      <trkpt lat="43.53583" lon="5.31022">
        <ele>229.89</ele>
        <time>2020-01-12T10:30:39Z</time>
      </trkpt>
      <trkpt lat="43.53585" lon="5.31017">
        <ele>229.41</ele>
        <time>2020-01-12T10:30:51Z</time>
      </trkpt>
      <trkpt lat="43.53594" lon="5.31017">
        <ele>231.33</ele>
        <time>2020-01-12T10:31:06Z</time>
      </trkpt>
      <trkpt lat="43.53605" lon="5.31016">
        <ele>231.81</ele>
        <time>2020-01-12T10:31:18Z</time>
      </trkpt>
      <trkpt lat="43.53614" lon="5.31018">
        <ele>230.85</ele>
        <time>2020-01-12T10:31:29Z</time>
      </trkpt>
      <trkpt lat="43.53623" lon="5.31018">
        <ele>229.41</ele>
        <time>2020-01-12T10:31:39Z</time>
      </trkpt>
      <trkpt lat="43.53636" lon="5.31019">
        <ele>228.45</ele>
        <time>2020-01-12T10:31:49Z</time>
      </trkpt>
      <trkpt lat="43.53648" lon="5.3102">
        <ele>228.45</ele>
        <time>2020-01-12T10:32:00Z</time>
      </trkpt>
      <trkpt lat="43.53661" lon="5.3102">
        <ele>228.93</ele>
        <time>2020-01-12T10:32:14Z</time>
      </trkpt>
      <trkpt lat="43.53666" lon="5.31022">
        <ele>228.93</ele>
        <time>2020-01-12T10:32:20Z</time>
      </trkpt>
      <trkpt lat="43.53674" lon="5.3103">
        <ele>227.01</ele>
        <time>2020-01-12T10:32:30Z</time>
      </trkpt>
      <trkpt lat="43.53682" lon="5.31047">
        <ele>225.57</ele>
        <time>2020-01-12T10:32:45Z</time>
      </trkpt>
      <trkpt lat="43.53685" lon="5.31057">
        <ele>224.61</ele>
        <time>2020-01-12T10:32:52Z</time>
      </trkpt>
      <trkpt lat="43.53686" lon="5.31058">
        <ele>224.61</ele>
        <time>2020-01-12T10:32:53Z</time>
      </trkpt>
      <trkpt lat="43.5369" lon="5.31076">
        <ele>222.2</ele>
        <time>2020-01-12T10:33:07Z</time>
      </trkpt>
      <trkpt lat="43.53692" lon="5.3108">
        <ele>221.72</ele>
        <time>2020-01-12T10:33:10Z</time>
      </trkpt>
      <trkpt lat="43.53692" lon="5.31082">
        <ele>221.72</ele>
        <time>2020-01-12T10:33:11Z</time>
      </trkpt>
      <trkpt lat="43.53702" lon="5.31096">
        <ele>221.24</ele>
        <time>2020-01-12T10:33:24Z</time>
      </trkpt>
      <trkpt lat="43.53703" lon="5.31098">
        <ele>221.24</ele>
        <time>2020-01-12T10:33:26Z</time>
      </trkpt>
      <trkpt lat="43.53714" lon="5.31104">
        <ele>223.64</ele>
        <time>2020-01-12T10:33:39Z</time>
      </trkpt>
      <trkpt lat="43.53722" lon="5.31109">
        <ele>223.64</ele>
        <time>2020-01-12T10:33:48Z</time>
      </trkpt>
      <trkpt lat="43.53734" lon="5.31113">
        <ele>222.68</ele>
        <time>2020-01-12T10:33:59Z</time>
      </trkpt>
      <trkpt lat="43.53741" lon="5.31115">
        <ele>223.16</ele>
        <time>2020-01-12T10:34:06Z</time>
      </trkpt>
      <trkpt lat="43.53751" lon="5.31124">
        <ele>223.64</ele>
        <time>2020-01-12T10:34:18Z</time>
      </trkpt>
      <trkpt lat="43.53759" lon="5.31133">
        <ele>225.57</ele>
        <time>2020-01-12T10:34:29Z</time>
      </trkpt>
      <trkpt lat="43.53771" lon="5.3114">
        <ele>226.53</ele>
        <time>2020-01-12T10:34:41Z</time>
      </trkpt>
      <trkpt lat="43.53784" lon="5.3114">
        <ele>227.49</ele>
        <time>2020-01-12T10:34:54Z</time>
      </trkpt>
      <trkpt lat="43.53786" lon="5.31142">
        <ele>227.01</ele>
        <time>2020-01-12T10:34:57Z</time>
      </trkpt>
      <trkpt lat="43.53788" lon="5.31143">
        <ele>227.01</ele>
        <time>2020-01-12T10:34:59Z</time>
      </trkpt>
      <trkpt lat="43.5379" lon="5.31143">
        <ele>227.01</ele>
        <time>2020-01-12T10:35:01Z</time>
      </trkpt>
      <trkpt lat="43.53794" lon="5.31144">
        <ele>227.01</ele>
        <time>2020-01-12T10:35:05Z</time>
      </trkpt>
      <trkpt lat="43.538" lon="5.31156">
        <ele>227.97</ele>
        <time>2020-01-12T10:35:17Z</time>
      </trkpt>
      <trkpt lat="43.53805" lon="5.31169">
        <ele>227.49</ele>
        <time>2020-01-12T10:35:28Z</time>
      </trkpt>
      <trkpt lat="43.53815" lon="5.31179">
        <ele>227.01</ele>
        <time>2020-01-12T10:35:39Z</time>
      </trkpt>
      <trkpt lat="43.53825" lon="5.31187">
        <ele>225.57</ele>
        <time>2020-01-12T10:35:50Z</time>
      </trkpt>
      <trkpt lat="43.53827" lon="5.31189">
        <ele>225.57</ele>
        <time>2020-01-12T10:35:52Z</time>
      </trkpt>
      <trkpt lat="43.53837" lon="5.31198">
        <ele>225.09</ele>
        <time>2020-01-12T10:36:03Z</time>
      </trkpt>
      <trkpt lat="43.53847" lon="5.3121">
        <ele>225.09</ele>
        <time>2020-01-12T10:36:15Z</time>
      </trkpt>
      <trkpt lat="43.53847" lon="5.31211">
        <ele>225.09</ele>
        <time>2020-01-12T10:36:16Z</time>
      </trkpt>
      <trkpt lat="43.53848" lon="5.31212">
        <ele>225.57</ele>
        <time>2020-01-12T10:36:17Z</time>
      </trkpt>
      <trkpt lat="43.53848" lon="5.31213">
        <ele>225.57</ele>
        <time>2020-01-12T10:36:18Z</time>
      </trkpt>
      <trkpt lat="43.53854" lon="5.31231">
        <ele>227.97</ele>
        <time>2020-01-12T10:36:32Z</time>
      </trkpt>
      <trkpt lat="43.53854" lon="5.31233">
        <ele>228.45</ele>
        <time>2020-01-12T10:36:33Z</time>
      </trkpt>
      <trkpt lat="43.53855" lon="5.31235">
        <ele>228.93</ele>
        <time>2020-01-12T10:36:35Z</time>
      </trkpt>
      <trkpt lat="43.53856" lon="5.31249">
        <ele>230.85</ele>
        <time>2020-01-12T10:36:46Z</time>
      </trkpt>
      <trkpt lat="43.53857" lon="5.31258">
        <ele>231.33</ele>
        <time>2020-01-12T10:36:53Z</time>
      </trkpt>
      <trkpt lat="43.53859" lon="5.31276">
        <ele>232.3</ele>
        <time>2020-01-12T10:37:07Z</time>
      </trkpt>
      <trkpt lat="43.53859" lon="5.31279">
        <ele>232.78</ele>
        <time>2020-01-12T10:37:09Z</time>
      </trkpt>
      <trkpt lat="43.53864" lon="5.31297">
        <ele>235.18</ele>
        <time>2020-01-12T10:37:24Z</time>
      </trkpt>
      <trkpt lat="43.53866" lon="5.31302">
        <ele>234.7</ele>
        <time>2020-01-12T10:37:28Z</time>
      </trkpt>
      <trkpt lat="43.53878" lon="5.31316">
        <ele>233.26</ele>
        <time>2020-01-12T10:37:42Z</time>
      </trkpt>
      <trkpt lat="43.53888" lon="5.31328">
        <ele>231.81</ele>
        <time>2020-01-12T10:37:55Z</time>
      </trkpt>
      <trkpt lat="43.53893" lon="5.31334">
        <ele>230.37</ele>
        <time>2020-01-12T10:38:01Z</time>
      </trkpt>
      <trkpt lat="43.53894" lon="5.31335">
        <ele>230.37</ele>
        <time>2020-01-12T10:38:02Z</time>
      </trkpt>
      <trkpt lat="43.53894" lon="5.31336">
        <ele>229.89</ele>
        <time>2020-01-12T10:38:03Z</time>
      </trkpt>
      <trkpt lat="43.53903" lon="5.31349">
        <ele>228.93</ele>
        <time>2020-01-12T10:38:15Z</time>
      </trkpt>
      <trkpt lat="43.53912" lon="5.31367">
        <ele>227.49</ele>
        <time>2020-01-12T10:38:30Z</time>
      </trkpt>
      <trkpt lat="43.53913" lon="5.3137">
        <ele>228.45</ele>
        <time>2020-01-12T10:38:35Z</time>
      </trkpt>
      <trkpt lat="43.53913" lon="5.31383">
        <ele>230.85</ele>
        <time>2020-01-12T10:38:47Z</time>
      </trkpt>
      <trkpt lat="43.53914" lon="5.31396">
        <ele>231.33</ele>
        <time>2020-01-12T10:39:00Z</time>
      </trkpt>
      <trkpt lat="43.53917" lon="5.31415">
        <ele>230.37</ele>
        <time>2020-01-12T10:39:13Z</time>
      </trkpt>
      <trkpt lat="43.53917" lon="5.31417">
        <ele>230.37</ele>
        <time>2020-01-12T10:39:14Z</time>
      </trkpt>
      <trkpt lat="43.53918" lon="5.31421">
        <ele>230.37</ele>
        <time>2020-01-12T10:39:17Z</time>
      </trkpt>
      <trkpt lat="43.53918" lon="5.31422">
        <ele>230.37</ele>
        <time>2020-01-12T10:39:18Z</time>
      </trkpt>
      <trkpt lat="43.53922" lon="5.31439">
        <ele>230.37</ele>
        <time>2020-01-12T10:39:30Z</time>
      </trkpt>
      <trkpt lat="43.53927" lon="5.31454">
        <ele>230.85</ele>
        <time>2020-01-12T10:39:42Z</time>
      </trkpt>
      <trkpt lat="43.53932" lon="5.31476">
        <ele>230.85</ele>
        <time>2020-01-12T10:39:58Z</time>
      </trkpt>
      <trkpt lat="43.53932" lon="5.31497">
        <ele>231.81</ele>
        <time>2020-01-12T10:40:12Z</time>
      </trkpt>
      <trkpt lat="43.53929" lon="5.31515">
        <ele>234.7</ele>
        <time>2020-01-12T10:40:26Z</time>
      </trkpt>
      <trkpt lat="43.53929" lon="5.31535">
        <ele>235.66</ele>
        <time>2020-01-12T10:40:40Z</time>
      </trkpt>
      <trkpt lat="43.53932" lon="5.31548">
        <ele>235.18</ele>
        <time>2020-01-12T10:40:54Z</time>
      </trkpt>
      <trkpt lat="43.53934" lon="5.31548">
        <ele>232.3</ele>
        <time>2020-01-12T10:41:21Z</time>
      </trkpt>
      <trkpt lat="43.53935" lon="5.31549">
        <ele>230.85</ele>
        <time>2020-01-12T10:41:47Z</time>
      </trkpt>
      <trkpt lat="43.53936" lon="5.3155">
        <ele>231.33</ele>
        <time>2020-01-12T10:42:14Z</time>
      </trkpt>
      <trkpt lat="43.53937" lon="5.31551">
        <ele>230.85</ele>
        <time>2020-01-12T10:42:15Z</time>
      </trkpt>
      <trkpt lat="43.53939" lon="5.31552">
        <ele>230.85</ele>
        <time>2020-01-12T10:42:16Z</time>
      </trkpt>
      <trkpt lat="43.5394" lon="5.31554">
        <ele>230.37</ele>
        <time>2020-01-12T10:42:17Z</time>
      </trkpt>
      <trkpt lat="43.53941" lon="5.31555">
        <ele>230.37</ele>
        <time>2020-01-12T10:42:18Z</time>
      </trkpt>
      <trkpt lat="43.53944" lon="5.31581">
        <ele>229.41</ele>
        <time>2020-01-12T10:42:32Z</time>
      </trkpt>
      <trkpt lat="43.53932" lon="5.31608">
        <ele>230.37</ele>
        <time>2020-01-12T10:42:47Z</time>
      </trkpt>
      <trkpt lat="43.5393" lon="5.31613">
        <ele>230.37</ele>
        <time>2020-01-12T10:43:01Z</time>
      </trkpt>
      <trkpt lat="43.53928" lon="5.31615">
        <ele>230.85</ele>
        <time>2020-01-12T10:43:18Z</time>
      </trkpt>
      <trkpt lat="43.53925" lon="5.31617">
        <ele>230.37</ele>
        <time>2020-01-12T10:43:30Z</time>
      </trkpt>
      <trkpt lat="43.53923" lon="5.31618">
        <ele>230.37</ele>
        <time>2020-01-12T10:43:32Z</time>
      </trkpt>
      <trkpt lat="43.53912" lon="5.31623">
        <ele>228.93</ele>
        <time>2020-01-12T10:43:44Z</time>
      </trkpt>
      <trkpt lat="43.53904" lon="5.3163">
        <ele>228.45</ele>
        <time>2020-01-12T10:43:55Z</time>
      </trkpt>
      <trkpt lat="43.53896" lon="5.3164">
        <ele>228.45</ele>
        <time>2020-01-12T10:44:10Z</time>
      </trkpt>
      <trkpt lat="43.53889" lon="5.31644">
        <ele>232.78</ele>
        <time>2020-01-12T10:44:30Z</time>
      </trkpt>
      <trkpt lat="43.5388" lon="5.31659">
        <ele>233.74</ele>
        <time>2020-01-12T10:44:46Z</time>
      </trkpt>
      <trkpt lat="43.53873" lon="5.31674">
        <ele>233.74</ele>
        <time>2020-01-12T10:44:59Z</time>
      </trkpt>
      <trkpt lat="43.53866" lon="5.31693">
        <ele>232.78</ele>
        <time>2020-01-12T10:45:14Z</time>
      </trkpt>
      <trkpt lat="43.53864" lon="5.31702">
        <ele>231.81</ele>
        <time>2020-01-12T10:45:21Z</time>
      </trkpt>
      <trkpt lat="43.53858" lon="5.31718">
        <ele>230.37</ele>
        <time>2020-01-12T10:45:35Z</time>
      </trkpt>
      <trkpt lat="43.53848" lon="5.31733">
        <ele>230.85</ele>
        <time>2020-01-12T10:45:50Z</time>
      </trkpt>
      <trkpt lat="43.5384" lon="5.31746">
        <ele>230.85</ele>
        <time>2020-01-12T10:46:02Z</time>
      </trkpt>
      <trkpt lat="43.53839" lon="5.31748">
        <ele>230.85</ele>
        <time>2020-01-12T10:46:04Z</time>
      </trkpt>
      <trkpt lat="43.53837" lon="5.31751">
        <ele>230.85</ele>
        <time>2020-01-12T10:46:06Z</time>
      </trkpt>
      <trkpt lat="43.53833" lon="5.31764">
        <ele>229.89</ele>
        <time>2020-01-12T10:46:16Z</time>
      </trkpt>
      <trkpt lat="43.5383" lon="5.31773">
        <ele>228.93</ele>
        <time>2020-01-12T10:46:27Z</time>
      </trkpt>
      <trkpt lat="43.53828" lon="5.3178">
        <ele>228.93</ele>
        <time>2020-01-12T10:46:40Z</time>
      </trkpt>
      <trkpt lat="43.53825" lon="5.31787">
        <ele>227.97</ele>
        <time>2020-01-12T10:46:46Z</time>
      </trkpt>
      <trkpt lat="43.53821" lon="5.31792">
        <ele>227.49</ele>
        <time>2020-01-12T10:46:51Z</time>
      </trkpt>
      <trkpt lat="43.5382" lon="5.31794">
        <ele>227.49</ele>
        <time>2020-01-12T10:46:53Z</time>
      </trkpt>
      <trkpt lat="43.53819" lon="5.31795">
        <ele>227.97</ele>
        <time>2020-01-12T10:46:54Z</time>
      </trkpt>
      <trkpt lat="43.53813" lon="5.31807">
        <ele>227.01</ele>
        <time>2020-01-12T10:47:06Z</time>
      </trkpt>
      <trkpt lat="43.53809" lon="5.31812">
        <ele>226.53</ele>
        <time>2020-01-12T10:47:18Z</time>
      </trkpt>
      <trkpt lat="43.53804" lon="5.31819">
        <ele>226.05</ele>
        <time>2020-01-12T10:47:34Z</time>
      </trkpt>
      <trkpt lat="43.53802" lon="5.31823">
        <ele>225.57</ele>
        <time>2020-01-12T10:47:37Z</time>
      </trkpt>
      <trkpt lat="43.53795" lon="5.31835">
        <ele>224.12</ele>
        <time>2020-01-12T10:47:49Z</time>
      </trkpt>
      <trkpt lat="43.53789" lon="5.31848">
        <ele>223.16</ele>
        <time>2020-01-12T10:48:00Z</time>
      </trkpt>
      <trkpt lat="43.53784" lon="5.3186">
        <ele>222.2</ele>
        <time>2020-01-12T10:48:10Z</time>
      </trkpt>
      <trkpt lat="43.53778" lon="5.31877">
        <ele>221.24</ele>
        <time>2020-01-12T10:48:23Z</time>
      </trkpt>
      <trkpt lat="43.53772" lon="5.31889">
        <ele>219.32</ele>
        <time>2020-01-12T10:48:34Z</time>
      </trkpt>
      <trkpt lat="43.53765" lon="5.31901">
        <ele>218.36</ele>
        <time>2020-01-12T10:48:45Z</time>
      </trkpt>
      <trkpt lat="43.53764" lon="5.31902">
        <ele>218.36</ele>
        <time>2020-01-12T10:48:46Z</time>
      </trkpt>
      <trkpt lat="43.53764" lon="5.31903">
        <ele>217.88</ele>
        <time>2020-01-12T10:48:47Z</time>
      </trkpt>
      <trkpt lat="43.53754" lon="5.31919">
        <ele>215.95</ele>
        <time>2020-01-12T10:49:02Z</time>
      </trkpt>
      <trkpt lat="43.5375" lon="5.31931">
        <ele>213.55</ele>
        <time>2020-01-12T10:49:14Z</time>
      </trkpt>
      <trkpt lat="43.53747" lon="5.31936">
        <ele>211.63</ele>
        <time>2020-01-12T10:49:32Z</time>
      </trkpt>
      <trkpt lat="43.53746" lon="5.31937">
        <ele>211.63</ele>
        <time>2020-01-12T10:49:33Z</time>
      </trkpt>
      <trkpt lat="43.53738" lon="5.31947">
        <ele>210.67</ele>
        <time>2020-01-12T10:49:44Z</time>
      </trkpt>
      <trkpt lat="43.53737" lon="5.31948">
        <ele>210.19</ele>
        <time>2020-01-12T10:49:45Z</time>
      </trkpt>
      <trkpt lat="43.53736" lon="5.31951">
        <ele>209.7</ele>
        <time>2020-01-12T10:49:47Z</time>
      </trkpt>
      <trkpt lat="43.53731" lon="5.31958">
        <ele>209.7</ele>
        <time>2020-01-12T10:49:54Z</time>
      </trkpt>
      <trkpt lat="43.53725" lon="5.31964">
        <ele>210.67</ele>
        <time>2020-01-12T10:50:02Z</time>
      </trkpt>
      <trkpt lat="43.53718" lon="5.3197">
        <ele>210.19</ele>
        <time>2020-01-12T10:50:11Z</time>
      </trkpt>
      <trkpt lat="43.53712" lon="5.31971">
        <ele>210.19</ele>
        <time>2020-01-12T10:50:17Z</time>
      </trkpt>
      <trkpt lat="43.53699" lon="5.31973">
        <ele>210.67</ele>
        <time>2020-01-12T10:50:30Z</time>
      </trkpt>
      <trkpt lat="43.53694" lon="5.31979">
        <ele>209.22</ele>
        <time>2020-01-12T10:50:36Z</time>
      </trkpt>
      <trkpt lat="43.53692" lon="5.31982">
        <ele>209.22</ele>
        <time>2020-01-12T10:50:38Z</time>
      </trkpt>
      <trkpt lat="43.53696" lon="5.32005">
        <ele>205.86</ele>
        <time>2020-01-12T10:50:53Z</time>
      </trkpt>
      <trkpt lat="43.53697" lon="5.32019">
        <ele>203.94</ele>
        <time>2020-01-12T10:51:03Z</time>
      </trkpt>
      <trkpt lat="43.53704" lon="5.32033">
        <ele>204.42</ele>
        <time>2020-01-12T10:51:15Z</time>
      </trkpt>
      <trkpt lat="43.53714" lon="5.32045">
        <ele>205.86</ele>
        <time>2020-01-12T10:51:28Z</time>
      </trkpt>
      <trkpt lat="43.53726" lon="5.32052">
        <ele>204.42</ele>
        <time>2020-01-12T10:51:40Z</time>
      </trkpt>
      <trkpt lat="43.53734" lon="5.32063">
        <ele>206.82</ele>
        <time>2020-01-12T10:51:54Z</time>
      </trkpt>
      <trkpt lat="43.53743" lon="5.32073">
        <ele>208.74</ele>
        <time>2020-01-12T10:52:09Z</time>
      </trkpt>
      <trkpt lat="43.53749" lon="5.32084">
        <ele>211.15</ele>
        <time>2020-01-12T10:52:22Z</time>
      </trkpt>
      <trkpt lat="43.53754" lon="5.32091">
        <ele>212.59</ele>
        <time>2020-01-12T10:52:29Z</time>
      </trkpt>
      <trkpt lat="43.53761" lon="5.32102">
        <ele>214.51</ele>
        <time>2020-01-12T10:52:43Z</time>
      </trkpt>
      <trkpt lat="43.53773" lon="5.32114">
        <ele>214.99</ele>
        <time>2020-01-12T10:52:58Z</time>
      </trkpt>
      <trkpt lat="43.53785" lon="5.32124">
        <ele>214.03</ele>
        <time>2020-01-12T10:53:12Z</time>
      </trkpt>
      <trkpt lat="43.53793" lon="5.32135">
        <ele>214.03</ele>
        <time>2020-01-12T10:53:27Z</time>
      </trkpt>
      <trkpt lat="43.53796" lon="5.32139">
        <ele>214.51</ele>
        <time>2020-01-12T10:53:32Z</time>
      </trkpt>
      <trkpt lat="43.53806" lon="5.32153">
        <ele>214.03</ele>
        <time>2020-01-12T10:53:47Z</time>
      </trkpt>
      <trkpt lat="43.53814" lon="5.32165">
        <ele>214.99</ele>
        <time>2020-01-12T10:54:01Z</time>
      </trkpt>
      <trkpt lat="43.53817" lon="5.32169">
        <ele>215.47</ele>
        <time>2020-01-12T10:54:06Z</time>
      </trkpt>
      <trkpt lat="43.53822" lon="5.32175">
        <ele>216.91</ele>
        <time>2020-01-12T10:54:12Z</time>
      </trkpt>
      <trkpt lat="43.53829" lon="5.32184">
        <ele>216.91</ele>
        <time>2020-01-12T10:54:24Z</time>
      </trkpt>
      <trkpt lat="43.53833" lon="5.32189">
        <ele>216.91</ele>
        <time>2020-01-12T10:54:40Z</time>
      </trkpt>
      <trkpt lat="43.5384" lon="5.32196">
        <ele>217.4</ele>
        <time>2020-01-12T10:54:53Z</time>
      </trkpt>
      <trkpt lat="43.53847" lon="5.32211">
        <ele>219.8</ele>
        <time>2020-01-12T10:55:07Z</time>
      </trkpt>
      <trkpt lat="43.53856" lon="5.32223">
        <ele>220.76</ele>
        <time>2020-01-12T10:55:19Z</time>
      </trkpt>
      <trkpt lat="43.53862" lon="5.32232">
        <ele>220.28</ele>
        <time>2020-01-12T10:55:27Z</time>
      </trkpt>
      <trkpt lat="43.53863" lon="5.32234">
        <ele>220.28</ele>
        <time>2020-01-12T10:55:29Z</time>
      </trkpt>
      <trkpt lat="43.53867" lon="5.32241">
        <ele>219.32</ele>
        <time>2020-01-12T10:55:34Z</time>
      </trkpt>
      <trkpt lat="43.53877" lon="5.32256">
        <ele>218.84</ele>
        <time>2020-01-12T10:55:48Z</time>
      </trkpt>
      <trkpt lat="43.53886" lon="5.32272">
        <ele>217.88</ele>
        <time>2020-01-12T10:56:02Z</time>
      </trkpt>
      <trkpt lat="43.53897" lon="5.32289">
        <ele>219.8</ele>
        <time>2020-01-12T10:56:17Z</time>
      </trkpt>
      <trkpt lat="43.53904" lon="5.32303">
        <ele>220.76</ele>
        <time>2020-01-12T10:56:29Z</time>
      </trkpt>
      <trkpt lat="43.53912" lon="5.32317">
        <ele>221.72</ele>
        <time>2020-01-12T10:56:42Z</time>
      </trkpt>
      <trkpt lat="43.53917" lon="5.32332">
        <ele>225.09</ele>
        <time>2020-01-12T10:56:56Z</time>
      </trkpt>
      <trkpt lat="43.53924" lon="5.32346">
        <ele>225.09</ele>
        <time>2020-01-12T10:57:09Z</time>
      </trkpt>
      <trkpt lat="43.53931" lon="5.32363">
        <ele>224.61</ele>
        <time>2020-01-12T10:57:25Z</time>
      </trkpt>
      <trkpt lat="43.53933" lon="5.32372">
        <ele>222.68</ele>
        <time>2020-01-12T10:57:38Z</time>
      </trkpt>
      <trkpt lat="43.53936" lon="5.32382">
        <ele>221.72</ele>
        <time>2020-01-12T10:57:52Z</time>
      </trkpt>
      <trkpt lat="43.5394" lon="5.32396">
        <ele>221.24</ele>
        <time>2020-01-12T10:58:04Z</time>
      </trkpt>
      <trkpt lat="43.53942" lon="5.32402">
        <ele>220.76</ele>
        <time>2020-01-12T10:58:08Z</time>
      </trkpt>
      <trkpt lat="43.53947" lon="5.32417">
        <ele>220.28</ele>
        <time>2020-01-12T10:58:20Z</time>
      </trkpt>
      <trkpt lat="43.53954" lon="5.32433">
        <ele>220.76</ele>
        <time>2020-01-12T10:58:35Z</time>
      </trkpt>
      <trkpt lat="43.53959" lon="5.32445">
        <ele>221.72</ele>
        <time>2020-01-12T10:58:46Z</time>
      </trkpt>
      <trkpt lat="43.53961" lon="5.32453">
        <ele>222.2</ele>
        <time>2020-01-12T10:58:53Z</time>
      </trkpt>
      <trkpt lat="43.53964" lon="5.32471">
        <ele>221.72</ele>
        <time>2020-01-12T10:59:07Z</time>
      </trkpt>
      <trkpt lat="43.53967" lon="5.32484">
        <ele>222.68</ele>
        <time>2020-01-12T10:59:21Z</time>
      </trkpt>
      <trkpt lat="43.53968" lon="5.32495">
        <ele>222.68</ele>
        <time>2020-01-12T10:59:40Z</time>
      </trkpt>
      <trkpt lat="43.53968" lon="5.32503">
        <ele>221.72</ele>
        <time>2020-01-12T10:59:51Z</time>
      </trkpt>
      <trkpt lat="43.53967" lon="5.32518">
        <ele>223.16</ele>
        <time>2020-01-12T11:00:05Z</time>
      </trkpt>
      <trkpt lat="43.53968" lon="5.32536">
        <ele>221.72</ele>
        <time>2020-01-12T11:00:20Z</time>
      </trkpt>
      <trkpt lat="43.53968" lon="5.32552">
        <ele>221.24</ele>
        <time>2020-01-12T11:00:33Z</time>
      </trkpt>
      <trkpt lat="43.5397" lon="5.32569">
        <ele>219.8</ele>
        <time>2020-01-12T11:00:46Z</time>
      </trkpt>
      <trkpt lat="43.53971" lon="5.32581">
        <ele>218.36</ele>
        <time>2020-01-12T11:00:55Z</time>
      </trkpt>
      <trkpt lat="43.53972" lon="5.32593">
        <ele>217.88</ele>
        <time>2020-01-12T11:01:09Z</time>
      </trkpt>
      <trkpt lat="43.53971" lon="5.32608">
        <ele>217.4</ele>
        <time>2020-01-12T11:01:22Z</time>
      </trkpt>
      <trkpt lat="43.5397" lon="5.32616">
        <ele>216.43</ele>
        <time>2020-01-12T11:01:34Z</time>
      </trkpt>
      <trkpt lat="43.53971" lon="5.32618">
        <ele>216.91</ele>
        <time>2020-01-12T11:02:02Z</time>
      </trkpt>
      <trkpt lat="43.53967" lon="5.32625">
        <ele>218.84</ele>
        <time>2020-01-12T11:02:20Z</time>
      </trkpt>
      <trkpt lat="43.53966" lon="5.32626">
        <ele>219.32</ele>
        <time>2020-01-12T11:02:21Z</time>
      </trkpt>
      <trkpt lat="43.53965" lon="5.32631">
        <ele>218.84</ele>
        <time>2020-01-12T11:02:34Z</time>
      </trkpt>
      <trkpt lat="43.53965" lon="5.32631">
        <ele>217.88</ele>
        <time>2020-01-12T11:03:06Z</time>
      </trkpt>
      <trkpt lat="43.53964" lon="5.32632">
        <ele>218.36</ele>
        <time>2020-01-12T11:03:23Z</time>
      </trkpt>
      <trkpt lat="43.53962" lon="5.32643">
        <ele>217.4</ele>
        <time>2020-01-12T11:03:43Z</time>
      </trkpt>
      <trkpt lat="43.53957" lon="5.32655">
        <ele>216.91</ele>
        <time>2020-01-12T11:03:57Z</time>
      </trkpt>
      <trkpt lat="43.53952" lon="5.32671">
        <ele>216.91</ele>
        <time>2020-01-12T11:04:11Z</time>
      </trkpt>
      <trkpt lat="43.5395" lon="5.3269">
        <ele>214.99</ele>
        <time>2020-01-12T11:04:25Z</time>
      </trkpt>
      <trkpt lat="43.5395" lon="5.32694">
        <ele>214.51</ele>
        <time>2020-01-12T11:04:28Z</time>
      </trkpt>
      <trkpt lat="43.53949" lon="5.32698">
        <ele>214.03</ele>
        <time>2020-01-12T11:04:30Z</time>
      </trkpt>
      <trkpt lat="43.5395" lon="5.32714">
        <ele>211.63</ele>
        <time>2020-01-12T11:04:43Z</time>
      </trkpt>
      <trkpt lat="43.53951" lon="5.32721">
        <ele>211.15</ele>
        <time>2020-01-12T11:04:49Z</time>
      </trkpt>
      <trkpt lat="43.53952" lon="5.32729">
        <ele>210.67</ele>
        <time>2020-01-12T11:04:54Z</time>
      </trkpt>
      <trkpt lat="43.53953" lon="5.3273">
        <ele>210.19</ele>
        <time>2020-01-12T11:04:55Z</time>
      </trkpt>
      <trkpt lat="43.53952" lon="5.32743">
        <ele>209.22</ele>
        <time>2020-01-12T11:05:03Z</time>
      </trkpt>
      <trkpt lat="43.53954" lon="5.32763">
        <ele>207.3</ele>
        <time>2020-01-12T11:05:17Z</time>
      </trkpt>
      <trkpt lat="43.53953" lon="5.32781">
        <ele>204.9</ele>
        <time>2020-01-12T11:05:31Z</time>
      </trkpt>
      <trkpt lat="43.53952" lon="5.32785">
        <ele>204.9</ele>
        <time>2020-01-12T11:05:33Z</time>
      </trkpt>
      <trkpt lat="43.53951" lon="5.32796">
        <ele>205.38</ele>
        <time>2020-01-12T11:05:41Z</time>
      </trkpt>
      <trkpt lat="43.53951" lon="5.32803">
        <ele>204.9</ele>
        <time>2020-01-12T11:05:52Z</time>
      </trkpt>
      <trkpt lat="43.5395" lon="5.32806">
        <ele>205.38</ele>
        <time>2020-01-12T11:05:54Z</time>
      </trkpt>
      <trkpt lat="43.5395" lon="5.32813">
        <ele>205.86</ele>
        <time>2020-01-12T11:05:59Z</time>
      </trkpt>
      <trkpt lat="43.5395" lon="5.32821">
        <ele>205.38</ele>
        <time>2020-01-12T11:06:04Z</time>
      </trkpt>
      <trkpt lat="43.5395" lon="5.32823">
        <ele>205.38</ele>
        <time>2020-01-12T11:06:05Z</time>
      </trkpt>
      <trkpt lat="43.53947" lon="5.3284">
        <ele>203.46</ele>
        <time>2020-01-12T11:06:19Z</time>
      </trkpt>
      <trkpt lat="43.53947" lon="5.32852">
        <ele>201.53</ele>
        <time>2020-01-12T11:06:27Z</time>
      </trkpt>
      <trkpt lat="43.53947" lon="5.32866">
        <ele>201.05</ele>
        <time>2020-01-12T11:06:37Z</time>
      </trkpt>
      <trkpt lat="43.53946" lon="5.32881">
        <ele>198.65</ele>
        <time>2020-01-12T11:06:48Z</time>
      </trkpt>
      <trkpt lat="43.53943" lon="5.32897">
        <ele>195.77</ele>
        <time>2020-01-12T11:07:01Z</time>
      </trkpt>
      <trkpt lat="43.53942" lon="5.32914">
        <ele>194.32</ele>
        <time>2020-01-12T11:07:15Z</time>
      </trkpt>
      <trkpt lat="43.53943" lon="5.3292">
        <ele>193.84</ele>
        <time>2020-01-12T11:07:20Z</time>
      </trkpt>
      <trkpt lat="43.53944" lon="5.32939">
        <ele>193.36</ele>
        <time>2020-01-12T11:07:34Z</time>
      </trkpt>
      <trkpt lat="43.53944" lon="5.32956">
        <ele>192.4</ele>
        <time>2020-01-12T11:07:46Z</time>
      </trkpt>
      <trkpt lat="43.53945" lon="5.32975">
        <ele>190.96</ele>
        <time>2020-01-12T11:08:00Z</time>
      </trkpt>
      <trkpt lat="43.53945" lon="5.32978">
        <ele>190.96</ele>
        <time>2020-01-12T11:08:02Z</time>
      </trkpt>
      <trkpt lat="43.53944" lon="5.32991">
        <ele>190.96</ele>
        <time>2020-01-12T11:08:13Z</time>
      </trkpt>
      <trkpt lat="43.53949" lon="5.33008">
        <ele>190</ele>
        <time>2020-01-12T11:08:26Z</time>
      </trkpt>
      <trkpt lat="43.53952" lon="5.33026">
        <ele>188.56</ele>
        <time>2020-01-12T11:08:39Z</time>
      </trkpt>
      <trkpt lat="43.53951" lon="5.33027">
        <ele>188.08</ele>
        <time>2020-01-12T11:08:40Z</time>
      </trkpt>
      <trkpt lat="43.53951" lon="5.33031">
        <ele>188.08</ele>
        <time>2020-01-12T11:08:43Z</time>
      </trkpt>
      <trkpt lat="43.53951" lon="5.33042">
        <ele>187.11</ele>
        <time>2020-01-12T11:08:53Z</time>
      </trkpt>
      <trkpt lat="43.53951" lon="5.33055">
        <ele>186.15</ele>
        <time>2020-01-12T11:09:04Z</time>
      </trkpt>
      <trkpt lat="43.53949" lon="5.33068">
        <ele>185.67</ele>
        <time>2020-01-12T11:09:15Z</time>
      </trkpt>
      <trkpt lat="43.53949" lon="5.33071">
        <ele>185.67</ele>
        <time>2020-01-12T11:09:17Z</time>
      </trkpt>
      <trkpt lat="43.53949" lon="5.33076">
        <ele>185.19</ele>
        <time>2020-01-12T11:09:21Z</time>
      </trkpt>
      <trkpt lat="43.53948" lon="5.33079">
        <ele>185.19</ele>
        <time>2020-01-12T11:09:23Z</time>
      </trkpt>
      <trkpt lat="43.53948" lon="5.33082">
        <ele>184.71</ele>
        <time>2020-01-12T11:09:25Z</time>
      </trkpt>
      <trkpt lat="43.53947" lon="5.33098">
        <ele>183.27</ele>
        <time>2020-01-12T11:09:37Z</time>
      </trkpt>
      <trkpt lat="43.53945" lon="5.33111">
        <ele>182.79</ele>
        <time>2020-01-12T11:09:48Z</time>
      </trkpt>
      <trkpt lat="43.53944" lon="5.33128">
        <ele>180.87</ele>
        <time>2020-01-12T11:10:01Z</time>
      </trkpt>
      <trkpt lat="43.53945" lon="5.33142">
        <ele>177.02</ele>
        <time>2020-01-12T11:10:12Z</time>
      </trkpt>
      <trkpt lat="43.53944" lon="5.3316">
        <ele>177.02</ele>
        <time>2020-01-12T11:10:25Z</time>
      </trkpt>
      <trkpt lat="43.53943" lon="5.33177">
        <ele>176.06</ele>
        <time>2020-01-12T11:10:38Z</time>
      </trkpt>
      <trkpt lat="43.53942" lon="5.33194">
        <ele>175.1</ele>
        <time>2020-01-12T11:10:50Z</time>
      </trkpt>
      <trkpt lat="43.53942" lon="5.33196">
        <ele>174.62</ele>
        <time>2020-01-12T11:10:52Z</time>
      </trkpt>
      <trkpt lat="43.53941" lon="5.33206">
        <ele>174.14</ele>
        <time>2020-01-12T11:10:59Z</time>
      </trkpt>
      <trkpt lat="43.53941" lon="5.33212">
        <ele>173.17</ele>
        <time>2020-01-12T11:11:03Z</time>
      </trkpt>
      <trkpt lat="43.53939" lon="5.33227">
        <ele>171.73</ele>
        <time>2020-01-12T11:11:14Z</time>
      </trkpt>
      <trkpt lat="43.53938" lon="5.33245">
        <ele>171.25</ele>
        <time>2020-01-12T11:11:27Z</time>
      </trkpt>
      <trkpt lat="43.53936" lon="5.3326">
        <ele>172.69</ele>
        <time>2020-01-12T11:11:41Z</time>
      </trkpt>
      <trkpt lat="43.5393" lon="5.33259">
        <ele>173.66</ele>
        <time>2020-01-12T11:11:53Z</time>
      </trkpt>
      <trkpt lat="43.53923" lon="5.33256">
        <ele>174.14</ele>
        <time>2020-01-12T11:12:09Z</time>
      </trkpt>
      <trkpt lat="43.53921" lon="5.33255">
        <ele>174.62</ele>
        <time>2020-01-12T11:12:12Z</time>
      </trkpt>
      <trkpt lat="43.53909" lon="5.33248">
        <ele>177.98</ele>
        <time>2020-01-12T11:12:28Z</time>
      </trkpt>
      <trkpt lat="43.53899" lon="5.33242">
        <ele>180.87</ele>
        <time>2020-01-12T11:12:42Z</time>
      </trkpt>
      <trkpt lat="43.5389" lon="5.3324">
        <ele>179.9</ele>
        <time>2020-01-12T11:12:56Z</time>
      </trkpt>
      <trkpt lat="43.53878" lon="5.33237">
        <ele>181.83</ele>
        <time>2020-01-12T11:13:11Z</time>
      </trkpt>
      <trkpt lat="43.53876" lon="5.33239">
        <ele>180.87</ele>
        <time>2020-01-12T11:13:22Z</time>
      </trkpt>
      <trkpt lat="43.53875" lon="5.3324">
        <ele>180.38</ele>
        <time>2020-01-12T11:13:23Z</time>
      </trkpt>
      <trkpt lat="43.53865" lon="5.33251">
        <ele>182.79</ele>
        <time>2020-01-12T11:13:36Z</time>
      </trkpt>
      <trkpt lat="43.53864" lon="5.33255">
        <ele>182.31</ele>
        <time>2020-01-12T11:13:39Z</time>
      </trkpt>
      <trkpt lat="43.53863" lon="5.3327">
        <ele>181.83</ele>
        <time>2020-01-12T11:13:51Z</time>
      </trkpt>
      <trkpt lat="43.53865" lon="5.33287">
        <ele>177.5</ele>
        <time>2020-01-12T11:14:05Z</time>
      </trkpt>
      <trkpt lat="43.53865" lon="5.333">
        <ele>177.5</ele>
        <time>2020-01-12T11:14:18Z</time>
      </trkpt>
      <trkpt lat="43.53866" lon="5.33302">
        <ele>177.5</ele>
        <time>2020-01-12T11:14:20Z</time>
      </trkpt>
      <trkpt lat="43.53868" lon="5.33311">
        <ele>177.5</ele>
        <time>2020-01-12T11:14:34Z</time>
      </trkpt>
      <trkpt lat="43.53871" lon="5.33315">
        <ele>180.38</ele>
        <time>2020-01-12T11:15:06Z</time>
      </trkpt>
      <trkpt lat="43.53871" lon="5.33314">
        <ele>185.19</ele>
        <time>2020-01-12T11:15:42Z</time>
      </trkpt>
      <trkpt lat="43.53868" lon="5.33317">
        <ele>183.27</ele>
        <time>2020-01-12T11:16:09Z</time>
      </trkpt>
      <trkpt lat="43.53867" lon="5.33324">
        <ele>181.35</ele>
        <time>2020-01-12T11:16:24Z</time>
      </trkpt>
      <trkpt lat="43.53867" lon="5.33326">
        <ele>179.42</ele>
        <time>2020-01-12T11:16:46Z</time>
      </trkpt>
      <trkpt lat="43.53868" lon="5.33327">
        <ele>180.38</ele>
        <time>2020-01-12T11:17:13Z</time>
      </trkpt>
      <trkpt lat="43.53868" lon="5.33327">
        <ele>183.27</ele>
        <time>2020-01-12T11:17:48Z</time>
      </trkpt>
      <trkpt lat="43.5387" lon="5.33326">
        <ele>181.83</ele>
        <time>2020-01-12T11:18:22Z</time>
      </trkpt>
      <trkpt lat="43.5387" lon="5.33327">
        <ele>182.79</ele>
        <time>2020-01-12T11:18:45Z</time>
      </trkpt>
      <trkpt lat="43.5387" lon="5.33325">
        <ele>181.35</ele>
        <time>2020-01-12T11:19:11Z</time>
      </trkpt>
      <trkpt lat="43.53869" lon="5.33324">
        <ele>181.35</ele>
        <time>2020-01-12T11:19:28Z</time>
      </trkpt>
      <trkpt lat="43.53868" lon="5.33321">
        <ele>180.38</ele>
        <time>2020-01-12T11:19:49Z</time>
      </trkpt>
      <trkpt lat="43.53868" lon="5.33322">
        <ele>180.38</ele>
        <time>2020-01-12T11:20:10Z</time>
      </trkpt>
      <trkpt lat="43.53869" lon="5.33323">
        <ele>179.42</ele>
        <time>2020-01-12T11:20:36Z</time>
      </trkpt>
      <trkpt lat="43.53868" lon="5.33322">
        <ele>179.42</ele>
        <time>2020-01-12T11:20:56Z</time>
      </trkpt>
      <trkpt lat="43.53868" lon="5.3332">
        <ele>180.38</ele>
        <time>2020-01-12T11:21:17Z</time>
      </trkpt>
      <trkpt lat="43.53867" lon="5.33321">
        <ele>178.46</ele>
        <time>2020-01-12T11:21:31Z</time>
      </trkpt>
      <trkpt lat="43.53867" lon="5.33323">
        <ele>177.98</ele>
        <time>2020-01-12T11:21:50Z</time>
      </trkpt>
      <trkpt lat="43.53867" lon="5.33322">
        <ele>178.94</ele>
        <time>2020-01-12T11:22:08Z</time>
      </trkpt>
      <trkpt lat="43.53866" lon="5.33322">
        <ele>179.9</ele>
        <time>2020-01-12T11:22:40Z</time>
      </trkpt>
      <trkpt lat="43.53865" lon="5.33319">
        <ele>181.83</ele>
        <time>2020-01-12T11:23:00Z</time>
      </trkpt>
      <trkpt lat="43.53867" lon="5.33322">
        <ele>181.83</ele>
        <time>2020-01-12T11:23:22Z</time>
      </trkpt>
      <trkpt lat="43.53866" lon="5.33323">
        <ele>180.38</ele>
        <time>2020-01-12T11:23:51Z</time>
      </trkpt>
      <trkpt lat="43.53868" lon="5.33322">
        <ele>181.83</ele>
        <time>2020-01-12T11:24:27Z</time>
      </trkpt>
      <trkpt lat="43.53868" lon="5.33323">
        <ele>179.42</ele>
        <time>2020-01-12T11:24:50Z</time>
      </trkpt>
      <trkpt lat="43.53871" lon="5.33327">
        <ele>179.42</ele>
        <time>2020-01-12T11:25:08Z</time>
      </trkpt>
      <trkpt lat="43.53871" lon="5.33332">
        <ele>178.46</ele>
        <time>2020-01-12T11:25:21Z</time>
      </trkpt>
      <trkpt lat="43.53871" lon="5.33333">
        <ele>177.98</ele>
        <time>2020-01-12T11:25:27Z</time>
      </trkpt>
      <trkpt lat="43.53872" lon="5.33347">
        <ele>177.5</ele>
        <time>2020-01-12T11:25:39Z</time>
      </trkpt>
      <trkpt lat="43.53874" lon="5.33364">
        <ele>175.58</ele>
        <time>2020-01-12T11:25:51Z</time>
      </trkpt>
      <trkpt lat="43.53874" lon="5.33377">
        <ele>176.06</ele>
        <time>2020-01-12T11:26:02Z</time>
      </trkpt>
      <trkpt lat="43.53875" lon="5.3338">
        <ele>176.54</ele>
        <time>2020-01-12T11:26:05Z</time>
      </trkpt>
      <trkpt lat="43.53882" lon="5.33393">
        <ele>175.1</ele>
        <time>2020-01-12T11:26:17Z</time>
      </trkpt>
      <trkpt lat="43.53893" lon="5.33403">
        <ele>175.58</ele>
        <time>2020-01-12T11:26:30Z</time>
      </trkpt>
      <trkpt lat="43.53897" lon="5.33403">
        <ele>176.54</ele>
        <time>2020-01-12T11:26:34Z</time>
      </trkpt>
      <trkpt lat="43.53906" lon="5.33396">
        <ele>177.98</ele>
        <time>2020-01-12T11:26:47Z</time>
      </trkpt>
      <trkpt lat="43.53907" lon="5.33394">
        <ele>178.46</ele>
        <time>2020-01-12T11:26:48Z</time>
      </trkpt>
      <trkpt lat="43.53913" lon="5.33381">
        <ele>179.9</ele>
        <time>2020-01-12T11:27:01Z</time>
      </trkpt>
      <trkpt lat="43.53914" lon="5.33378">
        <ele>180.38</ele>
        <time>2020-01-12T11:27:03Z</time>
      </trkpt>
      <trkpt lat="43.53921" lon="5.33363">
        <ele>178.94</ele>
        <time>2020-01-12T11:27:17Z</time>
      </trkpt>
      <trkpt lat="43.53923" lon="5.33361">
        <ele>178.94</ele>
        <time>2020-01-12T11:27:20Z</time>
      </trkpt>
      <trkpt lat="43.53934" lon="5.33357">
        <ele>179.42</ele>
        <time>2020-01-12T11:27:32Z</time>
      </trkpt>
      <trkpt lat="43.53934" lon="5.3336">
        <ele>178.94</ele>
        <time>2020-01-12T11:27:34Z</time>
      </trkpt>
      <trkpt lat="43.53932" lon="5.33369">
        <ele>173.17</ele>
        <time>2020-01-12T11:27:47Z</time>
      </trkpt>
      <trkpt lat="43.53931" lon="5.33376">
        <ele>171.25</ele>
        <time>2020-01-12T11:27:59Z</time>
      </trkpt>
      <trkpt lat="43.53928" lon="5.33383">
        <ele>170.29</ele>
        <time>2020-01-12T11:28:08Z</time>
      </trkpt>
      <trkpt lat="43.53927" lon="5.33398">
        <ele>168.37</ele>
        <time>2020-01-12T11:28:20Z</time>
      </trkpt>
      <trkpt lat="43.5393" lon="5.33412">
        <ele>167.41</ele>
        <time>2020-01-12T11:28:32Z</time>
      </trkpt>
      <trkpt lat="43.53931" lon="5.33421">
        <ele>167.89</ele>
        <time>2020-01-12T11:28:45Z</time>
      </trkpt>
      <trkpt lat="43.53935" lon="5.33426">
        <ele>171.25</ele>
        <time>2020-01-12T11:28:58Z</time>
      </trkpt>
      <trkpt lat="43.53933" lon="5.33434">
        <ele>171.25</ele>
        <time>2020-01-12T11:29:15Z</time>
      </trkpt>
      <trkpt lat="43.53933" lon="5.33448">
        <ele>168.85</ele>
        <time>2020-01-12T11:29:27Z</time>
      </trkpt>
      <trkpt lat="43.53932" lon="5.33455">
        <ele>166.93</ele>
        <time>2020-01-12T11:29:33Z</time>
      </trkpt>
      <trkpt lat="43.5393" lon="5.33469">
        <ele>166.45</ele>
        <time>2020-01-12T11:29:45Z</time>
      </trkpt>
      <trkpt lat="43.53927" lon="5.3348">
        <ele>167.41</ele>
        <time>2020-01-12T11:29:54Z</time>
      </trkpt>
      <trkpt lat="43.53927" lon="5.33482">
        <ele>167.41</ele>
        <time>2020-01-12T11:29:56Z</time>
      </trkpt>
      <trkpt lat="43.53925" lon="5.33492">
        <ele>167.41</ele>
        <time>2020-01-12T11:30:03Z</time>
      </trkpt>
      <trkpt lat="43.53925" lon="5.335">
        <ele>166.93</ele>
        <time>2020-01-12T11:30:08Z</time>
      </trkpt>
      <trkpt lat="43.53921" lon="5.33513">
        <ele>167.41</ele>
        <time>2020-01-12T11:30:20Z</time>
      </trkpt>
      <trkpt lat="43.53919" lon="5.33525">
        <ele>166.45</ele>
        <time>2020-01-12T11:30:29Z</time>
      </trkpt>
      <trkpt lat="43.53917" lon="5.33543">
        <ele>165.96</ele>
        <time>2020-01-12T11:30:42Z</time>
      </trkpt>
      <trkpt lat="43.53917" lon="5.33549">
        <ele>166.45</ele>
        <time>2020-01-12T11:30:47Z</time>
      </trkpt>
      <trkpt lat="43.53914" lon="5.33557">
        <ele>167.41</ele>
        <time>2020-01-12T11:30:54Z</time>
      </trkpt>
      <trkpt lat="43.53912" lon="5.33562">
        <ele>167.89</ele>
        <time>2020-01-12T11:30:58Z</time>
      </trkpt>
      <trkpt lat="43.53911" lon="5.33565">
        <ele>168.37</ele>
        <time>2020-01-12T11:31:00Z</time>
      </trkpt>
      <trkpt lat="43.53907" lon="5.3358">
        <ele>168.37</ele>
        <time>2020-01-12T11:31:12Z</time>
      </trkpt>
      <trkpt lat="43.53906" lon="5.33581">
        <ele>168.37</ele>
        <time>2020-01-12T11:31:13Z</time>
      </trkpt>
      <trkpt lat="43.53906" lon="5.33583">
        <ele>168.37</ele>
        <time>2020-01-12T11:31:14Z</time>
      </trkpt>
      <trkpt lat="43.53905" lon="5.33586">
        <ele>167.89</ele>
        <time>2020-01-12T11:31:16Z</time>
      </trkpt>
      <trkpt lat="43.53903" lon="5.33595">
        <ele>167.41</ele>
        <time>2020-01-12T11:31:22Z</time>
      </trkpt>
      <trkpt lat="43.53902" lon="5.33597">
        <ele>167.41</ele>
        <time>2020-01-12T11:31:24Z</time>
      </trkpt>
      <trkpt lat="43.53902" lon="5.33599">
        <ele>166.93</ele>
        <time>2020-01-12T11:31:25Z</time>
      </trkpt>
      <trkpt lat="43.539" lon="5.33607">
        <ele>165.96</ele>
        <time>2020-01-12T11:31:31Z</time>
      </trkpt>
      <trkpt lat="43.53898" lon="5.33616">
        <ele>165</ele>
        <time>2020-01-12T11:31:37Z</time>
      </trkpt>
      <trkpt lat="43.53898" lon="5.33619">
        <ele>165</ele>
        <time>2020-01-12T11:31:39Z</time>
      </trkpt>
      <trkpt lat="43.53895" lon="5.33636">
        <ele>162.12</ele>
        <time>2020-01-12T11:31:51Z</time>
      </trkpt>
      <trkpt lat="43.53891" lon="5.33649">
        <ele>159.72</ele>
        <time>2020-01-12T11:32:00Z</time>
      </trkpt>
      <trkpt lat="43.53889" lon="5.33655">
        <ele>160.2</ele>
        <time>2020-01-12T11:32:04Z</time>
      </trkpt>
      <trkpt lat="43.53888" lon="5.33657">
        <ele>160.68</ele>
        <time>2020-01-12T11:32:06Z</time>
      </trkpt>
      <trkpt lat="43.53888" lon="5.3366">
        <ele>160.2</ele>
        <time>2020-01-12T11:32:08Z</time>
      </trkpt>
      <trkpt lat="43.53887" lon="5.33662">
        <ele>160.2</ele>
        <time>2020-01-12T11:32:10Z</time>
      </trkpt>
      <trkpt lat="43.53885" lon="5.33667">
        <ele>160.2</ele>
        <time>2020-01-12T11:32:14Z</time>
      </trkpt>
      <trkpt lat="43.53882" lon="5.33674">
        <ele>160.2</ele>
        <time>2020-01-12T11:32:19Z</time>
      </trkpt>
      <trkpt lat="43.53881" lon="5.33676">
        <ele>160.2</ele>
        <time>2020-01-12T11:32:21Z</time>
      </trkpt>
      <trkpt lat="43.53875" lon="5.33689">
        <ele>161.64</ele>
        <time>2020-01-12T11:32:32Z</time>
      </trkpt>
      <trkpt lat="43.53876" lon="5.33697">
        <ele>164.52</ele>
        <time>2020-01-12T11:32:45Z</time>
      </trkpt>
      <trkpt lat="43.53875" lon="5.33698">
        <ele>164.52</ele>
        <time>2020-01-12T11:32:46Z</time>
      </trkpt>
      <trkpt lat="43.53875" lon="5.33699">
        <ele>165</ele>
        <time>2020-01-12T11:32:47Z</time>
      </trkpt>
      <trkpt lat="43.53869" lon="5.33707">
        <ele>165.96</ele>
        <time>2020-01-12T11:32:54Z</time>
      </trkpt>
      <trkpt lat="43.53868" lon="5.33709">
        <ele>166.45</ele>
        <time>2020-01-12T11:32:56Z</time>
      </trkpt>
      <trkpt lat="43.53866" lon="5.33711">
        <ele>166.45</ele>
        <time>2020-01-12T11:32:58Z</time>
      </trkpt>
      <trkpt lat="43.53864" lon="5.33713">
        <ele>166.45</ele>
        <time>2020-01-12T11:33:00Z</time>
      </trkpt>
      <trkpt lat="43.53863" lon="5.33714">
        <ele>165.96</ele>
        <time>2020-01-12T11:33:01Z</time>
      </trkpt>
      <trkpt lat="43.53863" lon="5.33715">
        <ele>165.96</ele>
        <time>2020-01-12T11:33:02Z</time>
      </trkpt>
      <trkpt lat="43.53862" lon="5.33717">
        <ele>165.96</ele>
        <time>2020-01-12T11:33:03Z</time>
      </trkpt>
      <trkpt lat="43.53853" lon="5.33729">
        <ele>165.48</ele>
        <time>2020-01-12T11:33:14Z</time>
      </trkpt>
      <trkpt lat="43.53852" lon="5.33733">
        <ele>165.48</ele>
        <time>2020-01-12T11:33:17Z</time>
      </trkpt>
      <trkpt lat="43.53854" lon="5.33743">
        <ele>163.08</ele>
        <time>2020-01-12T11:33:31Z</time>
      </trkpt>
      <trkpt lat="43.53852" lon="5.33745">
        <ele>163.56</ele>
        <time>2020-01-12T11:33:34Z</time>
      </trkpt>
      <trkpt lat="43.53843" lon="5.33748">
        <ele>164.04</ele>
        <time>2020-01-12T11:33:45Z</time>
      </trkpt>
      <trkpt lat="43.53835" lon="5.33749">
        <ele>164.52</ele>
        <time>2020-01-12T11:33:55Z</time>
      </trkpt>
      <trkpt lat="43.53834" lon="5.33749">
        <ele>165</ele>
        <time>2020-01-12T11:33:56Z</time>
      </trkpt>
      <trkpt lat="43.5383" lon="5.33749">
        <ele>164.52</ele>
        <time>2020-01-12T11:34:00Z</time>
      </trkpt>
      <trkpt lat="43.5383" lon="5.3375">
        <ele>164.52</ele>
        <time>2020-01-12T11:34:01Z</time>
      </trkpt>
      <trkpt lat="43.53831" lon="5.33756">
        <ele>164.04</ele>
        <time>2020-01-12T11:34:08Z</time>
      </trkpt>
      <trkpt lat="43.53825" lon="5.33755">
        <ele>164.52</ele>
        <time>2020-01-12T11:34:16Z</time>
      </trkpt>
      <trkpt lat="43.53817" lon="5.3376">
        <ele>165</ele>
        <time>2020-01-12T11:34:26Z</time>
      </trkpt>
      <trkpt lat="43.53812" lon="5.33766">
        <ele>165</ele>
        <time>2020-01-12T11:34:39Z</time>
      </trkpt>
      <trkpt lat="43.53806" lon="5.33771">
        <ele>164.52</ele>
        <time>2020-01-12T11:34:51Z</time>
      </trkpt>
      <trkpt lat="43.53805" lon="5.3377">
        <ele>164.52</ele>
        <time>2020-01-12T11:34:53Z</time>
      </trkpt>
      <trkpt lat="43.53798" lon="5.33774">
        <ele>161.64</ele>
        <time>2020-01-12T11:35:05Z</time>
      </trkpt>
      <trkpt lat="43.53794" lon="5.33777">
        <ele>161.64</ele>
        <time>2020-01-12T11:35:09Z</time>
      </trkpt>
      <trkpt lat="43.53784" lon="5.33785">
        <ele>159.72</ele>
        <time>2020-01-12T11:35:21Z</time>
      </trkpt>
      <trkpt lat="43.53782" lon="5.33785">
        <ele>159.72</ele>
        <time>2020-01-12T11:35:23Z</time>
      </trkpt>
      <trkpt lat="43.53775" lon="5.33787">
        <ele>162.12</ele>
        <time>2020-01-12T11:35:36Z</time>
      </trkpt>
      <trkpt lat="43.5377" lon="5.33788">
        <ele>162.6</ele>
        <time>2020-01-12T11:35:48Z</time>
      </trkpt>
      <trkpt lat="43.5376" lon="5.33788">
        <ele>163.08</ele>
        <time>2020-01-12T11:36:01Z</time>
      </trkpt>
      <trkpt lat="43.53744" lon="5.33787">
        <ele>165</ele>
        <time>2020-01-12T11:36:18Z</time>
      </trkpt>
      <trkpt lat="43.53728" lon="5.33787">
        <ele>163.56</ele>
        <time>2020-01-12T11:36:35Z</time>
      </trkpt>
      <trkpt lat="43.53717" lon="5.33784">
        <ele>163.56</ele>
        <time>2020-01-12T11:36:47Z</time>
      </trkpt>
      <trkpt lat="43.53705" lon="5.33779">
        <ele>164.04</ele>
        <time>2020-01-12T11:37:00Z</time>
      </trkpt>
      <trkpt lat="43.53694" lon="5.33773">
        <ele>165.48</ele>
        <time>2020-01-12T11:37:12Z</time>
      </trkpt>
      <trkpt lat="43.53683" lon="5.33767">
        <ele>166.93</ele>
        <time>2020-01-12T11:37:25Z</time>
      </trkpt>
      <trkpt lat="43.53671" lon="5.33762">
        <ele>166.93</ele>
        <time>2020-01-12T11:37:38Z</time>
      </trkpt>
      <trkpt lat="43.53658" lon="5.33756">
        <ele>167.89</ele>
        <time>2020-01-12T11:37:52Z</time>
      </trkpt>
      <trkpt lat="43.53647" lon="5.3375">
        <ele>168.85</ele>
        <time>2020-01-12T11:38:04Z</time>
      </trkpt>
      <trkpt lat="43.53636" lon="5.33745">
        <ele>168.85</ele>
        <time>2020-01-12T11:38:16Z</time>
      </trkpt>
      <trkpt lat="43.53627" lon="5.33741">
        <ele>167.89</ele>
        <time>2020-01-12T11:38:25Z</time>
      </trkpt>
      <trkpt lat="43.53614" lon="5.33731">
        <ele>166.45</ele>
        <time>2020-01-12T11:38:39Z</time>
      </trkpt>
      <trkpt lat="43.53598" lon="5.33722">
        <ele>165</ele>
        <time>2020-01-12T11:38:55Z</time>
      </trkpt>
      <trkpt lat="43.53587" lon="5.33718">
        <ele>165.48</ele>
        <time>2020-01-12T11:39:07Z</time>
      </trkpt>
      <trkpt lat="43.53572" lon="5.33719">
        <ele>166.45</ele>
        <time>2020-01-12T11:39:20Z</time>
      </trkpt>
      <trkpt lat="43.53556" lon="5.3372">
        <ele>166.93</ele>
        <time>2020-01-12T11:39:35Z</time>
      </trkpt>
      <trkpt lat="43.53546" lon="5.33719">
        <ele>166.93</ele>
        <time>2020-01-12T11:39:45Z</time>
      </trkpt>
      <trkpt lat="43.53533" lon="5.33714">
        <ele>166.45</ele>
        <time>2020-01-12T11:39:59Z</time>
      </trkpt>
      <trkpt lat="43.53523" lon="5.33705">
        <ele>165.96</ele>
        <time>2020-01-12T11:40:13Z</time>
      </trkpt>
      <trkpt lat="43.53515" lon="5.33694">
        <ele>165</ele>
        <time>2020-01-12T11:40:25Z</time>
      </trkpt>
      <trkpt lat="43.53504" lon="5.33685">
        <ele>165.96</ele>
        <time>2020-01-12T11:40:37Z</time>
      </trkpt>
      <trkpt lat="43.53491" lon="5.33682">
        <ele>164.52</ele>
        <time>2020-01-12T11:40:49Z</time>
      </trkpt>
      <trkpt lat="43.53477" lon="5.33679">
        <ele>164.52</ele>
        <time>2020-01-12T11:41:02Z</time>
      </trkpt>
      <trkpt lat="43.53476" lon="5.33679">
        <ele>164.04</ele>
        <time>2020-01-12T11:41:03Z</time>
      </trkpt>
      <trkpt lat="43.53461" lon="5.33685">
        <ele>163.56</ele>
        <time>2020-01-12T11:41:18Z</time>
      </trkpt>
      <trkpt lat="43.5346" lon="5.33685">
        <ele>164.04</ele>
        <time>2020-01-12T11:41:19Z</time>
      </trkpt>
      <trkpt lat="43.53456" lon="5.33688">
        <ele>164.04</ele>
        <time>2020-01-12T11:41:25Z</time>
      </trkpt>
      <trkpt lat="43.5345" lon="5.33691">
        <ele>164.04</ele>
        <time>2020-01-12T11:41:34Z</time>
      </trkpt>
      <trkpt lat="43.53445" lon="5.33693">
        <ele>164.52</ele>
        <time>2020-01-12T11:41:39Z</time>
      </trkpt>
      <trkpt lat="43.53432" lon="5.33693">
        <ele>165</ele>
        <time>2020-01-12T11:41:53Z</time>
      </trkpt>
      <trkpt lat="43.53415" lon="5.33693">
        <ele>164.04</ele>
        <time>2020-01-12T11:42:08Z</time>
      </trkpt>
      <trkpt lat="43.53407" lon="5.33691">
        <ele>164.52</ele>
        <time>2020-01-12T11:42:17Z</time>
      </trkpt>
      <trkpt lat="43.53406" lon="5.33689">
        <ele>165</ele>
        <time>2020-01-12T11:42:19Z</time>
      </trkpt>
      <trkpt lat="43.53405" lon="5.33687">
        <ele>165.48</ele>
        <time>2020-01-12T11:42:22Z</time>
      </trkpt>
      <trkpt lat="43.53394" lon="5.33684">
        <ele>167.41</ele>
        <time>2020-01-12T11:42:33Z</time>
      </trkpt>
      <trkpt lat="43.53382" lon="5.33678">
        <ele>166.93</ele>
        <time>2020-01-12T11:42:46Z</time>
      </trkpt>
      <trkpt lat="43.53372" lon="5.33674">
        <ele>167.41</ele>
        <time>2020-01-12T11:42:59Z</time>
      </trkpt>
      <trkpt lat="43.53366" lon="5.33675">
        <ele>165.96</ele>
        <time>2020-01-12T11:43:14Z</time>
      </trkpt>
      <trkpt lat="43.53357" lon="5.3367">
        <ele>166.45</ele>
        <time>2020-01-12T11:43:27Z</time>
      </trkpt>
      <trkpt lat="43.53348" lon="5.33664">
        <ele>167.41</ele>
        <time>2020-01-12T11:43:37Z</time>
      </trkpt>
      <trkpt lat="43.53345" lon="5.33664">
        <ele>167.41</ele>
        <time>2020-01-12T11:43:39Z</time>
      </trkpt>
      <trkpt lat="43.53333" lon="5.33657">
        <ele>166.93</ele>
        <time>2020-01-12T11:43:52Z</time>
      </trkpt>
      <trkpt lat="43.5332" lon="5.3365">
        <ele>165.48</ele>
        <time>2020-01-12T11:44:06Z</time>
      </trkpt>
      <trkpt lat="43.53312" lon="5.33644">
        <ele>165.96</ele>
        <time>2020-01-12T11:44:15Z</time>
      </trkpt>
      <trkpt lat="43.53301" lon="5.33636">
        <ele>166.45</ele>
        <time>2020-01-12T11:44:28Z</time>
      </trkpt>
      <trkpt lat="43.53298" lon="5.33634">
        <ele>166.45</ele>
        <time>2020-01-12T11:44:32Z</time>
      </trkpt>
      <trkpt lat="43.53288" lon="5.33622">
        <ele>167.41</ele>
        <time>2020-01-12T11:44:47Z</time>
      </trkpt>
      <trkpt lat="43.53284" lon="5.33619">
        <ele>166.93</ele>
        <time>2020-01-12T11:44:52Z</time>
      </trkpt>
      <trkpt lat="43.53274" lon="5.33607">
        <ele>167.41</ele>
        <time>2020-01-12T11:45:05Z</time>
      </trkpt>
      <trkpt lat="43.53269" lon="5.336">
        <ele>167.89</ele>
        <time>2020-01-12T11:45:12Z</time>
      </trkpt>
      <trkpt lat="43.53261" lon="5.33585">
        <ele>166.93</ele>
        <time>2020-01-12T11:45:26Z</time>
      </trkpt>
      <trkpt lat="43.53256" lon="5.33569">
        <ele>166.45</ele>
        <time>2020-01-12T11:45:39Z</time>
      </trkpt>
      <trkpt lat="43.53252" lon="5.3355">
        <ele>165.96</ele>
        <time>2020-01-12T11:45:53Z</time>
      </trkpt>
      <trkpt lat="43.53248" lon="5.33535">
        <ele>165.96</ele>
        <time>2020-01-12T11:46:06Z</time>
      </trkpt>
      <trkpt lat="43.53244" lon="5.33524">
        <ele>165.48</ele>
        <time>2020-01-12T11:46:17Z</time>
      </trkpt>
      <trkpt lat="43.5324" lon="5.33511">
        <ele>166.93</ele>
        <time>2020-01-12T11:46:27Z</time>
      </trkpt>
      <trkpt lat="43.53239" lon="5.33508">
        <ele>166.93</ele>
        <time>2020-01-12T11:46:29Z</time>
      </trkpt>
      <trkpt lat="43.53233" lon="5.33495">
        <ele>167.41</ele>
        <time>2020-01-12T11:46:41Z</time>
      </trkpt>
      <trkpt lat="43.53232" lon="5.33492">
        <ele>167.41</ele>
        <time>2020-01-12T11:46:44Z</time>
      </trkpt>
      <trkpt lat="43.53232" lon="5.33489">
        <ele>167.89</ele>
        <time>2020-01-12T11:46:46Z</time>
      </trkpt>
      <trkpt lat="43.53224" lon="5.3347">
        <ele>165.48</ele>
        <time>2020-01-12T11:47:00Z</time>
      </trkpt>
      <trkpt lat="43.53223" lon="5.33466">
        <ele>165</ele>
        <time>2020-01-12T11:47:03Z</time>
      </trkpt>
      <trkpt lat="43.5322" lon="5.33457">
        <ele>165</ele>
        <time>2020-01-12T11:47:10Z</time>
      </trkpt>
      <trkpt lat="43.5322" lon="5.3344">
        <ele>165</ele>
        <time>2020-01-12T11:47:22Z</time>
      </trkpt>
      <trkpt lat="43.53223" lon="5.33422">
        <ele>164.04</ele>
        <time>2020-01-12T11:47:35Z</time>
      </trkpt>
      <trkpt lat="43.53224" lon="5.33414">
        <ele>164.52</ele>
        <time>2020-01-12T11:47:41Z</time>
      </trkpt>
      <trkpt lat="43.53226" lon="5.33394">
        <ele>165.96</ele>
        <time>2020-01-12T11:47:55Z</time>
      </trkpt>
      <trkpt lat="43.53221" lon="5.33378">
        <ele>165.48</ele>
        <time>2020-01-12T11:48:07Z</time>
      </trkpt>
      <trkpt lat="43.53215" lon="5.33364">
        <ele>164.52</ele>
        <time>2020-01-12T11:48:20Z</time>
      </trkpt>
      <trkpt lat="43.53212" lon="5.33355">
        <ele>164.52</ele>
        <time>2020-01-12T11:48:32Z</time>
      </trkpt>
      <trkpt lat="43.53212" lon="5.33354">
        <ele>165</ele>
        <time>2020-01-12T11:48:33Z</time>
      </trkpt>
      <trkpt lat="43.53207" lon="5.33337">
        <ele>166.93</ele>
        <time>2020-01-12T11:48:48Z</time>
      </trkpt>
      <trkpt lat="43.53209" lon="5.33327">
        <ele>168.37</ele>
        <time>2020-01-12T11:48:53Z</time>
      </trkpt>
      <trkpt lat="43.53202" lon="5.33309">
        <ele>166.93</ele>
        <time>2020-01-12T11:49:05Z</time>
      </trkpt>
      <trkpt lat="43.532" lon="5.33306">
        <ele>166.45</ele>
        <time>2020-01-12T11:49:08Z</time>
      </trkpt>
      <trkpt lat="43.53198" lon="5.33304">
        <ele>165.96</ele>
        <time>2020-01-12T11:49:10Z</time>
      </trkpt>
      <trkpt lat="43.53191" lon="5.33296">
        <ele>164.52</ele>
        <time>2020-01-12T11:49:19Z</time>
      </trkpt>
      <trkpt lat="43.53182" lon="5.3329">
        <ele>164.04</ele>
        <time>2020-01-12T11:49:28Z</time>
      </trkpt>
      <trkpt lat="43.53168" lon="5.33285">
        <ele>164.04</ele>
        <time>2020-01-12T11:49:41Z</time>
      </trkpt>
      <trkpt lat="43.53152" lon="5.3328">
        <ele>164.52</ele>
        <time>2020-01-12T11:49:57Z</time>
      </trkpt>
      <trkpt lat="43.5314" lon="5.33269">
        <ele>164.04</ele>
        <time>2020-01-12T11:50:12Z</time>
      </trkpt>
      <trkpt lat="43.53131" lon="5.33257">
        <ele>165.48</ele>
        <time>2020-01-12T11:50:25Z</time>
      </trkpt>
      <trkpt lat="43.53129" lon="5.33252">
        <ele>165.96</ele>
        <time>2020-01-12T11:50:38Z</time>
      </trkpt>
      <trkpt lat="43.53127" lon="5.33247">
        <ele>165.96</ele>
        <time>2020-01-12T11:50:46Z</time>
      </trkpt>
      <trkpt lat="43.53119" lon="5.33236">
        <ele>165</ele>
        <time>2020-01-12T11:50:57Z</time>
      </trkpt>
      <trkpt lat="43.53108" lon="5.33225">
        <ele>166.45</ele>
        <time>2020-01-12T11:51:10Z</time>
      </trkpt>
      <trkpt lat="43.531" lon="5.33217">
        <ele>167.41</ele>
        <time>2020-01-12T11:51:21Z</time>
      </trkpt>
      <trkpt lat="43.53087" lon="5.33206">
        <ele>166.93</ele>
        <time>2020-01-12T11:51:35Z</time>
      </trkpt>
      <trkpt lat="43.53076" lon="5.33196">
        <ele>168.37</ele>
        <time>2020-01-12T11:51:48Z</time>
      </trkpt>
      <trkpt lat="43.53073" lon="5.33193">
        <ele>167.89</ele>
        <time>2020-01-12T11:51:52Z</time>
      </trkpt>
      <trkpt lat="43.53059" lon="5.3318">
        <ele>167.89</ele>
        <time>2020-01-12T11:52:08Z</time>
      </trkpt>
      <trkpt lat="43.53054" lon="5.33175">
        <ele>167.89</ele>
        <time>2020-01-12T11:52:15Z</time>
      </trkpt>
      <trkpt lat="43.53043" lon="5.33164">
        <ele>168.37</ele>
        <time>2020-01-12T11:52:29Z</time>
      </trkpt>
      <trkpt lat="43.53035" lon="5.33157">
        <ele>169.81</ele>
        <time>2020-01-12T11:52:43Z</time>
      </trkpt>
      <trkpt lat="43.53029" lon="5.33151">
        <ele>168.37</ele>
        <time>2020-01-12T11:52:57Z</time>
      </trkpt>
      <trkpt lat="43.53024" lon="5.33147">
        <ele>167.41</ele>
        <time>2020-01-12T11:53:02Z</time>
      </trkpt>
      <trkpt lat="43.53022" lon="5.33146">
        <ele>167.41</ele>
        <time>2020-01-12T11:53:04Z</time>
      </trkpt>
      <trkpt lat="43.5301" lon="5.33137">
        <ele>165.96</ele>
        <time>2020-01-12T11:53:16Z</time>
      </trkpt>
      <trkpt lat="43.52998" lon="5.33128">
        <ele>164.52</ele>
        <time>2020-01-12T11:53:32Z</time>
      </trkpt>
      <trkpt lat="43.52987" lon="5.33122">
        <ele>165.96</ele>
        <time>2020-01-12T11:53:46Z</time>
      </trkpt>
      <trkpt lat="43.52975" lon="5.33112">
        <ele>168.85</ele>
        <time>2020-01-12T11:54:00Z</time>
      </trkpt>
      <trkpt lat="43.52965" lon="5.33107">
        <ele>169.81</ele>
        <time>2020-01-12T11:54:11Z</time>
      </trkpt>
      <trkpt lat="43.52955" lon="5.33103">
        <ele>171.25</ele>
        <time>2020-01-12T11:54:25Z</time>
      </trkpt>
      <trkpt lat="43.52948" lon="5.33099">
        <ele>171.73</ele>
        <time>2020-01-12T11:54:36Z</time>
      </trkpt>
      <trkpt lat="43.5294" lon="5.33093">
        <ele>174.62</ele>
        <time>2020-01-12T11:54:48Z</time>
      </trkpt>
      <trkpt lat="43.52932" lon="5.33085">
        <ele>176.54</ele>
        <time>2020-01-12T11:55:02Z</time>
      </trkpt>
      <trkpt lat="43.52924" lon="5.33081">
        <ele>176.54</ele>
        <time>2020-01-12T11:55:20Z</time>
      </trkpt>
      <trkpt lat="43.52917" lon="5.33071">
        <ele>177.02</ele>
        <time>2020-01-12T11:55:32Z</time>
      </trkpt>
      <trkpt lat="43.52913" lon="5.33067">
        <ele>177.02</ele>
        <time>2020-01-12T11:55:45Z</time>
      </trkpt>
      <trkpt lat="43.52903" lon="5.33057">
        <ele>177.02</ele>
        <time>2020-01-12T11:55:59Z</time>
      </trkpt>
      <trkpt lat="43.52895" lon="5.33053">
        <ele>176.06</ele>
        <time>2020-01-12T11:56:12Z</time>
      </trkpt>
      <trkpt lat="43.5289" lon="5.33047">
        <ele>174.62</ele>
        <time>2020-01-12T11:56:27Z</time>
      </trkpt>
      <trkpt lat="43.52883" lon="5.33037">
        <ele>173.66</ele>
        <time>2020-01-12T11:56:38Z</time>
      </trkpt>
      <trkpt lat="43.52877" lon="5.33028">
        <ele>174.14</ele>
        <time>2020-01-12T11:56:51Z</time>
      </trkpt>
      <trkpt lat="43.52874" lon="5.33019">
        <ele>173.66</ele>
        <time>2020-01-12T11:57:05Z</time>
      </trkpt>
      <trkpt lat="43.52869" lon="5.33021">
        <ele>173.17</ele>
        <time>2020-01-12T11:57:18Z</time>
      </trkpt>
      <trkpt lat="43.5287" lon="5.33021">
        <ele>171.73</ele>
        <time>2020-01-12T11:57:41Z</time>
      </trkpt>
      <trkpt lat="43.52874" lon="5.33025">
        <ele>174.62</ele>
        <time>2020-01-12T11:57:55Z</time>
      </trkpt>
      <trkpt lat="43.52873" lon="5.33029">
        <ele>175.1</ele>
        <time>2020-01-12T11:58:08Z</time>
      </trkpt>
      <trkpt lat="43.52874" lon="5.33031">
        <ele>174.62</ele>
        <time>2020-01-12T11:58:28Z</time>
      </trkpt>
      <trkpt lat="43.52874" lon="5.33029">
        <ele>177.5</ele>
        <time>2020-01-12T11:59:01Z</time>
      </trkpt>
      <trkpt lat="43.52874" lon="5.3303">
        <ele>176.54</ele>
        <time>2020-01-12T11:59:13Z</time>
      </trkpt>
      <trkpt lat="43.52874" lon="5.3303">
        <ele>175.1</ele>
        <time>2020-01-12T11:59:43Z</time>
      </trkpt>
      <trkpt lat="43.52874" lon="5.33029">
        <ele>174.14</ele>
        <time>2020-01-12T12:00:09Z</time>
      </trkpt>
      <trkpt lat="43.52874" lon="5.3303">
        <ele>174.14</ele>
        <time>2020-01-12T12:00:39Z</time>
      </trkpt>
      <trkpt lat="43.52874" lon="5.33031">
        <ele>173.17</ele>
        <time>2020-01-12T12:01:06Z</time>
      </trkpt>
      <trkpt lat="43.52875" lon="5.33031">
        <ele>173.66</ele>
        <time>2020-01-12T12:01:32Z</time>
      </trkpt>
      <trkpt lat="43.52875" lon="5.33031">
        <ele>174.62</ele>
        <time>2020-01-12T12:02:06Z</time>
      </trkpt>
      <trkpt lat="43.52875" lon="5.33031">
        <ele>176.54</ele>
        <time>2020-01-12T12:02:33Z</time>
      </trkpt>
      <trkpt lat="43.52875" lon="5.33029">
        <ele>175.58</ele>
        <time>2020-01-12T12:03:01Z</time>
      </trkpt>
      <trkpt lat="43.52875" lon="5.3303">
        <ele>176.54</ele>
        <time>2020-01-12T12:03:29Z</time>
      </trkpt>
      <trkpt lat="43.52876" lon="5.3303">
        <ele>174.62</ele>
        <time>2020-01-12T12:03:56Z</time>
      </trkpt>
      <trkpt lat="43.52875" lon="5.3303">
        <ele>173.66</ele>
        <time>2020-01-12T12:04:21Z</time>
      </trkpt>
      <trkpt lat="43.52875" lon="5.33029">
        <ele>175.1</ele>
        <time>2020-01-12T12:04:44Z</time>
      </trkpt>
      <trkpt lat="43.52874" lon="5.33029">
        <ele>175.1</ele>
        <time>2020-01-12T12:04:49Z</time>
      </trkpt>
      <trkpt lat="43.52873" lon="5.32986">
        <ele>176.06</ele>
        <time>2020-01-12T12:39:03Z</time>
      </trkpt>
      <trkpt lat="43.52875" lon="5.32951">
        <ele>173.17</ele>
        <time>2020-01-12T12:39:30Z</time>
      </trkpt>
      <trkpt lat="43.52876" lon="5.32933">
        <ele>173.17</ele>
        <time>2020-01-12T12:39:45Z</time>
      </trkpt>
      <trkpt lat="43.52877" lon="5.32917">
        <ele>172.69</ele>
        <time>2020-01-12T12:39:57Z</time>
      </trkpt>
      <trkpt lat="43.52875" lon="5.32896">
        <ele>171.25</ele>
        <time>2020-01-12T12:40:12Z</time>
      </trkpt>
      <trkpt lat="43.52873" lon="5.32879">
        <ele>169.81</ele>
        <time>2020-01-12T12:40:25Z</time>
      </trkpt>
      <trkpt lat="43.52872" lon="5.32874">
        <ele>169.33</ele>
        <time>2020-01-12T12:40:29Z</time>
      </trkpt>
      <trkpt lat="43.52873" lon="5.32864">
        <ele>168.37</ele>
        <time>2020-01-12T12:40:38Z</time>
      </trkpt>
      <trkpt lat="43.52878" lon="5.3285">
        <ele>166.45</ele>
        <time>2020-01-12T12:40:52Z</time>
      </trkpt>
      <trkpt lat="43.52874" lon="5.32833">
        <ele>165.96</ele>
        <time>2020-01-12T12:41:05Z</time>
      </trkpt>
      <trkpt lat="43.52875" lon="5.32823">
        <ele>165.96</ele>
        <time>2020-01-12T12:41:12Z</time>
      </trkpt>
      <trkpt lat="43.52874" lon="5.32814">
        <ele>166.45</ele>
        <time>2020-01-12T12:41:18Z</time>
      </trkpt>
      <trkpt lat="43.52869" lon="5.32801">
        <ele>167.89</ele>
        <time>2020-01-12T12:41:31Z</time>
      </trkpt>
      <trkpt lat="43.52865" lon="5.32793">
        <ele>168.85</ele>
        <time>2020-01-12T12:41:44Z</time>
      </trkpt>
      <trkpt lat="43.52862" lon="5.32794">
        <ele>169.81</ele>
        <time>2020-01-12T12:42:01Z</time>
      </trkpt>
      <trkpt lat="43.52864" lon="5.32793">
        <ele>167.89</ele>
        <time>2020-01-12T12:42:29Z</time>
      </trkpt>
      <trkpt lat="43.52868" lon="5.32782">
        <ele>167.89</ele>
        <time>2020-01-12T12:42:43Z</time>
      </trkpt>
      <trkpt lat="43.52875" lon="5.32767">
        <ele>169.81</ele>
        <time>2020-01-12T12:42:57Z</time>
      </trkpt>
      <trkpt lat="43.52878" lon="5.32758">
        <ele>169.81</ele>
        <time>2020-01-12T12:43:05Z</time>
      </trkpt>
      <trkpt lat="43.52879" lon="5.32752">
        <ele>168.85</ele>
        <time>2020-01-12T12:43:10Z</time>
      </trkpt>
      <trkpt lat="43.5288" lon="5.32745">
        <ele>168.37</ele>
        <time>2020-01-12T12:43:15Z</time>
      </trkpt>
      <trkpt lat="43.5288" lon="5.3273">
        <ele>167.89</ele>
        <time>2020-01-12T12:43:28Z</time>
      </trkpt>
      <trkpt lat="43.52879" lon="5.32728">
        <ele>168.37</ele>
        <time>2020-01-12T12:43:32Z</time>
      </trkpt>
      <trkpt lat="43.52876" lon="5.32715">
        <ele>167.89</ele>
        <time>2020-01-12T12:43:44Z</time>
      </trkpt>
      <trkpt lat="43.52872" lon="5.32705">
        <ele>168.37</ele>
        <time>2020-01-12T12:43:55Z</time>
      </trkpt>
      <trkpt lat="43.52869" lon="5.327">
        <ele>168.85</ele>
        <time>2020-01-12T12:44:13Z</time>
      </trkpt>
      <trkpt lat="43.52867" lon="5.32695">
        <ele>168.37</ele>
        <time>2020-01-12T12:44:21Z</time>
      </trkpt>
      <trkpt lat="43.52853" lon="5.32684">
        <ele>167.41</ele>
        <time>2020-01-12T12:44:35Z</time>
      </trkpt>
      <trkpt lat="43.52838" lon="5.32682">
        <ele>169.33</ele>
        <time>2020-01-12T12:44:47Z</time>
      </trkpt>
      <trkpt lat="43.5283" lon="5.32679">
        <ele>169.33</ele>
        <time>2020-01-12T12:44:55Z</time>
      </trkpt>
      <trkpt lat="43.52826" lon="5.32674">
        <ele>168.37</ele>
        <time>2020-01-12T12:45:00Z</time>
      </trkpt>
      <trkpt lat="43.52821" lon="5.32669">
        <ele>166.93</ele>
        <time>2020-01-12T12:45:05Z</time>
      </trkpt>
      <trkpt lat="43.52811" lon="5.32661">
        <ele>166.93</ele>
        <time>2020-01-12T12:45:15Z</time>
      </trkpt>
      <trkpt lat="43.52803" lon="5.32655">
        <ele>165.96</ele>
        <time>2020-01-12T12:45:23Z</time>
      </trkpt>
      <trkpt lat="43.52791" lon="5.3265">
        <ele>164.52</ele>
        <time>2020-01-12T12:45:36Z</time>
      </trkpt>
      <trkpt lat="43.52787" lon="5.32648">
        <ele>164.52</ele>
        <time>2020-01-12T12:45:41Z</time>
      </trkpt>
      <trkpt lat="43.52785" lon="5.32646">
        <ele>164.04</ele>
        <time>2020-01-12T12:45:43Z</time>
      </trkpt>
      <trkpt lat="43.5278" lon="5.32641">
        <ele>164.04</ele>
        <time>2020-01-12T12:45:49Z</time>
      </trkpt>
      <trkpt lat="43.52777" lon="5.32638">
        <ele>164.04</ele>
        <time>2020-01-12T12:45:52Z</time>
      </trkpt>
      <trkpt lat="43.52774" lon="5.32634">
        <ele>164.52</ele>
        <time>2020-01-12T12:45:56Z</time>
      </trkpt>
      <trkpt lat="43.52769" lon="5.32617">
        <ele>164.04</ele>
        <time>2020-01-12T12:46:09Z</time>
      </trkpt>
      <trkpt lat="43.52768" lon="5.32613">
        <ele>164.04</ele>
        <time>2020-01-12T12:46:12Z</time>
      </trkpt>
      <trkpt lat="43.52768" lon="5.32608">
        <ele>164.52</ele>
        <time>2020-01-12T12:46:16Z</time>
      </trkpt>
      <trkpt lat="43.52767" lon="5.32601">
        <ele>165.96</ele>
        <time>2020-01-12T12:46:21Z</time>
      </trkpt>
      <trkpt lat="43.52762" lon="5.32592">
        <ele>166.93</ele>
        <time>2020-01-12T12:46:32Z</time>
      </trkpt>
      <trkpt lat="43.52762" lon="5.32589">
        <ele>165.48</ele>
        <time>2020-01-12T12:46:55Z</time>
      </trkpt>
      <trkpt lat="43.52761" lon="5.32572">
        <ele>166.93</ele>
        <time>2020-01-12T12:47:07Z</time>
      </trkpt>
      <trkpt lat="43.52761" lon="5.32556">
        <ele>167.41</ele>
        <time>2020-01-12T12:47:19Z</time>
      </trkpt>
      <trkpt lat="43.52764" lon="5.32539">
        <ele>166.93</ele>
        <time>2020-01-12T12:47:31Z</time>
      </trkpt>
      <trkpt lat="43.52764" lon="5.32534">
        <ele>165.96</ele>
        <time>2020-01-12T12:47:34Z</time>
      </trkpt>
      <trkpt lat="43.52764" lon="5.32528">
        <ele>165</ele>
        <time>2020-01-12T12:47:38Z</time>
      </trkpt>
      <trkpt lat="43.52762" lon="5.32512">
        <ele>164.04</ele>
        <time>2020-01-12T12:47:49Z</time>
      </trkpt>
      <trkpt lat="43.52759" lon="5.32496">
        <ele>165</ele>
        <time>2020-01-12T12:48:01Z</time>
      </trkpt>
      <trkpt lat="43.52757" lon="5.32478">
        <ele>165</ele>
        <time>2020-01-12T12:48:14Z</time>
      </trkpt>
      <trkpt lat="43.52754" lon="5.32463">
        <ele>164.52</ele>
        <time>2020-01-12T12:48:26Z</time>
      </trkpt>
      <trkpt lat="43.52753" lon="5.32457">
        <ele>164.52</ele>
        <time>2020-01-12T12:48:31Z</time>
      </trkpt>
      <trkpt lat="43.52751" lon="5.32441">
        <ele>164.04</ele>
        <time>2020-01-12T12:48:43Z</time>
      </trkpt>
      <trkpt lat="43.52753" lon="5.32424">
        <ele>164.04</ele>
        <time>2020-01-12T12:48:56Z</time>
      </trkpt>
      <trkpt lat="43.52752" lon="5.3241">
        <ele>164.52</ele>
        <time>2020-01-12T12:49:09Z</time>
      </trkpt>
      <trkpt lat="43.52746" lon="5.32397">
        <ele>163.56</ele>
        <time>2020-01-12T12:49:21Z</time>
      </trkpt>
      <trkpt lat="43.52742" lon="5.32391">
        <ele>164.04</ele>
        <time>2020-01-12T12:49:29Z</time>
      </trkpt>
      <trkpt lat="43.52731" lon="5.32388">
        <ele>163.56</ele>
        <time>2020-01-12T12:49:44Z</time>
      </trkpt>
      <trkpt lat="43.52724" lon="5.32387">
        <ele>165</ele>
        <time>2020-01-12T12:49:55Z</time>
      </trkpt>
      <trkpt lat="43.52717" lon="5.32382">
        <ele>163.56</ele>
        <time>2020-01-12T12:50:08Z</time>
      </trkpt>
      <trkpt lat="43.52709" lon="5.32371">
        <ele>163.56</ele>
        <time>2020-01-12T12:50:22Z</time>
      </trkpt>
      <trkpt lat="43.52704" lon="5.32358">
        <ele>167.89</ele>
        <time>2020-01-12T12:50:34Z</time>
      </trkpt>
      <trkpt lat="43.52701" lon="5.32354">
        <ele>168.85</ele>
        <time>2020-01-12T12:50:38Z</time>
      </trkpt>
      <trkpt lat="43.52694" lon="5.32341">
        <ele>170.77</ele>
        <time>2020-01-12T12:50:52Z</time>
      </trkpt>
      <trkpt lat="43.52688" lon="5.32331">
        <ele>170.29</ele>
        <time>2020-01-12T12:51:01Z</time>
      </trkpt>
      <trkpt lat="43.52687" lon="5.32328">
        <ele>170.29</ele>
        <time>2020-01-12T12:51:03Z</time>
      </trkpt>
      <trkpt lat="43.52685" lon="5.32324">
        <ele>170.29</ele>
        <time>2020-01-12T12:51:07Z</time>
      </trkpt>
      <trkpt lat="43.52678" lon="5.32311">
        <ele>169.81</ele>
        <time>2020-01-12T12:51:18Z</time>
      </trkpt>
      <trkpt lat="43.52677" lon="5.32308">
        <ele>168.85</ele>
        <time>2020-01-12T12:51:21Z</time>
      </trkpt>
      <trkpt lat="43.52672" lon="5.32298">
        <ele>167.89</ele>
        <time>2020-01-12T12:51:29Z</time>
      </trkpt>
      <trkpt lat="43.52671" lon="5.32295">
        <ele>168.37</ele>
        <time>2020-01-12T12:51:31Z</time>
      </trkpt>
      <trkpt lat="43.52669" lon="5.32282">
        <ele>168.85</ele>
        <time>2020-01-12T12:51:40Z</time>
      </trkpt>
      <trkpt lat="43.52669" lon="5.32265">
        <ele>168.37</ele>
        <time>2020-01-12T12:51:54Z</time>
      </trkpt>
      <trkpt lat="43.52665" lon="5.3225">
        <ele>167.89</ele>
        <time>2020-01-12T12:52:07Z</time>
      </trkpt>
      <trkpt lat="43.52661" lon="5.32241">
        <ele>167.89</ele>
        <time>2020-01-12T12:52:16Z</time>
      </trkpt>
      <trkpt lat="43.5266" lon="5.32239">
        <ele>167.89</ele>
        <time>2020-01-12T12:52:18Z</time>
      </trkpt>
      <trkpt lat="43.52651" lon="5.32234">
        <ele>168.37</ele>
        <time>2020-01-12T12:52:31Z</time>
      </trkpt>
      <trkpt lat="43.52649" lon="5.32244">
        <ele>165.48</ele>
        <time>2020-01-12T12:52:40Z</time>
      </trkpt>
      <trkpt lat="43.52637" lon="5.32242">
        <ele>163.08</ele>
        <time>2020-01-12T12:52:52Z</time>
      </trkpt>
      <trkpt lat="43.52635" lon="5.32241">
        <ele>162.6</ele>
        <time>2020-01-12T12:52:54Z</time>
      </trkpt>
      <trkpt lat="43.52631" lon="5.32231">
        <ele>163.08</ele>
        <time>2020-01-12T12:53:07Z</time>
      </trkpt>
      <trkpt lat="43.52626" lon="5.32225">
        <ele>163.56</ele>
        <time>2020-01-12T12:53:16Z</time>
      </trkpt>
      <trkpt lat="43.52607" lon="5.3222">
        <ele>165</ele>
        <time>2020-01-12T12:53:29Z</time>
      </trkpt>
      <trkpt lat="43.52592" lon="5.32223">
        <ele>165.96</ele>
        <time>2020-01-12T12:53:42Z</time>
      </trkpt>
      <trkpt lat="43.52576" lon="5.32227">
        <ele>166.93</ele>
        <time>2020-01-12T12:53:55Z</time>
      </trkpt>
      <trkpt lat="43.52564" lon="5.32229">
        <ele>167.41</ele>
        <time>2020-01-12T12:54:07Z</time>
      </trkpt>
      <trkpt lat="43.52549" lon="5.32234">
        <ele>168.37</ele>
        <time>2020-01-12T12:54:20Z</time>
      </trkpt>
      <trkpt lat="43.52537" lon="5.32238">
        <ele>168.37</ele>
        <time>2020-01-12T12:54:32Z</time>
      </trkpt>
      <trkpt lat="43.52523" lon="5.32237">
        <ele>170.29</ele>
        <time>2020-01-12T12:54:44Z</time>
      </trkpt>
      <trkpt lat="43.5252" lon="5.32235">
        <ele>169.81</ele>
        <time>2020-01-12T12:54:47Z</time>
      </trkpt>
      <trkpt lat="43.52512" lon="5.3223">
        <ele>167.89</ele>
        <time>2020-01-12T12:54:55Z</time>
      </trkpt>
      <trkpt lat="43.52511" lon="5.32227">
        <ele>167.89</ele>
        <time>2020-01-12T12:54:57Z</time>
      </trkpt>
      <trkpt lat="43.52501" lon="5.3222">
        <ele>165.96</ele>
        <time>2020-01-12T12:55:08Z</time>
      </trkpt>
      <trkpt lat="43.5249" lon="5.32213">
        <ele>166.45</ele>
        <time>2020-01-12T12:55:20Z</time>
      </trkpt>
      <trkpt lat="43.52487" lon="5.32209">
        <ele>165.48</ele>
        <time>2020-01-12T12:55:25Z</time>
      </trkpt>
      <trkpt lat="43.52475" lon="5.32201">
        <ele>163.08</ele>
        <time>2020-01-12T12:55:38Z</time>
      </trkpt>
      <trkpt lat="43.52462" lon="5.32193">
        <ele>162.6</ele>
        <time>2020-01-12T12:55:50Z</time>
      </trkpt>
      <trkpt lat="43.52454" lon="5.32187">
        <ele>163.08</ele>
        <time>2020-01-12T12:55:59Z</time>
      </trkpt>
      <trkpt lat="43.52448" lon="5.3218">
        <ele>164.04</ele>
        <time>2020-01-12T12:56:06Z</time>
      </trkpt>
      <trkpt lat="43.52443" lon="5.32174">
        <ele>164.52</ele>
        <time>2020-01-12T12:56:13Z</time>
      </trkpt>
      <trkpt lat="43.52442" lon="5.32171">
        <ele>165</ele>
        <time>2020-01-12T12:56:15Z</time>
      </trkpt>
      <trkpt lat="43.52438" lon="5.32164">
        <ele>164.52</ele>
        <time>2020-01-12T12:56:21Z</time>
      </trkpt>
      <trkpt lat="43.52436" lon="5.32161">
        <ele>165</ele>
        <time>2020-01-12T12:56:24Z</time>
      </trkpt>
      <trkpt lat="43.52434" lon="5.32155">
        <ele>165</ele>
        <time>2020-01-12T12:56:28Z</time>
      </trkpt>
      <trkpt lat="43.52431" lon="5.32139">
        <ele>164.52</ele>
        <time>2020-01-12T12:56:40Z</time>
      </trkpt>
      <trkpt lat="43.52431" lon="5.32124">
        <ele>164.52</ele>
        <time>2020-01-12T12:56:51Z</time>
      </trkpt>
      <trkpt lat="43.52431" lon="5.3212">
        <ele>164.04</ele>
        <time>2020-01-12T12:56:54Z</time>
      </trkpt>
      <trkpt lat="43.52431" lon="5.32114">
        <ele>163.56</ele>
        <time>2020-01-12T12:56:58Z</time>
      </trkpt>
      <trkpt lat="43.52432" lon="5.32112">
        <ele>163.56</ele>
        <time>2020-01-12T12:57:00Z</time>
      </trkpt>
      <trkpt lat="43.52432" lon="5.32105">
        <ele>163.56</ele>
        <time>2020-01-12T12:57:05Z</time>
      </trkpt>
      <trkpt lat="43.52433" lon="5.32099">
        <ele>163.56</ele>
        <time>2020-01-12T12:57:09Z</time>
      </trkpt>
      <trkpt lat="43.52435" lon="5.32093">
        <ele>164.04</ele>
        <time>2020-01-12T12:57:13Z</time>
      </trkpt>
      <trkpt lat="43.52436" lon="5.3209">
        <ele>165</ele>
        <time>2020-01-12T12:57:16Z</time>
      </trkpt>
      <trkpt lat="43.5244" lon="5.3207">
        <ele>167.41</ele>
        <time>2020-01-12T12:57:32Z</time>
      </trkpt>
      <trkpt lat="43.52439" lon="5.32063">
        <ele>167.89</ele>
        <time>2020-01-12T12:57:38Z</time>
      </trkpt>
      <trkpt lat="43.52442" lon="5.32054">
        <ele>168.37</ele>
        <time>2020-01-12T12:57:45Z</time>
      </trkpt>
      <trkpt lat="43.52446" lon="5.32036">
        <ele>170.77</ele>
        <time>2020-01-12T12:57:57Z</time>
      </trkpt>
      <trkpt lat="43.52449" lon="5.32019">
        <ele>174.14</ele>
        <time>2020-01-12T12:58:11Z</time>
      </trkpt>
      <trkpt lat="43.5245" lon="5.32012">
        <ele>174.62</ele>
        <time>2020-01-12T12:58:16Z</time>
      </trkpt>
      <trkpt lat="43.52451" lon="5.32001">
        <ele>174.62</ele>
        <time>2020-01-12T12:58:24Z</time>
      </trkpt>
      <trkpt lat="43.52451" lon="5.31991">
        <ele>174.14</ele>
        <time>2020-01-12T12:58:34Z</time>
      </trkpt>
      <trkpt lat="43.52453" lon="5.31978">
        <ele>174.62</ele>
        <time>2020-01-12T12:58:47Z</time>
      </trkpt>
      <trkpt lat="43.52453" lon="5.31977">
        <ele>174.62</ele>
        <time>2020-01-12T12:58:48Z</time>
      </trkpt>
      <trkpt lat="43.52457" lon="5.31953">
        <ele>178.46</ele>
        <time>2020-01-12T12:59:00Z</time>
      </trkpt>
      <trkpt lat="43.52456" lon="5.31935">
        <ele>178.94</ele>
        <time>2020-01-12T12:59:13Z</time>
      </trkpt>
      <trkpt lat="43.52454" lon="5.31925">
        <ele>176.06</ele>
        <time>2020-01-12T12:59:22Z</time>
      </trkpt>
      <trkpt lat="43.52447" lon="5.3191">
        <ele>174.14</ele>
        <time>2020-01-12T12:59:33Z</time>
      </trkpt>
      <trkpt lat="43.52438" lon="5.31896">
        <ele>170.29</ele>
        <time>2020-01-12T12:59:44Z</time>
      </trkpt>
      <trkpt lat="43.5243" lon="5.31892">
        <ele>166.45</ele>
        <time>2020-01-12T12:59:54Z</time>
      </trkpt>
      <trkpt lat="43.52411" lon="5.31889">
        <ele>167.89</ele>
        <time>2020-01-12T13:00:06Z</time>
      </trkpt>
      <trkpt lat="43.52398" lon="5.31877">
        <ele>168.37</ele>
        <time>2020-01-12T13:00:20Z</time>
      </trkpt>
      <trkpt lat="43.524" lon="5.3186">
        <ele>164.04</ele>
        <time>2020-01-12T13:00:33Z</time>
      </trkpt>
      <trkpt lat="43.52408" lon="5.31843">
        <ele>163.08</ele>
        <time>2020-01-12T13:00:47Z</time>
      </trkpt>
      <trkpt lat="43.5241" lon="5.31832">
        <ele>162.12</ele>
        <time>2020-01-12T13:00:56Z</time>
      </trkpt>
      <trkpt lat="43.52407" lon="5.31814">
        <ele>161.64</ele>
        <time>2020-01-12T13:01:07Z</time>
      </trkpt>
      <trkpt lat="43.52404" lon="5.3181">
        <ele>162.12</ele>
        <time>2020-01-12T13:01:11Z</time>
      </trkpt>
      <trkpt lat="43.52393" lon="5.31791">
        <ele>166.93</ele>
        <time>2020-01-12T13:01:25Z</time>
      </trkpt>
      <trkpt lat="43.52389" lon="5.31778">
        <ele>167.41</ele>
        <time>2020-01-12T13:01:37Z</time>
      </trkpt>
      <trkpt lat="43.52381" lon="5.31764">
        <ele>169.81</ele>
        <time>2020-01-12T13:01:49Z</time>
      </trkpt>
      <trkpt lat="43.5238" lon="5.31763">
        <ele>169.81</ele>
        <time>2020-01-12T13:01:50Z</time>
      </trkpt>
      <trkpt lat="43.52367" lon="5.31749">
        <ele>167.41</ele>
        <time>2020-01-12T13:02:03Z</time>
      </trkpt>
      <trkpt lat="43.52356" lon="5.31733">
        <ele>165</ele>
        <time>2020-01-12T13:02:17Z</time>
      </trkpt>
      <trkpt lat="43.52354" lon="5.31715">
        <ele>163.08</ele>
        <time>2020-01-12T13:02:28Z</time>
      </trkpt>
      <trkpt lat="43.52355" lon="5.31714">
        <ele>161.64</ele>
        <time>2020-01-12T13:02:41Z</time>
      </trkpt>
      <trkpt lat="43.5235" lon="5.31709">
        <ele>159.72</ele>
        <time>2020-01-12T13:02:55Z</time>
      </trkpt>
      <trkpt lat="43.52339" lon="5.31713">
        <ele>159.72</ele>
        <time>2020-01-12T13:03:18Z</time>
      </trkpt>
      <trkpt lat="43.52336" lon="5.31718">
        <ele>161.16</ele>
        <time>2020-01-12T13:03:24Z</time>
      </trkpt>
      <trkpt lat="43.52328" lon="5.3172">
        <ele>161.64</ele>
        <time>2020-01-12T13:03:34Z</time>
      </trkpt>
      <trkpt lat="43.5232" lon="5.31721">
        <ele>162.12</ele>
        <time>2020-01-12T13:03:41Z</time>
      </trkpt>
      <trkpt lat="43.52306" lon="5.31724">
        <ele>163.56</ele>
        <time>2020-01-12T13:03:54Z</time>
      </trkpt>
      <trkpt lat="43.52296" lon="5.31733">
        <ele>166.45</ele>
        <time>2020-01-12T13:04:07Z</time>
      </trkpt>
      <trkpt lat="43.52295" lon="5.31733">
        <ele>166.93</ele>
        <time>2020-01-12T13:04:08Z</time>
      </trkpt>
      <trkpt lat="43.52279" lon="5.31733">
        <ele>171.73</ele>
        <time>2020-01-12T13:04:22Z</time>
      </trkpt>
      <trkpt lat="43.52266" lon="5.31726">
        <ele>170.29</ele>
        <time>2020-01-12T13:04:34Z</time>
      </trkpt>
      <trkpt lat="43.52265" lon="5.31725">
        <ele>169.81</ele>
        <time>2020-01-12T13:04:35Z</time>
      </trkpt>
      <trkpt lat="43.52261" lon="5.31712">
        <ele>166.45</ele>
        <time>2020-01-12T13:04:43Z</time>
      </trkpt>
      <trkpt lat="43.52254" lon="5.31696">
        <ele>163.56</ele>
        <time>2020-01-12T13:04:56Z</time>
      </trkpt>
      <trkpt lat="43.52243" lon="5.31682">
        <ele>163.08</ele>
        <time>2020-01-12T13:05:11Z</time>
      </trkpt>
      <trkpt lat="43.52235" lon="5.31678">
        <ele>164.52</ele>
        <time>2020-01-12T13:05:19Z</time>
      </trkpt>
      <trkpt lat="43.52217" lon="5.31673">
        <ele>165</ele>
        <time>2020-01-12T13:05:32Z</time>
      </trkpt>
      <trkpt lat="43.52201" lon="5.31672">
        <ele>164.04</ele>
        <time>2020-01-12T13:05:46Z</time>
      </trkpt>
      <trkpt lat="43.52191" lon="5.31675">
        <ele>163.08</ele>
        <time>2020-01-12T13:05:56Z</time>
      </trkpt>
      <trkpt lat="43.52178" lon="5.31677">
        <ele>162.6</ele>
        <time>2020-01-12T13:06:08Z</time>
      </trkpt>
      <trkpt lat="43.52177" lon="5.31677">
        <ele>162.6</ele>
        <time>2020-01-12T13:06:09Z</time>
      </trkpt>
      <trkpt lat="43.52171" lon="5.31679">
        <ele>162.6</ele>
        <time>2020-01-12T13:06:15Z</time>
      </trkpt>
      <trkpt lat="43.52155" lon="5.31682">
        <ele>165</ele>
        <time>2020-01-12T13:06:30Z</time>
      </trkpt>
      <trkpt lat="43.5215" lon="5.31681">
        <ele>164.52</ele>
        <time>2020-01-12T13:06:36Z</time>
      </trkpt>
      <trkpt lat="43.52142" lon="5.31672">
        <ele>163.56</ele>
        <time>2020-01-12T13:06:48Z</time>
      </trkpt>
      <trkpt lat="43.52139" lon="5.31661">
        <ele>163.08</ele>
        <time>2020-01-12T13:06:57Z</time>
      </trkpt>
      <trkpt lat="43.52135" lon="5.31645">
        <ele>163.08</ele>
        <time>2020-01-12T13:07:10Z</time>
      </trkpt>
      <trkpt lat="43.52135" lon="5.31639">
        <ele>162.6</ele>
        <time>2020-01-12T13:07:24Z</time>
      </trkpt>
      <trkpt lat="43.52132" lon="5.31626">
        <ele>162.6</ele>
        <time>2020-01-12T13:07:36Z</time>
      </trkpt>
      <trkpt lat="43.52132" lon="5.31621">
        <ele>161.64</ele>
        <time>2020-01-12T13:07:40Z</time>
      </trkpt>
      <trkpt lat="43.52137" lon="5.31605">
        <ele>162.12</ele>
        <time>2020-01-12T13:07:55Z</time>
      </trkpt>
      <trkpt lat="43.52141" lon="5.31585">
        <ele>163.08</ele>
        <time>2020-01-12T13:08:11Z</time>
      </trkpt>
      <trkpt lat="43.52138" lon="5.31568">
        <ele>162.12</ele>
        <time>2020-01-12T13:08:25Z</time>
      </trkpt>
      <trkpt lat="43.52137" lon="5.31567">
        <ele>161.16</ele>
        <time>2020-01-12T13:08:36Z</time>
      </trkpt>
      <trkpt lat="43.52139" lon="5.31564">
        <ele>162.12</ele>
        <time>2020-01-12T13:09:01Z</time>
      </trkpt>
      <trkpt lat="43.52141" lon="5.31553">
        <ele>165.48</ele>
        <time>2020-01-12T13:09:15Z</time>
      </trkpt>
      <trkpt lat="43.52141" lon="5.31549">
        <ele>166.93</ele>
        <time>2020-01-12T13:09:19Z</time>
      </trkpt>
      <trkpt lat="43.52138" lon="5.31541">
        <ele>167.89</ele>
        <time>2020-01-12T13:09:26Z</time>
      </trkpt>
      <trkpt lat="43.52135" lon="5.31535">
        <ele>169.81</ele>
        <time>2020-01-12T13:09:40Z</time>
      </trkpt>
      <trkpt lat="43.52131" lon="5.31531">
        <ele>169.33</ele>
        <time>2020-01-12T13:09:51Z</time>
      </trkpt>
      <trkpt lat="43.52118" lon="5.31528">
        <ele>168.37</ele>
        <time>2020-01-12T13:10:04Z</time>
      </trkpt>
      <trkpt lat="43.52106" lon="5.31524">
        <ele>167.41</ele>
        <time>2020-01-12T13:10:17Z</time>
      </trkpt>
      <trkpt lat="43.521" lon="5.31521">
        <ele>168.85</ele>
        <time>2020-01-12T13:10:30Z</time>
      </trkpt>
      <trkpt lat="43.52087" lon="5.3152">
        <ele>170.77</ele>
        <time>2020-01-12T13:10:44Z</time>
      </trkpt>
      <trkpt lat="43.52079" lon="5.31516">
        <ele>171.73</ele>
        <time>2020-01-12T13:10:57Z</time>
      </trkpt>
      <trkpt lat="43.5208" lon="5.31516">
        <ele>169.33</ele>
        <time>2020-01-12T13:11:20Z</time>
      </trkpt>
      <trkpt lat="43.52079" lon="5.31516">
        <ele>168.85</ele>
        <time>2020-01-12T13:11:43Z</time>
      </trkpt>
      <trkpt lat="43.52074" lon="5.31514">
        <ele>170.29</ele>
        <time>2020-01-12T13:11:56Z</time>
      </trkpt>
      <trkpt lat="43.52065" lon="5.31511">
        <ele>171.73</ele>
        <time>2020-01-12T13:12:10Z</time>
      </trkpt>
      <trkpt lat="43.52055" lon="5.31509">
        <ele>176.06</ele>
        <time>2020-01-12T13:12:22Z</time>
      </trkpt>
      <trkpt lat="43.52052" lon="5.31508">
        <ele>177.5</ele>
        <time>2020-01-12T13:12:33Z</time>
      </trkpt>
      <trkpt lat="43.52047" lon="5.31502">
        <ele>181.35</ele>
        <time>2020-01-12T13:12:49Z</time>
      </trkpt>
      <trkpt lat="43.52043" lon="5.31498">
        <ele>182.79</ele>
        <time>2020-01-12T13:13:02Z</time>
      </trkpt>
      <trkpt lat="43.5204" lon="5.31494">
        <ele>184.71</ele>
        <time>2020-01-12T13:13:12Z</time>
      </trkpt>
      <trkpt lat="43.52038" lon="5.31491">
        <ele>186.15</ele>
        <time>2020-01-12T13:13:16Z</time>
      </trkpt>
      <trkpt lat="43.52034" lon="5.31491">
        <ele>186.15</ele>
        <time>2020-01-12T13:13:30Z</time>
      </trkpt>
      <trkpt lat="43.52032" lon="5.3149">
        <ele>184.23</ele>
        <time>2020-01-12T13:14:06Z</time>
      </trkpt>
      <trkpt lat="43.52034" lon="5.31493">
        <ele>184.71</ele>
        <time>2020-01-12T13:14:43Z</time>
      </trkpt>
      <trkpt lat="43.52034" lon="5.31493">
        <ele>184.71</ele>
        <time>2020-01-12T13:15:06Z</time>
      </trkpt>
      <trkpt lat="43.52034" lon="5.31492">
        <ele>186.63</ele>
        <time>2020-01-12T13:15:43Z</time>
      </trkpt>
      <trkpt lat="43.52032" lon="5.31487">
        <ele>185.19</ele>
        <time>2020-01-12T13:16:01Z</time>
      </trkpt>
      <trkpt lat="43.52028" lon="5.31477">
        <ele>185.67</ele>
        <time>2020-01-12T13:16:13Z</time>
      </trkpt>
      <trkpt lat="43.52021" lon="5.31469">
        <ele>186.15</ele>
        <time>2020-01-12T13:16:25Z</time>
      </trkpt>
      <trkpt lat="43.52012" lon="5.31466">
        <ele>186.63</ele>
        <time>2020-01-12T13:16:40Z</time>
      </trkpt>
      <trkpt lat="43.52007" lon="5.31468">
        <ele>186.63</ele>
        <time>2020-01-12T13:16:53Z</time>
      </trkpt>
      <trkpt lat="43.52001" lon="5.3147">
        <ele>187.11</ele>
        <time>2020-01-12T13:17:06Z</time>
      </trkpt>
      <trkpt lat="43.52" lon="5.31469">
        <ele>186.15</ele>
        <time>2020-01-12T13:17:24Z</time>
      </trkpt>
      <trkpt lat="43.51998" lon="5.31468">
        <ele>186.63</ele>
        <time>2020-01-12T13:17:38Z</time>
      </trkpt>
      <trkpt lat="43.51997" lon="5.31465">
        <ele>187.11</ele>
        <time>2020-01-12T13:17:41Z</time>
      </trkpt>
      <trkpt lat="43.51995" lon="5.31458">
        <ele>187.59</ele>
        <time>2020-01-12T13:17:48Z</time>
      </trkpt>
      <trkpt lat="43.51985" lon="5.31452">
        <ele>188.08</ele>
        <time>2020-01-12T13:17:59Z</time>
      </trkpt>
      <trkpt lat="43.51977" lon="5.31448">
        <ele>189.04</ele>
        <time>2020-01-12T13:18:13Z</time>
      </trkpt>
      <trkpt lat="43.51965" lon="5.31446">
        <ele>189.04</ele>
        <time>2020-01-12T13:18:26Z</time>
      </trkpt>
      <trkpt lat="43.51964" lon="5.31446">
        <ele>189.52</ele>
        <time>2020-01-12T13:18:28Z</time>
      </trkpt>
      <trkpt lat="43.51953" lon="5.31435">
        <ele>190</ele>
        <time>2020-01-12T13:18:40Z</time>
      </trkpt>
      <trkpt lat="43.51941" lon="5.31433">
        <ele>189.52</ele>
        <time>2020-01-12T13:18:51Z</time>
      </trkpt>
      <trkpt lat="43.51932" lon="5.31438">
        <ele>189.52</ele>
        <time>2020-01-12T13:19:06Z</time>
      </trkpt>
      <trkpt lat="43.51921" lon="5.3144">
        <ele>190</ele>
        <time>2020-01-12T13:19:19Z</time>
      </trkpt>
      <trkpt lat="43.51909" lon="5.31434">
        <ele>189.52</ele>
        <time>2020-01-12T13:19:33Z</time>
      </trkpt>
      <trkpt lat="43.51905" lon="5.3143">
        <ele>189.04</ele>
        <time>2020-01-12T13:19:40Z</time>
      </trkpt>
      <trkpt lat="43.51902" lon="5.31425">
        <ele>188.08</ele>
        <time>2020-01-12T13:19:46Z</time>
      </trkpt>
      <trkpt lat="43.51895" lon="5.31411">
        <ele>186.15</ele>
        <time>2020-01-12T13:20:00Z</time>
      </trkpt>
      <trkpt lat="43.51888" lon="5.314">
        <ele>185.19</ele>
        <time>2020-01-12T13:20:13Z</time>
      </trkpt>
      <trkpt lat="43.51883" lon="5.31407">
        <ele>184.23</ele>
        <time>2020-01-12T13:20:28Z</time>
      </trkpt>
      <trkpt lat="43.51876" lon="5.31421">
        <ele>182.31</ele>
        <time>2020-01-12T13:20:41Z</time>
      </trkpt>
      <trkpt lat="43.51873" lon="5.31423">
        <ele>182.31</ele>
        <time>2020-01-12T13:20:54Z</time>
      </trkpt>
      <trkpt lat="43.51877" lon="5.31423">
        <ele>182.31</ele>
        <time>2020-01-12T13:21:16Z</time>
      </trkpt>
      <trkpt lat="43.51877" lon="5.31422">
        <ele>182.79</ele>
        <time>2020-01-12T13:21:19Z</time>
      </trkpt>
      <trkpt lat="43.51882" lon="5.31418">
        <ele>182.31</ele>
        <time>2020-01-12T13:21:26Z</time>
      </trkpt>
      <trkpt lat="43.51887" lon="5.31406">
        <ele>182.79</ele>
        <time>2020-01-12T13:21:38Z</time>
      </trkpt>
      <trkpt lat="43.51888" lon="5.31397">
        <ele>184.71</ele>
        <time>2020-01-12T13:21:50Z</time>
      </trkpt>
      <trkpt lat="43.51882" lon="5.31392">
        <ele>184.23</ele>
        <time>2020-01-12T13:21:59Z</time>
      </trkpt>
      <trkpt lat="43.51876" lon="5.31388">
        <ele>183.75</ele>
        <time>2020-01-12T13:22:13Z</time>
      </trkpt>
      <trkpt lat="43.51871" lon="5.31382">
        <ele>184.23</ele>
        <time>2020-01-12T13:22:23Z</time>
      </trkpt>
      <trkpt lat="43.51866" lon="5.31375">
        <ele>184.71</ele>
        <time>2020-01-12T13:22:31Z</time>
      </trkpt>
      <trkpt lat="43.51865" lon="5.31372">
        <ele>184.71</ele>
        <time>2020-01-12T13:22:34Z</time>
      </trkpt>
      <trkpt lat="43.51858" lon="5.31366">
        <ele>184.71</ele>
        <time>2020-01-12T13:22:43Z</time>
      </trkpt>
      <trkpt lat="43.51854" lon="5.31353">
        <ele>184.23</ele>
        <time>2020-01-12T13:22:58Z</time>
      </trkpt>
      <trkpt lat="43.5185" lon="5.3135">
        <ele>183.27</ele>
        <time>2020-01-12T13:23:12Z</time>
      </trkpt>
      <trkpt lat="43.51847" lon="5.31343">
        <ele>183.27</ele>
        <time>2020-01-12T13:23:23Z</time>
      </trkpt>
      <trkpt lat="43.51847" lon="5.31335">
        <ele>182.79</ele>
        <time>2020-01-12T13:23:32Z</time>
      </trkpt>
      <trkpt lat="43.51848" lon="5.31319">
        <ele>184.23</ele>
        <time>2020-01-12T13:23:48Z</time>
      </trkpt>
      <trkpt lat="43.51849" lon="5.31317">
        <ele>185.19</ele>
        <time>2020-01-12T13:24:02Z</time>
      </trkpt>
      <trkpt lat="43.51848" lon="5.31315">
        <ele>187.11</ele>
        <time>2020-01-12T13:24:24Z</time>
      </trkpt>
      <trkpt lat="43.51851" lon="5.31316">
        <ele>185.67</ele>
        <time>2020-01-12T13:24:38Z</time>
      </trkpt>
      <trkpt lat="43.51853" lon="5.31314">
        <ele>185.67</ele>
        <time>2020-01-12T13:24:40Z</time>
      </trkpt>
      <trkpt lat="43.51854" lon="5.31311">
        <ele>185.67</ele>
        <time>2020-01-12T13:24:43Z</time>
      </trkpt>
      <trkpt lat="43.51859" lon="5.31294">
        <ele>185.67</ele>
        <time>2020-01-12T13:24:57Z</time>
      </trkpt>
      <trkpt lat="43.51854" lon="5.31286">
        <ele>184.71</ele>
        <time>2020-01-12T13:25:05Z</time>
      </trkpt>
      <trkpt lat="43.51853" lon="5.31283">
        <ele>184.71</ele>
        <time>2020-01-12T13:25:07Z</time>
      </trkpt>
      <trkpt lat="43.51845" lon="5.31272">
        <ele>184.23</ele>
        <time>2020-01-12T13:25:22Z</time>
      </trkpt>
      <trkpt lat="43.51844" lon="5.3127">
        <ele>184.23</ele>
        <time>2020-01-12T13:25:40Z</time>
      </trkpt>
      <trkpt lat="43.51845" lon="5.31271">
        <ele>184.23</ele>
        <time>2020-01-12T13:25:52Z</time>
      </trkpt>
      <trkpt lat="43.51847" lon="5.31273">
        <ele>183.75</ele>
        <time>2020-01-12T13:26:11Z</time>
      </trkpt>
      <trkpt lat="43.51846" lon="5.3127">
        <ele>183.75</ele>
        <time>2020-01-12T13:26:43Z</time>
      </trkpt>
      <trkpt lat="43.51847" lon="5.31271">
        <ele>183.75</ele>
        <time>2020-01-12T13:27:10Z</time>
      </trkpt>
      <trkpt lat="43.51846" lon="5.3127">
        <ele>184.23</ele>
        <time>2020-01-12T13:27:36Z</time>
      </trkpt>
      <trkpt lat="43.51845" lon="5.31269">
        <ele>185.67</ele>
        <time>2020-01-12T13:28:00Z</time>
      </trkpt>
      <trkpt lat="43.51845" lon="5.31269">
        <ele>185.19</ele>
        <time>2020-01-12T13:28:32Z</time>
      </trkpt>
      <trkpt lat="43.51845" lon="5.31269">
        <ele>184.71</ele>
        <time>2020-01-12T13:28:56Z</time>
      </trkpt>
      <trkpt lat="43.51847" lon="5.31268">
        <ele>182.79</ele>
        <time>2020-01-12T13:29:20Z</time>
      </trkpt>
      <trkpt lat="43.51846" lon="5.31268">
        <ele>178.94</ele>
        <time>2020-01-12T13:29:48Z</time>
      </trkpt>
      <trkpt lat="43.51848" lon="5.31269">
        <ele>180.87</ele>
        <time>2020-01-12T13:30:04Z</time>
      </trkpt>
      <trkpt lat="43.51845" lon="5.31268">
        <ele>182.79</ele>
        <time>2020-01-12T13:30:27Z</time>
      </trkpt>
      <trkpt lat="43.51847" lon="5.31272">
        <ele>183.27</ele>
        <time>2020-01-12T13:30:44Z</time>
      </trkpt>
      <trkpt lat="43.5185" lon="5.31278">
        <ele>183.75</ele>
        <time>2020-01-12T13:30:51Z</time>
      </trkpt>
      <trkpt lat="43.51857" lon="5.31288">
        <ele>185.67</ele>
        <time>2020-01-12T13:31:06Z</time>
      </trkpt>
      <trkpt lat="43.51862" lon="5.31294">
        <ele>186.15</ele>
        <time>2020-01-12T13:31:19Z</time>
      </trkpt>
      <trkpt lat="43.51862" lon="5.31303">
        <ele>186.63</ele>
        <time>2020-01-12T13:31:31Z</time>
      </trkpt>
      <trkpt lat="43.51862" lon="5.31304">
        <ele>186.63</ele>
        <time>2020-01-12T13:31:33Z</time>
      </trkpt>
      <trkpt lat="43.5186" lon="5.31306">
        <ele>185.67</ele>
        <time>2020-01-12T13:31:39Z</time>
      </trkpt>
      <trkpt lat="43.51858" lon="5.31305">
        <ele>185.67</ele>
        <time>2020-01-12T13:31:41Z</time>
      </trkpt>
      <trkpt lat="43.51856" lon="5.31305">
        <ele>185.67</ele>
        <time>2020-01-12T13:31:43Z</time>
      </trkpt>
      <trkpt lat="43.51853" lon="5.31306">
        <ele>185.67</ele>
        <time>2020-01-12T13:31:46Z</time>
      </trkpt>
      <trkpt lat="43.51852" lon="5.31313">
        <ele>184.71</ele>
        <time>2020-01-12T13:31:50Z</time>
      </trkpt>
      <trkpt lat="43.51855" lon="5.31324">
        <ele>185.19</ele>
        <time>2020-01-12T13:32:04Z</time>
      </trkpt>
      <trkpt lat="43.51857" lon="5.31328">
        <ele>185.19</ele>
        <time>2020-01-12T13:32:11Z</time>
      </trkpt>
      <trkpt lat="43.51861" lon="5.31331">
        <ele>184.71</ele>
        <time>2020-01-12T13:32:23Z</time>
      </trkpt>
      <trkpt lat="43.51874" lon="5.31337">
        <ele>185.19</ele>
        <time>2020-01-12T13:32:37Z</time>
      </trkpt>
      <trkpt lat="43.51881" lon="5.31338">
        <ele>186.15</ele>
        <time>2020-01-12T13:32:44Z</time>
      </trkpt>
      <trkpt lat="43.51893" lon="5.31339">
        <ele>186.63</ele>
        <time>2020-01-12T13:32:57Z</time>
      </trkpt>
      <trkpt lat="43.51906" lon="5.31339">
        <ele>187.59</ele>
        <time>2020-01-12T13:33:10Z</time>
      </trkpt>
      <trkpt lat="43.51918" lon="5.31343">
        <ele>188.08</ele>
        <time>2020-01-12T13:33:22Z</time>
      </trkpt>
      <trkpt lat="43.51921" lon="5.31344">
        <ele>187.59</ele>
        <time>2020-01-12T13:33:25Z</time>
      </trkpt>
      <trkpt lat="43.51935" lon="5.31352">
        <ele>187.11</ele>
        <time>2020-01-12T13:33:40Z</time>
      </trkpt>
      <trkpt lat="43.51938" lon="5.31353">
        <ele>187.59</ele>
        <time>2020-01-12T13:33:43Z</time>
      </trkpt>
      <trkpt lat="43.5195" lon="5.31357">
        <ele>187.59</ele>
        <time>2020-01-12T13:33:55Z</time>
      </trkpt>
      <trkpt lat="43.51962" lon="5.31362">
        <ele>187.59</ele>
        <time>2020-01-12T13:34:08Z</time>
      </trkpt>
      <trkpt lat="43.5197" lon="5.31372">
        <ele>187.59</ele>
        <time>2020-01-12T13:34:19Z</time>
      </trkpt>
      <trkpt lat="43.51978" lon="5.31381">
        <ele>187.11</ele>
        <time>2020-01-12T13:34:31Z</time>
      </trkpt>
      <trkpt lat="43.51983" lon="5.31384">
        <ele>186.63</ele>
        <time>2020-01-12T13:34:45Z</time>
      </trkpt>
      <trkpt lat="43.51985" lon="5.31387">
        <ele>187.11</ele>
        <time>2020-01-12T13:35:04Z</time>
      </trkpt>
      <trkpt lat="43.51992" lon="5.31394">
        <ele>187.11</ele>
        <time>2020-01-12T13:35:15Z</time>
      </trkpt>
      <trkpt lat="43.51996" lon="5.31395">
        <ele>187.11</ele>
        <time>2020-01-12T13:35:19Z</time>
      </trkpt>
      <trkpt lat="43.52004" lon="5.31392">
        <ele>187.11</ele>
        <time>2020-01-12T13:35:28Z</time>
      </trkpt>
      <trkpt lat="43.52013" lon="5.31381">
        <ele>187.11</ele>
        <time>2020-01-12T13:35:40Z</time>
      </trkpt>
      <trkpt lat="43.52026" lon="5.31373">
        <ele>186.63</ele>
        <time>2020-01-12T13:35:55Z</time>
      </trkpt>
      <trkpt lat="43.52036" lon="5.31366">
        <ele>187.59</ele>
        <time>2020-01-12T13:36:08Z</time>
      </trkpt>
      <trkpt lat="43.5204" lon="5.31365">
        <ele>188.08</ele>
        <time>2020-01-12T13:36:13Z</time>
      </trkpt>
      <trkpt lat="43.52049" lon="5.31364">
        <ele>189.04</ele>
        <time>2020-01-12T13:36:28Z</time>
      </trkpt>
      <trkpt lat="43.52052" lon="5.31363">
        <ele>188.56</ele>
        <time>2020-01-12T13:37:04Z</time>
      </trkpt>
      <trkpt lat="43.52056" lon="5.31363">
        <ele>187.59</ele>
        <time>2020-01-12T13:37:12Z</time>
      </trkpt>
      <trkpt lat="43.52066" lon="5.31363">
        <ele>187.11</ele>
        <time>2020-01-12T13:37:27Z</time>
      </trkpt>
      <trkpt lat="43.52073" lon="5.31362">
        <ele>187.11</ele>
        <time>2020-01-12T13:37:34Z</time>
      </trkpt>
      <trkpt lat="43.52078" lon="5.31361">
        <ele>188.56</ele>
        <time>2020-01-12T13:37:46Z</time>
      </trkpt>
      <trkpt lat="43.5208" lon="5.31362">
        <ele>190.48</ele>
        <time>2020-01-12T13:38:00Z</time>
      </trkpt>
      <trkpt lat="43.52089" lon="5.31365">
        <ele>190.96</ele>
        <time>2020-01-12T13:38:11Z</time>
      </trkpt>
      <trkpt lat="43.52093" lon="5.31364">
        <ele>190.96</ele>
        <time>2020-01-12T13:38:15Z</time>
      </trkpt>
      <trkpt lat="43.52111" lon="5.3137">
        <ele>190.96</ele>
        <time>2020-01-12T13:38:32Z</time>
      </trkpt>
      <trkpt lat="43.52117" lon="5.31373">
        <ele>189.52</ele>
        <time>2020-01-12T13:38:37Z</time>
      </trkpt>
      <trkpt lat="43.52119" lon="5.31374">
        <ele>189.52</ele>
        <time>2020-01-12T13:38:39Z</time>
      </trkpt>
      <trkpt lat="43.52133" lon="5.31376">
        <ele>191.44</ele>
        <time>2020-01-12T13:38:55Z</time>
      </trkpt>
      <trkpt lat="43.52143" lon="5.31367">
        <ele>192.4</ele>
        <time>2020-01-12T13:39:07Z</time>
      </trkpt>
      <trkpt lat="43.52155" lon="5.3136">
        <ele>192.4</ele>
        <time>2020-01-12T13:39:21Z</time>
      </trkpt>
      <trkpt lat="43.52168" lon="5.31359">
        <ele>192.88</ele>
        <time>2020-01-12T13:39:35Z</time>
      </trkpt>
      <trkpt lat="43.52179" lon="5.31363">
        <ele>193.84</ele>
        <time>2020-01-12T13:39:48Z</time>
      </trkpt>
      <trkpt lat="43.5219" lon="5.31362">
        <ele>193.84</ele>
        <time>2020-01-12T13:40:00Z</time>
      </trkpt>
      <trkpt lat="43.52196" lon="5.31359">
        <ele>193.84</ele>
        <time>2020-01-12T13:40:06Z</time>
      </trkpt>
      <trkpt lat="43.5221" lon="5.31352">
        <ele>193.84</ele>
        <time>2020-01-12T13:40:20Z</time>
      </trkpt>
      <trkpt lat="43.52225" lon="5.3135">
        <ele>193.36</ele>
        <time>2020-01-12T13:40:35Z</time>
      </trkpt>
      <trkpt lat="43.52237" lon="5.31347">
        <ele>193.36</ele>
        <time>2020-01-12T13:40:47Z</time>
      </trkpt>
      <trkpt lat="43.5225" lon="5.31345">
        <ele>193.36</ele>
        <time>2020-01-12T13:40:59Z</time>
      </trkpt>
      <trkpt lat="43.52262" lon="5.31342">
        <ele>193.84</ele>
        <time>2020-01-12T13:41:11Z</time>
      </trkpt>
      <trkpt lat="43.52273" lon="5.31344">
        <ele>192.88</ele>
        <time>2020-01-12T13:41:22Z</time>
      </trkpt>
      <trkpt lat="43.52282" lon="5.31346">
        <ele>192.4</ele>
        <time>2020-01-12T13:41:31Z</time>
      </trkpt>
      <trkpt lat="43.52283" lon="5.31347">
        <ele>192.4</ele>
        <time>2020-01-12T13:41:33Z</time>
      </trkpt>
      <trkpt lat="43.52293" lon="5.31347">
        <ele>191.44</ele>
        <time>2020-01-12T13:41:44Z</time>
      </trkpt>
      <trkpt lat="43.52296" lon="5.31348">
        <ele>191.44</ele>
        <time>2020-01-12T13:41:47Z</time>
      </trkpt>
      <trkpt lat="43.52303" lon="5.31349">
        <ele>190.96</ele>
        <time>2020-01-12T13:41:55Z</time>
      </trkpt>
      <trkpt lat="43.52305" lon="5.31349">
        <ele>190.96</ele>
        <time>2020-01-12T13:41:57Z</time>
      </trkpt>
      <trkpt lat="43.52317" lon="5.31354">
        <ele>188.08</ele>
        <time>2020-01-12T13:42:11Z</time>
      </trkpt>
      <trkpt lat="43.5232" lon="5.31355">
        <ele>188.08</ele>
        <time>2020-01-12T13:42:14Z</time>
      </trkpt>
      <trkpt lat="43.52321" lon="5.31357">
        <ele>188.56</ele>
        <time>2020-01-12T13:42:17Z</time>
      </trkpt>
      <trkpt lat="43.52328" lon="5.31368">
        <ele>188.08</ele>
        <time>2020-01-12T13:42:29Z</time>
      </trkpt>
      <trkpt lat="43.52338" lon="5.31362">
        <ele>188.56</ele>
        <time>2020-01-12T13:42:42Z</time>
      </trkpt>
      <trkpt lat="43.52343" lon="5.31358">
        <ele>188.56</ele>
        <time>2020-01-12T13:42:48Z</time>
      </trkpt>
      <trkpt lat="43.52357" lon="5.31358">
        <ele>189.52</ele>
        <time>2020-01-12T13:43:02Z</time>
      </trkpt>
      <trkpt lat="43.52362" lon="5.31359">
        <ele>188.56</ele>
        <time>2020-01-12T13:43:08Z</time>
      </trkpt>
      <trkpt lat="43.52367" lon="5.3136">
        <ele>189.52</ele>
        <time>2020-01-12T13:43:14Z</time>
      </trkpt>
      <trkpt lat="43.5238" lon="5.3136">
        <ele>191.92</ele>
        <time>2020-01-12T13:43:28Z</time>
      </trkpt>
      <trkpt lat="43.52391" lon="5.31359">
        <ele>193.84</ele>
        <time>2020-01-12T13:43:42Z</time>
      </trkpt>
      <trkpt lat="43.52404" lon="5.31359">
        <ele>196.73</ele>
        <time>2020-01-12T13:43:57Z</time>
      </trkpt>
      <trkpt lat="43.52408" lon="5.31356">
        <ele>196.25</ele>
        <time>2020-01-12T13:44:12Z</time>
      </trkpt>
      <trkpt lat="43.52408" lon="5.31357">
        <ele>196.73</ele>
        <time>2020-01-12T13:44:15Z</time>
      </trkpt>
      <trkpt lat="43.52412" lon="5.31361">
        <ele>197.21</ele>
        <time>2020-01-12T13:44:29Z</time>
      </trkpt>
      <trkpt lat="43.52416" lon="5.31359">
        <ele>197.21</ele>
        <time>2020-01-12T13:44:44Z</time>
      </trkpt>
      <trkpt lat="43.52423" lon="5.31371">
        <ele>198.17</ele>
        <time>2020-01-12T13:44:58Z</time>
      </trkpt>
      <trkpt lat="43.52432" lon="5.31381">
        <ele>199.61</ele>
        <time>2020-01-12T13:45:12Z</time>
      </trkpt>
      <trkpt lat="43.52437" lon="5.31388">
        <ele>202.01</ele>
        <time>2020-01-12T13:45:20Z</time>
      </trkpt>
      <trkpt lat="43.52448" lon="5.314">
        <ele>204.42</ele>
        <time>2020-01-12T13:45:34Z</time>
      </trkpt>
      <trkpt lat="43.52462" lon="5.31406">
        <ele>206.34</ele>
        <time>2020-01-12T13:45:48Z</time>
      </trkpt>
      <trkpt lat="43.52476" lon="5.31409">
        <ele>206.34</ele>
        <time>2020-01-12T13:46:01Z</time>
      </trkpt>
      <trkpt lat="43.52486" lon="5.31409">
        <ele>206.34</ele>
        <time>2020-01-12T13:46:12Z</time>
      </trkpt>
      <trkpt lat="43.52498" lon="5.31404">
        <ele>205.86</ele>
        <time>2020-01-12T13:46:23Z</time>
      </trkpt>
      <trkpt lat="43.5251" lon="5.31399">
        <ele>205.38</ele>
        <time>2020-01-12T13:46:35Z</time>
      </trkpt>
      <trkpt lat="43.52522" lon="5.31396">
        <ele>203.94</ele>
        <time>2020-01-12T13:46:47Z</time>
      </trkpt>
      <trkpt lat="43.52534" lon="5.31392">
        <ele>203.94</ele>
        <time>2020-01-12T13:46:59Z</time>
      </trkpt>
      <trkpt lat="43.52546" lon="5.3139">
        <ele>204.42</ele>
        <time>2020-01-12T13:47:11Z</time>
      </trkpt>
      <trkpt lat="43.52552" lon="5.3139">
        <ele>204.42</ele>
        <time>2020-01-12T13:47:16Z</time>
      </trkpt>
      <trkpt lat="43.52565" lon="5.31387">
        <ele>205.38</ele>
        <time>2020-01-12T13:47:30Z</time>
      </trkpt>
      <trkpt lat="43.52569" lon="5.31386">
        <ele>205.86</ele>
        <time>2020-01-12T13:47:35Z</time>
      </trkpt>
      <trkpt lat="43.52572" lon="5.31385">
        <ele>205.86</ele>
        <time>2020-01-12T13:47:38Z</time>
      </trkpt>
      <trkpt lat="43.52576" lon="5.31381">
        <ele>205.86</ele>
        <time>2020-01-12T13:47:43Z</time>
      </trkpt>
      <trkpt lat="43.52587" lon="5.31377">
        <ele>204.9</ele>
        <time>2020-01-12T13:47:55Z</time>
      </trkpt>
      <trkpt lat="43.52598" lon="5.31372">
        <ele>205.86</ele>
        <time>2020-01-12T13:48:08Z</time>
      </trkpt>
      <trkpt lat="43.52609" lon="5.31368">
        <ele>205.86</ele>
        <time>2020-01-12T13:48:21Z</time>
      </trkpt>
      <trkpt lat="43.52619" lon="5.31366">
        <ele>205.86</ele>
        <time>2020-01-12T13:48:32Z</time>
      </trkpt>
      <trkpt lat="43.52624" lon="5.31366">
        <ele>205.38</ele>
        <time>2020-01-12T13:48:37Z</time>
      </trkpt>
      <trkpt lat="43.52628" lon="5.31364">
        <ele>205.86</ele>
        <time>2020-01-12T13:48:42Z</time>
      </trkpt>
      <trkpt lat="43.52642" lon="5.31361">
        <ele>207.3</ele>
        <time>2020-01-12T13:48:56Z</time>
      </trkpt>
      <trkpt lat="43.52655" lon="5.31357">
        <ele>207.3</ele>
        <time>2020-01-12T13:49:10Z</time>
      </trkpt>
      <trkpt lat="43.52664" lon="5.31355">
        <ele>207.3</ele>
        <time>2020-01-12T13:49:20Z</time>
      </trkpt>
      <trkpt lat="43.52669" lon="5.31352">
        <ele>207.3</ele>
        <time>2020-01-12T13:49:25Z</time>
      </trkpt>
      <trkpt lat="43.52679" lon="5.31346">
        <ele>207.78</ele>
        <time>2020-01-12T13:49:37Z</time>
      </trkpt>
      <trkpt lat="43.52693" lon="5.31345">
        <ele>207.3</ele>
        <time>2020-01-12T13:49:51Z</time>
      </trkpt>
      <trkpt lat="43.52707" lon="5.31343">
        <ele>208.74</ele>
        <time>2020-01-12T13:50:05Z</time>
      </trkpt>
      <trkpt lat="43.52719" lon="5.3134">
        <ele>209.7</ele>
        <time>2020-01-12T13:50:18Z</time>
      </trkpt>
      <trkpt lat="43.52729" lon="5.31334">
        <ele>212.11</ele>
        <time>2020-01-12T13:50:31Z</time>
      </trkpt>
      <trkpt lat="43.5274" lon="5.31331">
        <ele>214.51</ele>
        <time>2020-01-12T13:50:43Z</time>
      </trkpt>
      <trkpt lat="43.52742" lon="5.31325">
        <ele>211.63</ele>
        <time>2020-01-12T13:50:55Z</time>
      </trkpt>
      <trkpt lat="43.5275" lon="5.31325">
        <ele>210.19</ele>
        <time>2020-01-12T13:51:11Z</time>
      </trkpt>
      <trkpt lat="43.52754" lon="5.31323">
        <ele>209.7</ele>
        <time>2020-01-12T13:51:47Z</time>
      </trkpt>
      <trkpt lat="43.52765" lon="5.31321">
        <ele>206.82</ele>
        <time>2020-01-12T13:52:09Z</time>
      </trkpt>
      <trkpt lat="43.52777" lon="5.31323">
        <ele>206.82</ele>
        <time>2020-01-12T13:52:22Z</time>
      </trkpt>
      <trkpt lat="43.52788" lon="5.31324">
        <ele>207.3</ele>
        <time>2020-01-12T13:52:34Z</time>
      </trkpt>
      <trkpt lat="43.52802" lon="5.31322">
        <ele>206.82</ele>
        <time>2020-01-12T13:52:48Z</time>
      </trkpt>
      <trkpt lat="43.52814" lon="5.31322">
        <ele>205.86</ele>
        <time>2020-01-12T13:53:00Z</time>
      </trkpt>
      <trkpt lat="43.52815" lon="5.31322">
        <ele>205.38</ele>
        <time>2020-01-12T13:53:01Z</time>
      </trkpt>
      <trkpt lat="43.5283" lon="5.31318">
        <ele>206.34</ele>
        <time>2020-01-12T13:53:16Z</time>
      </trkpt>
      <trkpt lat="43.52842" lon="5.31319">
        <ele>208.74</ele>
        <time>2020-01-12T13:53:28Z</time>
      </trkpt>
      <trkpt lat="43.52859" lon="5.31319">
        <ele>206.82</ele>
        <time>2020-01-12T13:53:44Z</time>
      </trkpt>
      <trkpt lat="43.52871" lon="5.3132">
        <ele>208.74</ele>
        <time>2020-01-12T13:53:57Z</time>
      </trkpt>
      <trkpt lat="43.52886" lon="5.3132">
        <ele>211.63</ele>
        <time>2020-01-12T13:54:12Z</time>
      </trkpt>
      <trkpt lat="43.52896" lon="5.31318">
        <ele>210.19</ele>
        <time>2020-01-12T13:54:23Z</time>
      </trkpt>
      <trkpt lat="43.52909" lon="5.31315">
        <ele>209.22</ele>
        <time>2020-01-12T13:54:34Z</time>
      </trkpt>
      <trkpt lat="43.52912" lon="5.31314">
        <ele>208.74</ele>
        <time>2020-01-12T13:54:37Z</time>
      </trkpt>
      <trkpt lat="43.5292" lon="5.31306">
        <ele>209.22</ele>
        <time>2020-01-12T13:54:47Z</time>
      </trkpt>
      <trkpt lat="43.52931" lon="5.31294">
        <ele>210.19</ele>
        <time>2020-01-12T13:55:01Z</time>
      </trkpt>
      <trkpt lat="43.5294" lon="5.31285">
        <ele>211.63</ele>
        <time>2020-01-12T13:55:14Z</time>
      </trkpt>
      <trkpt lat="43.5295" lon="5.31277">
        <ele>212.11</ele>
        <time>2020-01-12T13:55:26Z</time>
      </trkpt>
      <trkpt lat="43.52962" lon="5.31269">
        <ele>210.67</ele>
        <time>2020-01-12T13:55:40Z</time>
      </trkpt>
      <trkpt lat="43.52975" lon="5.31263">
        <ele>208.26</ele>
        <time>2020-01-12T13:55:52Z</time>
      </trkpt>
      <trkpt lat="43.52984" lon="5.31255">
        <ele>210.67</ele>
        <time>2020-01-12T13:56:06Z</time>
      </trkpt>
      <trkpt lat="43.52992" lon="5.31246">
        <ele>210.19</ele>
        <time>2020-01-12T13:56:18Z</time>
      </trkpt>
      <trkpt lat="43.53003" lon="5.3123">
        <ele>211.63</ele>
        <time>2020-01-12T13:56:34Z</time>
      </trkpt>
      <trkpt lat="43.53017" lon="5.31207">
        <ele>206.34</ele>
        <time>2020-01-12T13:56:48Z</time>
      </trkpt>
      <trkpt lat="43.53027" lon="5.31203">
        <ele>202.98</ele>
        <time>2020-01-12T13:57:00Z</time>
      </trkpt>
      <trkpt lat="43.53037" lon="5.31199">
        <ele>200.09</ele>
        <time>2020-01-12T13:57:12Z</time>
      </trkpt>
      <trkpt lat="43.53042" lon="5.31193">
        <ele>198.65</ele>
        <time>2020-01-12T13:57:29Z</time>
      </trkpt>
      <trkpt lat="43.53046" lon="5.31184">
        <ele>201.53</ele>
        <time>2020-01-12T13:57:52Z</time>
      </trkpt>
      <trkpt lat="43.53049" lon="5.31183">
        <ele>202.01</ele>
        <time>2020-01-12T13:58:21Z</time>
      </trkpt>
      <trkpt lat="43.53051" lon="5.31191">
        <ele>199.13</ele>
        <time>2020-01-12T13:58:40Z</time>
      </trkpt>
      <trkpt lat="43.5306" lon="5.31192">
        <ele>197.69</ele>
        <time>2020-01-12T13:58:53Z</time>
      </trkpt>
      <trkpt lat="43.53061" lon="5.31192">
        <ele>197.69</ele>
        <time>2020-01-12T13:58:54Z</time>
      </trkpt>
      <trkpt lat="43.53069" lon="5.31183">
        <ele>198.17</ele>
        <time>2020-01-12T13:59:05Z</time>
      </trkpt>
      <trkpt lat="43.53071" lon="5.31163">
        <ele>198.65</ele>
        <time>2020-01-12T13:59:17Z</time>
      </trkpt>
      <trkpt lat="43.5307" lon="5.31148">
        <ele>195.28</ele>
        <time>2020-01-12T13:59:24Z</time>
      </trkpt>
      <trkpt lat="43.53069" lon="5.31144">
        <ele>194.8</ele>
        <time>2020-01-12T13:59:26Z</time>
      </trkpt>
      <trkpt lat="43.53068" lon="5.31141">
        <ele>193.84</ele>
        <time>2020-01-12T13:59:28Z</time>
      </trkpt>
      <trkpt lat="43.53063" lon="5.31124">
        <ele>191.92</ele>
        <time>2020-01-12T13:59:42Z</time>
      </trkpt>
      <trkpt lat="43.53059" lon="5.31105">
        <ele>190</ele>
        <time>2020-01-12T13:59:55Z</time>
      </trkpt>
      <trkpt lat="43.53055" lon="5.31089">
        <ele>190.48</ele>
        <time>2020-01-12T14:00:08Z</time>
      </trkpt>
      <trkpt lat="43.53054" lon="5.31075">
        <ele>190.96</ele>
        <time>2020-01-12T14:00:18Z</time>
      </trkpt>
      <trkpt lat="43.53054" lon="5.31072">
        <ele>190.96</ele>
        <time>2020-01-12T14:00:20Z</time>
      </trkpt>
      <trkpt lat="43.53049" lon="5.31054">
        <ele>189.52</ele>
        <time>2020-01-12T14:00:33Z</time>
      </trkpt>
      <trkpt lat="43.53048" lon="5.31042">
        <ele>188.56</ele>
        <time>2020-01-12T14:00:45Z</time>
      </trkpt>
      <trkpt lat="43.53047" lon="5.31023">
        <ele>190.96</ele>
        <time>2020-01-12T14:00:59Z</time>
      </trkpt>
      <trkpt lat="43.53048" lon="5.31006">
        <ele>190.48</ele>
        <time>2020-01-12T14:01:12Z</time>
      </trkpt>
      <trkpt lat="43.53047" lon="5.30996">
        <ele>190.96</ele>
        <time>2020-01-12T14:01:24Z</time>
      </trkpt>
      <trkpt lat="43.53041" lon="5.30986">
        <ele>191.92</ele>
        <time>2020-01-12T14:01:38Z</time>
      </trkpt>
      <trkpt lat="43.53044" lon="5.30966">
        <ele>194.8</ele>
        <time>2020-01-12T14:01:52Z</time>
      </trkpt>
      <trkpt lat="43.53045" lon="5.30961">
        <ele>195.77</ele>
        <time>2020-01-12T14:01:57Z</time>
      </trkpt>
      <trkpt lat="43.53044" lon="5.30952">
        <ele>196.25</ele>
        <time>2020-01-12T14:02:03Z</time>
      </trkpt>
      <trkpt lat="43.53049" lon="5.30936">
        <ele>194.8</ele>
        <time>2020-01-12T14:02:17Z</time>
      </trkpt>
      <trkpt lat="43.53049" lon="5.30934">
        <ele>194.8</ele>
        <time>2020-01-12T14:02:19Z</time>
      </trkpt>
      <trkpt lat="43.5305" lon="5.30916">
        <ele>193.36</ele>
        <time>2020-01-12T14:02:34Z</time>
      </trkpt>
      <trkpt lat="43.53051" lon="5.30909">
        <ele>192.88</ele>
        <time>2020-01-12T14:02:39Z</time>
      </trkpt>
      <trkpt lat="43.53052" lon="5.30904">
        <ele>192.4</ele>
        <time>2020-01-12T14:02:43Z</time>
      </trkpt>
      <trkpt lat="43.53054" lon="5.30885">
        <ele>190.96</ele>
        <time>2020-01-12T14:02:54Z</time>
      </trkpt>
      <trkpt lat="43.53051" lon="5.30864">
        <ele>190.48</ele>
        <time>2020-01-12T14:03:07Z</time>
      </trkpt>
      <trkpt lat="43.53045" lon="5.30847">
        <ele>189.04</ele>
        <time>2020-01-12T14:03:19Z</time>
      </trkpt>
      <trkpt lat="43.53035" lon="5.30831">
        <ele>186.63</ele>
        <time>2020-01-12T14:03:32Z</time>
      </trkpt>
      <trkpt lat="43.53028" lon="5.30822">
        <ele>185.67</ele>
        <time>2020-01-12T14:03:44Z</time>
      </trkpt>
      <trkpt lat="43.53019" lon="5.30808">
        <ele>184.23</ele>
        <time>2020-01-12T14:03:59Z</time>
      </trkpt>
      <trkpt lat="43.53018" lon="5.30805">
        <ele>183.75</ele>
        <time>2020-01-12T14:04:02Z</time>
      </trkpt>
      <trkpt lat="43.53014" lon="5.30799">
        <ele>183.27</ele>
        <time>2020-01-12T14:04:09Z</time>
      </trkpt>
      <trkpt lat="43.53011" lon="5.30794">
        <ele>182.31</ele>
        <time>2020-01-12T14:04:14Z</time>
      </trkpt>
      <trkpt lat="43.53009" lon="5.3078">
        <ele>180.38</ele>
        <time>2020-01-12T14:04:27Z</time>
      </trkpt>
      <trkpt lat="43.53001" lon="5.30775">
        <ele>180.38</ele>
        <time>2020-01-12T14:04:40Z</time>
      </trkpt>
      <trkpt lat="43.52993" lon="5.30766">
        <ele>180.87</ele>
        <time>2020-01-12T14:04:53Z</time>
      </trkpt>
      <trkpt lat="43.52983" lon="5.30763">
        <ele>186.63</ele>
        <time>2020-01-12T14:05:07Z</time>
      </trkpt>
      <trkpt lat="43.52975" lon="5.3076">
        <ele>193.84</ele>
        <time>2020-01-12T14:05:21Z</time>
      </trkpt>
      <trkpt lat="43.52966" lon="5.30757">
        <ele>197.21</ele>
        <time>2020-01-12T14:05:35Z</time>
      </trkpt>
      <trkpt lat="43.52956" lon="5.30751">
        <ele>202.98</ele>
        <time>2020-01-12T14:05:50Z</time>
      </trkpt>
      <trkpt lat="43.52949" lon="5.30748">
        <ele>202.01</ele>
        <time>2020-01-12T14:06:03Z</time>
      </trkpt>
      <trkpt lat="43.52952" lon="5.30741">
        <ele>202.98</ele>
        <time>2020-01-12T14:06:16Z</time>
      </trkpt>
      <trkpt lat="43.52959" lon="5.30731">
        <ele>205.38</ele>
        <time>2020-01-12T14:06:31Z</time>
      </trkpt>
      <trkpt lat="43.52966" lon="5.30719">
        <ele>206.34</ele>
        <time>2020-01-12T14:06:44Z</time>
      </trkpt>
      <trkpt lat="43.52971" lon="5.30705">
        <ele>207.78</ele>
        <time>2020-01-12T14:06:56Z</time>
      </trkpt>
      <trkpt lat="43.52979" lon="5.30689">
        <ele>207.78</ele>
        <time>2020-01-12T14:07:12Z</time>
      </trkpt>
      <trkpt lat="43.52988" lon="5.30677">
        <ele>207.3</ele>
        <time>2020-01-12T14:07:26Z</time>
      </trkpt>
      <trkpt lat="43.52997" lon="5.30668">
        <ele>211.15</ele>
        <time>2020-01-12T14:07:40Z</time>
      </trkpt>
      <trkpt lat="43.53002" lon="5.30647">
        <ele>210.19</ele>
        <time>2020-01-12T14:07:55Z</time>
      </trkpt>
      <trkpt lat="43.53003" lon="5.30644">
        <ele>210.19</ele>
        <time>2020-01-12T14:07:58Z</time>
      </trkpt>
      <trkpt lat="43.53004" lon="5.30639">
        <ele>210.19</ele>
        <time>2020-01-12T14:08:03Z</time>
      </trkpt>
      <trkpt lat="43.5301" lon="5.30626">
        <ele>211.63</ele>
        <time>2020-01-12T14:08:16Z</time>
      </trkpt>
      <trkpt lat="43.53015" lon="5.30612">
        <ele>214.03</ele>
        <time>2020-01-12T14:08:31Z</time>
      </trkpt>
      <trkpt lat="43.53019" lon="5.306">
        <ele>213.07</ele>
        <time>2020-01-12T14:08:45Z</time>
      </trkpt>
      <trkpt lat="43.53019" lon="5.30593">
        <ele>208.26</ele>
        <time>2020-01-12T14:09:00Z</time>
      </trkpt>
      <trkpt lat="43.53022" lon="5.30589">
        <ele>207.3</ele>
        <time>2020-01-12T14:09:16Z</time>
      </trkpt>
      <trkpt lat="43.53032" lon="5.30575">
        <ele>209.7</ele>
        <time>2020-01-12T14:09:30Z</time>
      </trkpt>
      <trkpt lat="43.53043" lon="5.30562">
        <ele>213.55</ele>
        <time>2020-01-12T14:09:45Z</time>
      </trkpt>
      <trkpt lat="43.53044" lon="5.30561">
        <ele>213.55</ele>
        <time>2020-01-12T14:09:46Z</time>
      </trkpt>
      <trkpt lat="43.5305" lon="5.30549">
        <ele>215.95</ele>
        <time>2020-01-12T14:09:58Z</time>
      </trkpt>
      <trkpt lat="43.5306" lon="5.3053">
        <ele>216.91</ele>
        <time>2020-01-12T14:10:14Z</time>
      </trkpt>
      <trkpt lat="43.53068" lon="5.30516">
        <ele>217.4</ele>
        <time>2020-01-12T14:10:28Z</time>
      </trkpt>
      <trkpt lat="43.53075" lon="5.30501">
        <ele>219.32</ele>
        <time>2020-01-12T14:10:42Z</time>
      </trkpt>
      <trkpt lat="43.5308" lon="5.30487">
        <ele>218.84</ele>
        <time>2020-01-12T14:10:56Z</time>
      </trkpt>
      <trkpt lat="43.53084" lon="5.30472">
        <ele>219.8</ele>
        <time>2020-01-12T14:11:08Z</time>
      </trkpt>
      <trkpt lat="43.53086" lon="5.30464">
        <ele>219.32</ele>
        <time>2020-01-12T14:11:16Z</time>
      </trkpt>
      <trkpt lat="43.53089" lon="5.30446">
        <ele>218.36</ele>
        <time>2020-01-12T14:11:29Z</time>
      </trkpt>
      <trkpt lat="43.53085" lon="5.30427">
        <ele>219.32</ele>
        <time>2020-01-12T14:11:43Z</time>
      </trkpt>
      <trkpt lat="43.53086" lon="5.30414">
        <ele>218.84</ele>
        <time>2020-01-12T14:11:53Z</time>
      </trkpt>
      <trkpt lat="43.53087" lon="5.30409">
        <ele>219.32</ele>
        <time>2020-01-12T14:11:57Z</time>
      </trkpt>
      <trkpt lat="43.53094" lon="5.30395">
        <ele>221.24</ele>
        <time>2020-01-12T14:12:12Z</time>
      </trkpt>
      <trkpt lat="43.53103" lon="5.3038">
        <ele>221.72</ele>
        <time>2020-01-12T14:12:27Z</time>
      </trkpt>
      <trkpt lat="43.53108" lon="5.30365">
        <ele>223.64</ele>
        <time>2020-01-12T14:12:40Z</time>
      </trkpt>
      <trkpt lat="43.53115" lon="5.30353">
        <ele>225.09</ele>
        <time>2020-01-12T14:12:52Z</time>
      </trkpt>
      <trkpt lat="43.53122" lon="5.30339">
        <ele>225.09</ele>
        <time>2020-01-12T14:13:04Z</time>
      </trkpt>
      <trkpt lat="43.53125" lon="5.30331">
        <ele>224.12</ele>
        <time>2020-01-12T14:13:17Z</time>
      </trkpt>
      <trkpt lat="43.53127" lon="5.30328">
        <ele>224.61</ele>
        <time>2020-01-12T14:13:20Z</time>
      </trkpt>
      <trkpt lat="43.53129" lon="5.30326">
        <ele>224.61</ele>
        <time>2020-01-12T14:13:22Z</time>
      </trkpt>
      <trkpt lat="43.53138" lon="5.30307">
        <ele>225.09</ele>
        <time>2020-01-12T14:13:37Z</time>
      </trkpt>
      <trkpt lat="43.53145" lon="5.30294">
        <ele>224.61</ele>
        <time>2020-01-12T14:13:50Z</time>
      </trkpt>
      <trkpt lat="43.53151" lon="5.3028">
        <ele>226.05</ele>
        <time>2020-01-12T14:14:04Z</time>
      </trkpt>
      <trkpt lat="43.53156" lon="5.30263">
        <ele>229.89</ele>
        <time>2020-01-12T14:14:20Z</time>
      </trkpt>
      <trkpt lat="43.53162" lon="5.30246">
        <ele>232.3</ele>
        <time>2020-01-12T14:14:34Z</time>
      </trkpt>
      <trkpt lat="43.53167" lon="5.3023">
        <ele>234.22</ele>
        <time>2020-01-12T14:14:48Z</time>
      </trkpt>
      <trkpt lat="43.53167" lon="5.30228">
        <ele>234.22</ele>
        <time>2020-01-12T14:14:50Z</time>
      </trkpt>
      <trkpt lat="43.5317" lon="5.30222">
        <ele>234.7</ele>
        <time>2020-01-12T14:14:55Z</time>
      </trkpt>
      <trkpt lat="43.53176" lon="5.302">
        <ele>235.18</ele>
        <time>2020-01-12T14:15:11Z</time>
      </trkpt>
      <trkpt lat="43.5318" lon="5.30184">
        <ele>237.1</ele>
        <time>2020-01-12T14:15:24Z</time>
      </trkpt>
      <trkpt lat="43.53183" lon="5.30168">
        <ele>237.58</ele>
        <time>2020-01-12T14:15:36Z</time>
      </trkpt>
      <trkpt lat="43.53185" lon="5.30159">
        <ele>237.58</ele>
        <time>2020-01-12T14:15:44Z</time>
      </trkpt>
      <trkpt lat="43.5319" lon="5.30145">
        <ele>238.54</ele>
        <time>2020-01-12T14:15:56Z</time>
      </trkpt>
      <trkpt lat="43.53195" lon="5.30134">
        <ele>239.51</ele>
        <time>2020-01-12T14:16:07Z</time>
      </trkpt>
      <trkpt lat="43.53199" lon="5.30123">
        <ele>239.51</ele>
        <time>2020-01-12T14:16:21Z</time>
      </trkpt>
      <trkpt lat="43.53204" lon="5.30115">
        <ele>240.95</ele>
        <time>2020-01-12T14:16:28Z</time>
      </trkpt>
      <trkpt lat="43.53206" lon="5.30109">
        <ele>241.43</ele>
        <time>2020-01-12T14:16:32Z</time>
      </trkpt>
      <trkpt lat="43.53215" lon="5.30096">
        <ele>241.43</ele>
        <time>2020-01-12T14:16:46Z</time>
      </trkpt>
      <trkpt lat="43.53226" lon="5.30089">
        <ele>241.43</ele>
        <time>2020-01-12T14:16:59Z</time>
      </trkpt>
      <trkpt lat="43.53235" lon="5.30082">
        <ele>241.43</ele>
        <time>2020-01-12T14:17:10Z</time>
      </trkpt>
      <trkpt lat="43.53246" lon="5.30079">
        <ele>243.35</ele>
        <time>2020-01-12T14:17:23Z</time>
      </trkpt>
      <trkpt lat="43.53248" lon="5.30077">
        <ele>243.83</ele>
        <time>2020-01-12T14:17:26Z</time>
      </trkpt>
      <trkpt lat="43.53254" lon="5.30076">
        <ele>245.75</ele>
        <time>2020-01-12T14:17:32Z</time>
      </trkpt>
      <trkpt lat="43.53263" lon="5.30068">
        <ele>245.75</ele>
        <time>2020-01-12T14:17:45Z</time>
      </trkpt>
      <trkpt lat="43.53268" lon="5.30064">
        <ele>246.23</ele>
        <time>2020-01-12T14:17:50Z</time>
      </trkpt>
      <trkpt lat="43.53277" lon="5.30058">
        <ele>246.72</ele>
        <time>2020-01-12T14:18:04Z</time>
      </trkpt>
      <trkpt lat="43.53286" lon="5.30058">
        <ele>247.2</ele>
        <time>2020-01-12T14:18:18Z</time>
      </trkpt>
      <trkpt lat="43.53297" lon="5.30053">
        <ele>249.12</ele>
        <time>2020-01-12T14:18:32Z</time>
      </trkpt>
      <trkpt lat="43.53295" lon="5.30053">
        <ele>248.16</ele>
        <time>2020-01-12T14:18:43Z</time>
      </trkpt>
      <trkpt lat="43.53303" lon="5.30047">
        <ele>248.16</ele>
        <time>2020-01-12T14:18:54Z</time>
      </trkpt>
      <trkpt lat="43.53314" lon="5.3004">
        <ele>249.12</ele>
        <time>2020-01-12T14:19:08Z</time>
      </trkpt>
      <trkpt lat="43.53318" lon="5.30035">
        <ele>247.68</ele>
        <time>2020-01-12T14:19:23Z</time>
      </trkpt>
      <trkpt lat="43.53323" lon="5.30032">
        <ele>248.64</ele>
        <time>2020-01-12T14:19:36Z</time>
      </trkpt>
      <trkpt lat="43.5333" lon="5.30023">
        <ele>249.12</ele>
        <time>2020-01-12T14:19:50Z</time>
      </trkpt>
      <trkpt lat="43.53334" lon="5.3002">
        <ele>248.64</ele>
        <time>2020-01-12T14:19:55Z</time>
      </trkpt>
      <trkpt lat="43.53341" lon="5.30015">
        <ele>247.68</ele>
        <time>2020-01-12T14:20:03Z</time>
      </trkpt>
      <trkpt lat="43.53343" lon="5.3001">
        <ele>246.72</ele>
        <time>2020-01-12T14:20:16Z</time>
      </trkpt>
      <trkpt lat="43.53348" lon="5.30008">
        <ele>247.2</ele>
        <time>2020-01-12T14:20:28Z</time>
      </trkpt>
      <trkpt lat="43.53361" lon="5.29999">
        <ele>247.68</ele>
        <time>2020-01-12T14:20:44Z</time>
      </trkpt>
      <trkpt lat="43.53365" lon="5.29994">
        <ele>248.16</ele>
        <time>2020-01-12T14:20:50Z</time>
      </trkpt>
      <trkpt lat="43.53377" lon="5.29984">
        <ele>250.08</ele>
        <time>2020-01-12T14:21:03Z</time>
      </trkpt>
      <trkpt lat="43.53381" lon="5.29978">
        <ele>252.96</ele>
        <time>2020-01-12T14:21:11Z</time>
      </trkpt>
      <trkpt lat="43.53392" lon="5.29969">
        <ele>252.48</ele>
        <time>2020-01-12T14:21:23Z</time>
      </trkpt>
      <trkpt lat="43.53399" lon="5.29962">
        <ele>252</ele>
        <time>2020-01-12T14:21:31Z</time>
      </trkpt>
      <trkpt lat="43.53411" lon="5.29952">
        <ele>250.56</ele>
        <time>2020-01-12T14:21:45Z</time>
      </trkpt>
      <trkpt lat="43.53412" lon="5.29951">
        <ele>250.08</ele>
        <time>2020-01-12T14:21:47Z</time>
      </trkpt>
      <trkpt lat="43.53416" lon="5.29948">
        <ele>250.56</ele>
        <time>2020-01-12T14:21:52Z</time>
      </trkpt>
      <trkpt lat="43.53423" lon="5.2995">
        <ele>250.08</ele>
        <time>2020-01-12T14:22:02Z</time>
      </trkpt>
      <trkpt lat="43.5343" lon="5.2995">
        <ele>250.08</ele>
        <time>2020-01-12T14:22:09Z</time>
      </trkpt>
      <trkpt lat="43.53439" lon="5.29945">
        <ele>249.6</ele>
        <time>2020-01-12T14:22:18Z</time>
      </trkpt>
      <trkpt lat="43.53442" lon="5.2993">
        <ele>250.08</ele>
        <time>2020-01-12T14:22:33Z</time>
      </trkpt>
      <trkpt lat="43.53446" lon="5.29922">
        <ele>249.12</ele>
        <time>2020-01-12T14:22:40Z</time>
      </trkpt>
      <trkpt lat="43.53456" lon="5.29912">
        <ele>250.08</ele>
        <time>2020-01-12T14:22:54Z</time>
      </trkpt>
      <trkpt lat="43.53465" lon="5.29902">
        <ele>252</ele>
        <time>2020-01-12T14:23:07Z</time>
      </trkpt>
      <trkpt lat="43.53471" lon="5.29895">
        <ele>253.44</ele>
        <time>2020-01-12T14:23:18Z</time>
      </trkpt>
      <trkpt lat="43.53474" lon="5.2989">
        <ele>255.37</ele>
        <time>2020-01-12T14:23:32Z</time>
      </trkpt>
      <trkpt lat="43.53472" lon="5.29887">
        <ele>256.33</ele>
        <time>2020-01-12T14:23:50Z</time>
      </trkpt>
      <trkpt lat="43.53471" lon="5.29887">
        <ele>252</ele>
        <time>2020-01-12T14:24:20Z</time>
      </trkpt>
    </trkseg>
  </trk>
</gpx>